Provisional Data: Chest Creek near Patton, PA


Please select a monitoring station.
Please select start date.
Please select start date.

Toggle Unit: C/F Toggle Unit: C/F
Sample Time Temperature (C) Temperature (F) Specific Conductivity (mS/cm) pH   Turbidity (NTU+) DO (mg/L)
1/12/2021 12:00:00 AM 0.92 33.656 0.208 7.22 4.92 13.34
1/12/2021 12:15:00 AM 0.89 33.602 0.208 7.22 4.95 13.34
1/12/2021 12:30:00 AM 0.85 33.53 0.209 7.22 4.83 13.35
1/12/2021 12:45:00 AM 0.82 33.476 0.209 7.22 5.04 13.36
1/12/2021 1:00:00 AM 0.81 33.458 0.209 7.22 4.79 13.36
1/12/2021 1:15:00 AM 0.79 33.422 0.209 7.22 4.65 13.36
1/12/2021 1:30:00 AM 0.79 33.422 0.209 7.22 4.69 13.37
1/12/2021 1:45:00 AM 0.78 33.404 0.209 7.22 4.61 13.37
1/12/2021 2:00:00 AM 0.78 33.404 0.209 7.22 4.59 13.37
1/12/2021 2:15:00 AM 0.77 33.386 0.209 7.22 4.47 13.38
1/12/2021 2:30:00 AM 0.77 33.386 0.21 7.22 4.53 13.38
1/12/2021 2:45:00 AM 0.77 33.386 0.21 7.22 4.55 13.38
1/12/2021 3:00:00 AM 0.76 33.368 0.21 7.22 4.72 13.37
1/12/2021 3:15:00 AM 0.76 33.368 0.21 7.22 4.6 13.37
1/12/2021 3:30:00 AM 0.77 33.386 0.21 7.22 4.43 13.38
1/12/2021 3:45:00 AM 0.77 33.386 0.21 7.22 4.46 13.37
1/12/2021 4:00:00 AM 0.76 33.368 0.211 7.22 4.69 13.37
1/12/2021 4:15:00 AM 0.76 33.368 0.211 7.22 4.88 13.37
1/12/2021 4:30:00 AM 0.75 33.35 0.211 7.22 4.7 13.38
1/12/2021 4:45:00 AM 0.74 33.332 0.211 7.22 4.56 13.37
1/12/2021 5:00:00 AM 0.74 33.332 0.212 7.21 4.52 13.38
1/12/2021 5:15:00 AM 0.73 33.314 0.212 7.22 4.51 13.37
1/12/2021 5:30:00 AM 0.71 33.278 0.212 7.22 4.61 13.37
1/12/2021 5:45:00 AM 0.7 33.26 0.212 7.22 4.67 13.38
1/12/2021 6:00:00 AM 0.7 33.26 0.213 7.22 4.69 13.38
1/12/2021 6:15:00 AM 0.7 33.26 0.213 7.21 4.54 13.38
1/12/2021 6:30:00 AM 0.7 33.26 0.213 7.21 4.38 13.38
1/12/2021 6:45:00 AM 0.7 33.26 0.213 7.21 4.41 13.39
1/12/2021 7:00:00 AM 0.68 33.224 0.213 7.21 4.74 13.38
1/12/2021 7:15:00 AM 0.68 33.224 0.213 7.21 4.42 13.39
1/12/2021 7:30:00 AM 0.66 33.188 0.213 7.21 4.6 13.4
1/12/2021 7:45:00 AM 0.65 33.17 0.213 7.21 4.36 13.4
1/12/2021 8:00:00 AM 0.65 33.17 0.213 7.21 4.35 13.4
1/12/2021 8:15:00 AM 0.65 33.17 0.213 7.21 4.28 13.42
1/12/2021 8:30:00 AM 0.65 33.17 0.213 7.21 4.67 13.43
1/12/2021 8:45:00 AM 0.64 33.152 0.213 7.21 4.57 13.43
1/12/2021 9:00:00 AM 0.64 33.152 0.213 7.21 4.72 13.44
1/12/2021 9:15:00 AM 0.65 33.17 0.213 7.22 4.88 13.47
1/12/2021 9:30:00 AM 0.67 33.206 0.213 7.22 4.77 13.48
1/12/2021 9:45:00 AM 0.7 33.26 0.213 7.22 4.78 13.5
1/12/2021 10:00:00 AM 0.72 33.296 0.213 7.22 4.65 13.51
1/12/2021 10:15:00 AM 0.75 33.35 0.213 7.23 4.61 13.53
1/12/2021 10:30:00 AM 0.78 33.404 0.213 7.23 4.54 13.54
1/12/2021 10:45:00 AM 0.81 33.458 0.213 7.23 4.49 13.57
1/12/2021 11:00:00 AM 0.87 33.566 0.213 7.23 4.59 13.57
1/12/2021 11:15:00 AM 0.96 33.728 0.213 7.24 4.89 13.59
1/12/2021 11:30:00 AM 1.04 33.872 0.213 7.24 4.59 13.58
1/12/2021 11:45:00 AM 1.28 34.304 0.213 7.25 4.41 13.59
1/12/2021 12:00:00 PM 1.4 34.52 0.213 7.25 4.33 13.58
1/12/2021 12:15:00 PM 1.57 34.826 0.213 7.26 4.3 13.56
1/12/2021 12:30:00 PM 1.79 35.222 0.213 7.26 4.45 13.54
1/12/2021 12:45:00 PM 1.94 35.492 0.213 7.26 4.29 13.51
1/12/2021 1:00:00 PM 2.02 35.636 0.213 7.26 4.32 13.5
1/12/2021 1:15:00 PM 2.08 35.744 0.213 7.27 4.35 13.49
1/12/2021 1:30:00 PM 2.11 35.798 0.213 7.26 4.34 13.47
1/12/2021 1:45:00 PM 2.13 35.834 0.213 7.27 4.15 13.47
1/12/2021 2:00:00 PM 2.15 35.87 0.213 7.27 4.39 13.46
1/12/2021 2:15:00 PM 2.13 35.834 0.213 7.27 4.51 13.45
1/12/2021 2:30:00 PM 2.1 35.78 0.213 7.27 4.42 13.45
1/12/2021 2:45:00 PM 2.06 35.708 0.214 7.27 4.43 13.44
1/12/2021 3:00:00 PM 2 35.6 0.214 7.27 4.41 13.46
1/12/2021 3:15:00 PM 1.92 35.456 0.214 7.27 4.35 13.45
1/12/2021 3:30:00 PM 1.83 35.294 0.214 7.27 4.37 13.46
1/12/2021 3:45:00 PM 1.74 35.132 0.214 7.27 4.27 13.46
1/12/2021 4:00:00 PM 1.61 34.898 0.214 7.27 4.24 13.47
1/12/2021 4:15:00 PM 1.5 34.7 0.215 7.27 4.32 13.46
1/12/2021 4:30:00 PM 1.42 34.556 0.215 7.26 4.24 13.46
1/12/2021 4:45:00 PM 1.38 34.484 0.215 7.26 4.24 13.44
1/12/2021 5:00:00 PM 1.36 34.448 0.215 7.26 4.35 13.43
1/12/2021 5:15:00 PM 1.36 34.448 0.215 7.25 4.38 13.39
1/12/2021 5:30:00 PM 1.37 34.466 0.215 7.25 4.26 13.36
1/12/2021 5:45:00 PM 1.38 34.484 0.215 7.24 4.33 13.33
1/12/2021 6:00:00 PM 1.4 34.52 0.216 7.24 4.33 13.31
1/12/2021 6:15:00 PM 1.41 34.538 0.216 7.24 4.54 13.28
1/12/2021 6:30:00 PM 1.41 34.538 0.216 7.24 4.44 13.26
1/12/2021 6:45:00 PM 1.4 34.52 0.216 7.23 4.66 13.25
1/12/2021 7:00:00 PM 1.4 34.52 0.216 7.23 4.41 13.24
1/12/2021 7:15:00 PM 1.41 34.538 0.216 7.23 4.59 13.23
1/12/2021 7:30:00 PM 1.41 34.538 0.216 7.23 4.45 13.22
1/12/2021 7:45:00 PM 1.41 34.538 0.215 7.22 4.59 13.22
1/12/2021 8:00:00 PM 1.42 34.556 0.216 7.23 4.59 13.21
1/12/2021 8:15:00 PM 1.42 34.556 0.215 7.23 4.62 13.21
1/12/2021 8:30:00 PM 1.43 34.574 0.216 7.23 4.65 13.2
1/12/2021 8:45:00 PM 1.43 34.574 0.215 7.22 4.41 13.19
1/12/2021 9:00:00 PM 1.42 34.556 0.216 7.23 4.41 13.18
1/12/2021 9:15:00 PM 1.42 34.556 0.215 7.22 4.29 13.18
1/12/2021 9:30:00 PM 1.41 34.538 0.215 7.22 4.48 13.17
1/12/2021 9:45:00 PM 1.39 34.502 0.215 7.22 4.47 13.16
1/12/2021 10:00:00 PM 1.37 34.466 0.215 7.22 4.61 13.17
1/12/2021 10:15:00 PM 1.35 34.43 0.215 7.22 4.38 13.18
1/12/2021 10:30:00 PM 1.34 34.412 0.215 7.22 4.36 13.17
1/12/2021 10:45:00 PM 1.31 34.358 0.215 7.22 4.31 13.17
1/12/2021 11:00:00 PM 1.28 34.304 0.215 7.22 4.42 13.18
1/12/2021 11:15:00 PM 1.26 34.268 0.215 7.22 4.3 13.19
1/12/2021 11:30:00 PM 1.24 34.232 0.215 7.22 4.4 13.19
1/12/2021 11:45:00 PM 1.22 34.196 0.215 7.22 4.44 13.19
1/13/2021 12:00:00 AM 1.21 34.178 0.215 7.21 4.36 13.18
1/13/2021 12:15:00 AM 1.19 34.142 0.215 7.21 4.79 13.18
1/13/2021 12:30:00 AM 1.17 34.106 0.215 7.21 4.37 13.19
1/13/2021 12:45:00 AM 1.15 34.07 0.215 7.21 4.32 13.19
1/13/2021 1:00:00 AM 1.14 34.052 0.215 7.21 4.32 13.19
1/13/2021 1:15:00 AM 1.13 34.034 0.215 7.21 4.36 13.19
1/13/2021 1:30:00 AM 1.12 34.016 0.216 7.2 4.23 13.19
1/13/2021 1:45:00 AM 1.11 33.998 0.216 7.21 4.33 13.19
1/13/2021 2:00:00 AM 1.1 33.98 0.216 7.21 4.33 13.19
1/13/2021 2:15:00 AM 1.09 33.962 0.216 7.21 4.33 13.2
1/13/2021 2:30:00 AM 1.09 33.962 0.216 7.21 4.44 13.2
1/13/2021 2:45:00 AM 1.08 33.944 0.216 7.21 4.27 13.2
1/13/2021 3:00:00 AM 1.07 33.926 0.216 7.22 4.4 13.21
1/13/2021 3:15:00 AM 1.07 33.926 0.216 7.22 4.5 13.2
1/13/2021 3:30:00 AM 1.06 33.908 0.216 7.22 4.47 13.21
1/13/2021 3:45:00 AM 1.06 33.908 0.216 7.22 4.57 13.2
1/13/2021 4:00:00 AM 1.06 33.908 0.217 7.22 4.51 13.2
1/13/2021 4:15:00 AM 1.05 33.89 0.217 7.22 4.57 13.2
1/13/2021 4:30:00 AM 1.05 33.89 0.217 7.22 4.54 13.2
1/13/2021 4:45:00 AM 1.05 33.89 0.217 7.22 4.54 13.19
1/13/2021 5:00:00 AM 1.05 33.89 0.217 7.22 4.47 13.2
1/13/2021 5:15:00 AM 1.04 33.872 0.217 7.22 4.61 13.2
1/13/2021 5:30:00 AM 1.04 33.872 0.217 7.22 4.64 13.2
1/13/2021 5:45:00 AM 1.04 33.872 0.217 7.22 4.51 13.21
1/13/2021 6:00:00 AM 1.03 33.854 0.217 7.22 4.48 13.2
1/13/2021 6:15:00 AM 1.02 33.836 0.217 7.22 4.63 13.21
1/13/2021 6:30:00 AM 1 33.8 0.217 7.22 4.44 13.21
1/13/2021 6:45:00 AM 0.99 33.782 0.217 7.22 4.36 13.21
1/13/2021 7:00:00 AM 0.98 33.764 0.217 7.22 4.34 13.22
1/13/2021 7:15:00 AM 0.97 33.746 0.217 7.22 4.36 13.21
1/13/2021 7:30:00 AM 0.96 33.728 0.217 7.22 4.32 13.23
1/13/2021 7:45:00 AM 0.95 33.71 0.217 7.22 4.47 13.22
1/13/2021 8:00:00 AM 0.95 33.71 0.217 7.22 4.41 13.23
1/13/2021 8:15:00 AM 0.94 33.692 0.217 7.23 4.36 13.24
1/13/2021 8:30:00 AM 0.94 33.692 0.218 7.22 4.4 13.25
1/13/2021 8:45:00 AM 0.95 33.71 0.217 7.22 4.59 13.24
1/13/2021 9:00:00 AM 0.95 33.71 0.218 7.22 4.58 13.27
1/13/2021 9:15:00 AM 0.98 33.764 0.218 7.23 4.79 13.3
1/13/2021 9:30:00 AM 1 33.8 0.218 7.23 4.76 13.31
1/13/2021 9:45:00 AM 1.04 33.872 0.218 7.23 4.81 13.35
1/13/2021 10:00:00 AM 1.09 33.962 0.217 7.24 4.61 13.36
1/13/2021 10:15:00 AM 1.16 34.088 0.217 7.24 4.71 13.39
1/13/2021 10:30:00 AM 1.23 34.214 0.217 7.24 4.66 13.4
1/13/2021 10:45:00 AM 1.27 34.286 0.217 7.25 4.57 13.41
1/13/2021 11:00:00 AM 1.32 34.376 0.217 7.25 4.48 13.42
1/13/2021 11:15:00 AM 1.36 34.448 0.217 7.25 4.48 13.41
1/13/2021 11:30:00 AM 1.41 34.538 0.217 7.25 4.45 13.41
1/13/2021 11:45:00 AM 1.49 34.682 0.217 7.25 4.4 13.42
1/13/2021 12:00:00 PM 1.6 34.88 0.217 7.25 4.4 13.41
1/13/2021 12:15:00 PM 1.67 35.006 0.217 7.26 4.35 13.41
1/13/2021 12:30:00 PM 1.84 35.312 0.217 7.26 4.4 13.4
1/13/2021 12:45:00 PM 1.93 35.474 0.217 7.26 4.39 13.39
1/13/2021 1:00:00 PM 1.93 35.474 0.217 7.27 4.33 13.37
1/13/2021 1:15:00 PM 1.99 35.582 0.217 7.27 4.35 13.35
1/13/2021 1:30:00 PM 2.02 35.636 0.217 7.27 4.43 13.35
1/13/2021 1:45:00 PM 2.08 35.744 0.217 7.27 4.56 13.35
1/13/2021 2:00:00 PM 2.1 35.78 0.217 7.27 4.45 13.34
1/13/2021 2:15:00 PM 2.13 35.834 0.217 7.27 4.37 13.33
1/13/2021 2:30:00 PM 2.2 35.96 0.217 7.27 4.22 13.33
1/13/2021 2:45:00 PM 2.27 36.086 0.217 7.28 4.3 13.33
1/13/2021 3:00:00 PM 2.29 36.122 0.217 7.27 4.37 13.32
1/13/2021 3:15:00 PM 2.26 36.068 0.217 7.28 4.39 13.31
1/13/2021 3:30:00 PM 2.24 36.032 0.217 7.27 4.42 13.3
1/13/2021 3:45:00 PM 2.2 35.96 0.217 7.27 4.36 13.29
1/13/2021 4:00:00 PM 2.16 35.888 0.218 7.27 4.36 13.25
1/13/2021 4:15:00 PM 2.14 35.852 0.218 7.26 4.37 13.23
1/13/2021 4:30:00 PM 2.12 35.816 0.218 7.26 4.47 13.21
1/13/2021 4:45:00 PM 2.09 35.762 0.218 7.26 4.48 13.18
1/13/2021 5:00:00 PM 2.06 35.708 0.218 7.25 4.36 13.16
1/13/2021 5:15:00 PM 2.02 35.636 0.218 7.25 4.57 13.12
1/13/2021 5:30:00 PM 1.99 35.582 0.218 7.25 4.62 13.1
1/13/2021 5:45:00 PM 1.97 35.546 0.219 7.24 4.63 13.07
1/13/2021 6:00:00 PM 1.94 35.492 0.219 7.24 4.55 13.05
1/13/2021 6:15:00 PM 1.91 35.438 0.219 7.24 4.48 13.04
1/13/2021 6:30:00 PM 1.88 35.384 0.219 7.23 4.51 13.03
1/13/2021 6:45:00 PM 1.86 35.348 0.219 7.23 4.52 13.02
1/13/2021 7:00:00 PM 1.84 35.312 0.219 7.23 4.43 13.01
1/13/2021 7:15:00 PM 1.83 35.294 0.219 7.23 4.34 13.01
1/13/2021 7:30:00 PM 1.82 35.276 0.219 7.23 4.38 13
1/13/2021 7:45:00 PM 1.8 35.24 0.219 7.22 4.42 13
1/13/2021 8:00:00 PM 1.8 35.24 0.219 7.23 4.48 13
1/13/2021 8:15:00 PM 1.79 35.222 0.219 7.23 4.42 12.99
1/13/2021 8:30:00 PM 1.8 35.24 0.219 7.23 4.5 12.99
1/13/2021 8:45:00 PM 1.8 35.24 0.219 7.22 4.44 12.98
1/13/2021 9:00:00 PM 1.8 35.24 0.219 7.22 4.42 12.98
1/13/2021 9:15:00 PM 1.81 35.258 0.219 7.23 4.44 12.97
1/13/2021 9:30:00 PM 1.82 35.276 0.219 7.22 4.34 12.96
1/13/2021 9:45:00 PM 1.82 35.276 0.219 7.22 4.46 12.95
1/13/2021 10:00:00 PM 1.81 35.258 0.219 7.22 4.34 12.95
1/13/2021 10:15:00 PM 1.81 35.258 0.219 7.22 4.48 12.94
1/13/2021 10:30:00 PM 1.8 35.24 0.219 7.22 4.58 12.93
1/13/2021 10:45:00 PM 1.8 35.24 0.219 7.21 4.62 12.91
1/13/2021 11:00:00 PM 1.81 35.258 0.219 7.21 4.61 12.9
1/13/2021 11:15:00 PM 1.81 35.258 0.218 7.21 4.39 12.9
1/13/2021 11:30:00 PM 1.81 35.258 0.219 7.21 4.33 12.9
1/13/2021 11:45:00 PM 1.81 35.258 0.219 7.21 4.45 12.9
1/14/2021 12:00:00 AM 1.82 35.276 0.219 7.21 4.48 12.89
1/14/2021 12:15:00 AM 1.82 35.276 0.219 7.21 4.41 12.89
1/14/2021 12:30:00 AM 1.83 35.294 0.219 7.21 4.4 12.89
1/14/2021 12:45:00 AM 1.83 35.294 0.219 7.22 4.41 12.88
1/14/2021 1:00:00 AM 1.83 35.294 0.219 7.21 4.39 12.88
1/14/2021 1:15:00 AM 1.84 35.312 0.219 7.22 4.38 12.87
1/14/2021 1:30:00 AM 1.84 35.312 0.219 7.22 4.37 12.87
1/14/2021 1:45:00 AM 1.84 35.312 0.219 7.22 4.43 12.87
1/14/2021 2:00:00 AM 1.85 35.33 0.219 7.22 4.27 12.87
1/14/2021 2:15:00 AM 1.86 35.348 0.219 7.22 4.49 12.86
1/14/2021 2:30:00 AM 1.86 35.348 0.219 7.22 4.62 12.86
1/14/2021 2:45:00 AM 1.86 35.348 0.219 7.22 4.51 12.86
1/14/2021 3:00:00 AM 1.86 35.348 0.219 7.22 4.46 12.85
1/14/2021 3:15:00 AM 1.86 35.348 0.219 7.22 4.48 12.86
1/14/2021 3:30:00 AM 1.86 35.348 0.219 7.22 4.46 12.85
1/14/2021 3:45:00 AM 1.86 35.348 0.219 7.22 4.33 12.85
1/14/2021 4:00:00 AM 1.85 35.33 0.219 7.22 4.33 12.84
1/14/2021 4:15:00 AM 1.84 35.312 0.219 7.22 4.3 12.84
1/14/2021 4:30:00 AM 1.84 35.312 0.219 7.22 5.12 12.84
1/14/2021 4:45:00 AM 1.84 35.312 0.219 7.22 4.54 12.84
1/14/2021 5:00:00 AM 1.84 35.312 0.219 7.22 4.53 12.84
1/14/2021 5:15:00 AM 1.84 35.312 0.219 7.22 4.54 12.84
1/14/2021 5:30:00 AM 1.85 35.33 0.219 7.22 4.41 12.84
1/14/2021 5:45:00 AM 1.85 35.33 0.219 7.22 4.41 12.83
1/14/2021 6:00:00 AM 1.86 35.348 0.219 7.22 4.52 12.83
1/14/2021 6:15:00 AM 1.86 35.348 0.219 7.22 4.58 12.83
1/14/2021 6:30:00 AM 1.86 35.348 0.219 7.22 4.56 12.83
1/14/2021 6:45:00 AM 1.86 35.348 0.219 7.22 4.51 12.83
1/14/2021 7:00:00 AM 1.86 35.348 0.219 7.22 4.47 12.82
1/14/2021 7:15:00 AM 1.86 35.348 0.219 7.22 4.56 12.83
1/14/2021 7:30:00 AM 1.85 35.33 0.219 7.22 4.41 12.82
1/14/2021 7:45:00 AM 1.85 35.33 0.219 7.22 4.54 12.83
1/14/2021 8:00:00 AM 1.85 35.33 0.219 7.23 4.55 12.84
1/14/2021 8:15:00 AM 1.86 35.348 0.219 7.23 4.39 12.85
1/14/2021 8:30:00 AM 1.87 35.366 0.218 7.23 4.41 12.86
1/14/2021 8:45:00 AM 1.89 35.402 0.218 7.23 4.31 12.89
1/14/2021 9:00:00 AM 1.92 35.456 0.218 7.24 4.32 12.92
1/14/2021 9:15:00 AM 1.96 35.528 0.218 7.24 4.38 12.95
1/14/2021 9:30:00 AM 2 35.6 0.218 7.24 4.45 12.97
1/14/2021 9:45:00 AM 2.04 35.672 0.218 7.24 4.37 12.99
1/14/2021 10:00:00 AM 2.11 35.798 0.218 7.25 4.35 13.01
1/14/2021 10:15:00 AM 2.19 35.942 0.218 7.26 4.28 13.03
1/14/2021 10:30:00 AM 2.26 36.068 0.218 7.26 4.31 13.05
1/14/2021 10:45:00 AM 2.35 36.23 0.218 7.26 4.2 13.06
1/14/2021 11:00:00 AM 2.46 36.428 0.218 7.27 4.33 13.06
1/14/2021 11:15:00 AM 2.54 36.572 0.218 7.27 4.35 13.06
1/14/2021 11:30:00 AM 2.7 36.86 0.218 7.27 4.36 13.05
1/14/2021 11:45:00 AM 2.89 37.202 0.217 7.28 4.39 13.04
1/14/2021 12:00:00 PM 2.98 37.364 0.217 7.28 4.29 13.02
1/14/2021 12:15:00 PM 3.16 37.688 0.218 7.28 4.43 13.02
1/14/2021 12:30:00 PM 3.18 37.724 0.217 7.28 4.37 13
1/14/2021 12:45:00 PM 3.23 37.814 0.217 7.28 4.37 12.98
1/14/2021 1:00:00 PM 3.29 37.922 0.217 7.28 4.4 12.98
1/14/2021 1:15:00 PM 3.33 37.994 0.218 7.28 4.49 12.97
1/14/2021 1:30:00 PM 3.44 38.192 0.218 7.29 4.32 12.96
1/14/2021 1:45:00 PM 3.52 38.336 0.217 7.29 4.4 12.94
1/14/2021 2:00:00 PM 3.59 38.462 0.218 7.29 4.31 12.94
1/14/2021 2:15:00 PM 3.64 38.552 0.217 7.29 4.42 12.92
1/14/2021 2:30:00 PM 3.63 38.534 0.218 7.29 4.41 12.91
1/14/2021 2:45:00 PM 3.58 38.444 0.218 7.29 4.44 12.9
1/14/2021 3:00:00 PM 3.53 38.354 0.218 7.29 4.3 12.89
1/14/2021 3:15:00 PM 3.49 38.282 0.218 7.29 4.33 12.88
1/14/2021 3:30:00 PM 3.43 38.174 0.218 7.29 4.36 12.88
1/14/2021 3:45:00 PM 3.34 38.012 0.218 7.29 4.42 12.86
1/14/2021 4:00:00 PM 3.27 37.886 0.218 7.29 4.38 12.86
1/14/2021 4:15:00 PM 3.2 37.76 0.218 7.29 4.47 12.84
1/14/2021 4:30:00 PM 3.14 37.652 0.219 7.28 4.39 12.82
1/14/2021 4:45:00 PM 3.08 37.544 0.219 7.28 4.36 12.8
1/14/2021 5:00:00 PM 3.03 37.454 0.219 7.27 4.3 12.78
1/14/2021 5:15:00 PM 2.97 37.346 0.219 7.27 4.32 12.75
1/14/2021 5:30:00 PM 2.93 37.274 0.219 7.27 4.31 12.72
1/14/2021 5:45:00 PM 2.89 37.202 0.219 7.27 4.39 12.7
1/14/2021 6:00:00 PM 2.86 37.148 0.219 7.26 4.46 12.67
1/14/2021 6:15:00 PM 2.82 37.076 0.219 7.25 4.37 12.65
1/14/2021 6:30:00 PM 2.78 37.004 0.219 7.25 4.33 12.64
1/14/2021 6:45:00 PM 2.74 36.932 0.219 7.24 4.45 12.63
1/14/2021 7:00:00 PM 2.69 36.842 0.219 7.24 4.51 12.63
1/14/2021 7:15:00 PM 2.64 36.752 0.219 7.24 4.47 12.63
1/14/2021 7:30:00 PM 2.61 36.698 0.219 7.24 4.42 12.63
1/14/2021 7:45:00 PM 2.58 36.644 0.219 7.24 4.4 12.63
1/14/2021 8:00:00 PM 2.57 36.626 0.219 7.24 4.5 12.62
1/14/2021 8:15:00 PM 2.56 36.608 0.219 7.23 4.55 12.62
1/14/2021 8:30:00 PM 2.56 36.608 0.219 7.23 4.57 12.61
1/14/2021 8:45:00 PM 2.55 36.59 0.219 7.23 4.6 12.61
1/14/2021 9:00:00 PM 2.54 36.572 0.219 7.23 4.77 12.61
1/14/2021 9:15:00 PM 2.52 36.536 0.219 7.24 4.8 12.61
1/14/2021 9:30:00 PM 2.5 36.5 0.219 7.24 4.68 12.61
1/14/2021 9:45:00 PM 2.48 36.464 0.219 7.24 4.57 12.61
1/14/2021 10:00:00 PM 2.45 36.41 0.219 7.23 4.67 12.6
1/14/2021 10:15:00 PM 2.44 36.392 0.219 7.23 4.64 12.6
1/14/2021 10:30:00 PM 2.42 36.356 0.219 7.23 4.71 12.6
1/14/2021 10:45:00 PM 2.4 36.32 0.219 7.23 4.71 12.6
1/14/2021 11:00:00 PM 2.38 36.284 0.219 7.23 4.86 12.61
1/14/2021 11:15:00 PM 2.35 36.23 0.219 7.23 4.7 12.61
1/14/2021 11:30:00 PM 2.32 36.176 0.219 7.23 4.6 12.62
1/14/2021 11:45:00 PM 2.28 36.104 0.219 7.22 4.71 12.61
1/15/2021 12:00:00 AM 2.25 36.05 0.219 7.23 4.66 12.62
1/15/2021 12:15:00 AM 2.22 35.996 0.219 7.23 4.71 12.64
1/15/2021 12:30:00 AM 2.21 35.978 0.219 7.23 4.73 12.64
1/15/2021 12:45:00 AM 2.21 35.978 0.219 7.23 4.58 12.64
1/15/2021 1:00:00 AM 2.2 35.96 0.219 7.23 4.63 12.63
1/15/2021 1:15:00 AM 2.19 35.942 0.219 7.23 4.83 12.63
1/15/2021 1:30:00 AM 2.18 35.924 0.219 7.23 4.68 12.63
1/15/2021 1:45:00 AM 2.17 35.906 0.219 7.23 4.64 12.64
1/15/2021 2:00:00 AM 2.16 35.888 0.219 7.23 4.59 12.65
1/15/2021 2:15:00 AM 2.14 35.852 0.219 7.23 4.67 12.65
1/15/2021 2:30:00 AM 2.13 35.834 0.219 7.23 4.48 12.65
1/15/2021 2:45:00 AM 2.11 35.798 0.219 7.23 4.66 12.66
1/15/2021 3:00:00 AM 2.1 35.78 0.219 7.23 4.64 12.66
1/15/2021 3:15:00 AM 2.09 35.762 0.219 7.24 4.46 12.66
1/15/2021 3:30:00 AM 2.08 35.744 0.219 7.24 4.59 12.67
1/15/2021 3:45:00 AM 2.07 35.726 0.219 7.24 4.6 12.66
1/15/2021 4:00:00 AM 2.06 35.708 0.219 7.24 4.68 12.67
1/15/2021 4:15:00 AM 2.06 35.708 0.219 7.24 4.48 12.67
1/15/2021 4:30:00 AM 2.06 35.708 0.219 7.24 4.73 12.67
1/15/2021 4:45:00 AM 2.06 35.708 0.219 7.24 4.57 12.68
1/15/2021 5:00:00 AM 2.06 35.708 0.219 7.24 4.49 12.67
1/15/2021 5:15:00 AM 2.05 35.69 0.218 7.24 4.82 12.68
1/15/2021 5:30:00 AM 2.03 35.654 0.219 7.24 4.69 12.68
1/15/2021 5:45:00 AM 2.04 35.672 0.219 7.24 4.67 12.68
1/15/2021 6:00:00 AM 2.05 35.69 0.219 7.24 4.7 12.68
1/15/2021 6:15:00 AM 2.05 35.69 0.219 7.24 4.8 12.68
1/15/2021 6:30:00 AM 2.05 35.69 0.219 7.24 4.65 12.68
1/15/2021 6:45:00 AM 2.06 35.708 0.219 7.24 4.69 12.68
1/15/2021 7:00:00 AM 2.06 35.708 0.219 7.24 4.55 12.68
1/15/2021 7:15:00 AM 2.05 35.69 0.219 7.24 4.52 12.69
1/15/2021 7:30:00 AM 2.04 35.672 0.219 7.24 4.57 12.68
1/15/2021 7:45:00 AM 2.02 35.636 0.219 7.24 4.54 12.69
1/15/2021 8:00:00 AM 2 35.6 0.219 7.24 4.53 12.71
1/15/2021 8:15:00 AM 2 35.6 0.219 7.24 5.4 12.72
1/15/2021 8:30:00 AM 2 35.6 0.219 7.24 5.15 12.75
1/15/2021 8:45:00 AM 2.01 35.618 0.219 7.25 5.22 12.77
1/15/2021 9:00:00 AM 2.05 35.69 0.218 7.25 5.26 12.82
1/15/2021 9:15:00 AM 2.11 35.798 0.218 7.26 5.08 12.86
1/15/2021 9:30:00 AM 2.13 35.834 0.218 7.26 5.37 12.88
1/15/2021 9:45:00 AM 2.17 35.906 0.218 7.26 5.38 12.9
1/15/2021 10:00:00 AM 2.21 35.978 0.218 7.27 5.41 12.92
1/15/2021 10:15:00 AM 2.3 36.14 0.218 7.27 5.33 12.94
1/15/2021 10:30:00 AM 2.37 36.266 0.218 7.28 5.09 12.96
1/15/2021 10:45:00 AM 2.46 36.428 0.218 7.28 5.27 12.96
1/15/2021 11:00:00 AM 2.53 36.554 0.218 7.28 5.15 12.96
1/15/2021 11:15:00 AM 2.67 36.806 0.218 7.28 5.27 12.96
1/15/2021 11:30:00 AM 2.71 36.878 0.218 7.29 5.42 12.96
1/15/2021 11:45:00 AM 2.74 36.932 0.218 7.29 5.43 12.95
1/15/2021 12:00:00 PM 2.76 36.968 0.218 7.29 4.94 12.94
1/15/2021 12:15:00 PM 2.81 37.058 0.218 7.29 4.61 12.94
1/15/2021 12:30:00 PM 2.85 37.13 0.218 7.3 4.5 12.94
1/15/2021 12:45:00 PM 2.98 37.364 0.218 7.3 4.45 12.93
1/15/2021 1:00:00 PM 3 37.4 0.218 7.3 4.69 12.92
1/15/2021 1:15:00 PM 3.01 37.418 0.218 7.3 4.63 12.9
1/15/2021 1:30:00 PM 3.03 37.454 0.218 7.3 4.57 12.89
1/15/2021 1:45:00 PM 3.01 37.418 0.218 7.3 4.52 12.89
1/15/2021 2:00:00 PM 2.98 37.364 0.218 7.3 4.63 12.87
1/15/2021 2:15:00 PM 2.95 37.31 0.218 7.3 4.65 12.85
1/15/2021 2:30:00 PM 2.94 37.292 0.219 7.3 4.56 12.84
1/15/2021 2:45:00 PM 2.93 37.274 0.219 7.3 4.57 12.82
1/15/2021 3:00:00 PM 2.92 37.256 0.219 7.3 4.65 12.81
1/15/2021 3:15:00 PM 2.89 37.202 0.219 7.29 4.64 12.77
1/15/2021 3:30:00 PM 2.84 37.112 0.219 7.28 4.64 12.74
1/15/2021 3:45:00 PM 2.82 37.076 0.219 7.28 4.52 12.71
1/15/2021 4:00:00 PM 2.8 37.04 0.219 7.27 4.52 12.69
1/15/2021 4:15:00 PM 2.78 37.004 0.219 7.27 4.58 12.67
1/15/2021 4:30:00 PM 2.76 36.968 0.219 7.27 4.57 12.65
1/15/2021 4:45:00 PM 2.74 36.932 0.22 7.26 4.54 12.63
1/15/2021 5:00:00 PM 2.72 36.896 0.22 7.26 4.6 12.62
1/15/2021 5:15:00 PM 2.71 36.878 0.23 7.26 6.12 12.6
1/15/2021 5:30:00 PM 2.69 36.842 0.248 7.27 8.26 12.59
1/15/2021 5:45:00 PM 2.65 36.77 0.257 7.27 8.82 12.57
1/15/2021 6:00:00 PM 2.57 36.626 0.256 7.25 7.83 12.54
1/15/2021 6:15:00 PM 2.56 36.608 0.291 7.24 10.26 12.53
1/15/2021 6:30:00 PM 2.49 36.482 0.299 7.25 10.6 12.52
1/15/2021 6:45:00 PM 2.47 36.446 0.285 7.25 9.47 12.52
1/15/2021 7:00:00 PM 2.45 36.41 0.29 7.25 9.28 12.53
1/15/2021 7:15:00 PM 2.41 36.338 0.295 7.25 8.84 12.53
1/15/2021 7:30:00 PM 2.38 36.284 0.286 7.24 7.87 12.54
1/15/2021 7:45:00 PM 2.35 36.23 0.274 7.24 7.35 12.54
1/15/2021 8:00:00 PM 2.31 36.158 0.264 7.24 6.81 12.55
1/15/2021 8:15:00 PM 2.33 36.194 0.257 7.24 6.33 12.55
1/15/2021 8:30:00 PM 2.32 36.176 0.257 7.23 6.22 12.56
1/15/2021 8:45:00 PM 2.32 36.176 0.257 7.24 5.9 12.56
1/15/2021 9:00:00 PM 2.33 36.194 0.251 7.24 5.8 12.56
1/15/2021 9:15:00 PM 2.34 36.212 0.245 7.24 5.37 12.55
1/15/2021 9:30:00 PM 2.35 36.23 0.247 7.24 5.4 12.56
1/15/2021 9:45:00 PM 2.35 36.23 0.252 7.23 5.4 12.55
1/15/2021 10:00:00 PM 2.34 36.212 0.252 7.23 5.27 12.55
1/15/2021 10:15:00 PM 2.34 36.212 0.248 7.23 5.2 12.54
1/15/2021 10:30:00 PM 2.34 36.212 0.245 7.23 5.22 12.55
1/15/2021 10:45:00 PM 2.33 36.194 0.243 7.23 4.91 12.55
1/15/2021 11:00:00 PM 2.34 36.212 0.241 7.23 4.96 12.55
1/15/2021 11:15:00 PM 2.33 36.194 0.238 7.23 4.99 12.55
1/15/2021 11:30:00 PM 2.29 36.122 0.235 7.22 5.14 12.54
1/15/2021 11:45:00 PM 2.26 36.068 0.232 7.22 4.99 12.54
1/16/2021 12:00:00 AM 2.22 35.996 0.23 7.22 4.9 12.56
1/16/2021 12:15:00 AM 2.18 35.924 0.228 7.23 4.8 12.57
1/16/2021 12:30:00 AM 2.17 35.906 0.226 7.23 4.91 12.56
1/16/2021 12:45:00 AM 2.13 35.834 0.225 7.23 4.71 12.57
1/16/2021 1:00:00 AM 2.14 35.852 0.224 7.23 4.64 12.58
1/16/2021 1:15:00 AM 2.13 35.834 0.223 7.23 4.75 12.59
1/16/2021 1:30:00 AM 2.13 35.834 0.222 7.24 4.63 12.6
1/16/2021 1:45:00 AM 2.14 35.852 0.222 7.24 4.64 12.59
1/16/2021 2:00:00 AM 2.15 35.87 0.221 7.24 4.67 12.6
1/16/2021 2:15:00 AM 2.14 35.852 0.221 7.24 4.67 12.61
1/16/2021 2:30:00 AM 2.14 35.852 0.221 7.24 4.8 12.6
1/16/2021 2:45:00 AM 2.14 35.852 0.22 7.24 4.71 12.61
1/16/2021 3:00:00 AM 2.15 35.87 0.221 7.24 4.66 12.6
1/16/2021 3:15:00 AM 2.15 35.87 0.221 7.24 4.76 12.6
1/16/2021 3:30:00 AM 2.15 35.87 0.22 7.25 4.83 12.59
1/16/2021 3:45:00 AM 2.15 35.87 0.22 7.25 5.16 12.6
1/16/2021 4:00:00 AM 2.14 35.852 0.22 7.25 4.77 12.61
1/16/2021 4:15:00 AM 2.14 35.852 0.22 7.25 4.77 12.6
1/16/2021 4:30:00 AM 2.13 35.834 0.22 7.25 4.85 12.62
1/16/2021 4:45:00 AM 2.13 35.834 0.22 7.24 5.11 12.61
1/16/2021 5:00:00 AM 2.11 35.798 0.219 7.25 4.88 12.61
1/16/2021 5:15:00 AM 2.1 35.78 0.22 7.25 4.75 12.61
1/16/2021 5:30:00 AM 2.08 35.744 0.219 7.25 4.79 12.62
1/16/2021 5:45:00 AM 2.05 35.69 0.219 7.25 4.63 12.63
1/16/2021 6:00:00 AM 2.01 35.618 0.219 7.25 4.72 12.63
1/16/2021 6:15:00 AM 1.96 35.528 0.219 7.25 4.75 12.64
1/16/2021 6:30:00 AM 1.91 35.438 0.219 7.25 4.61 12.65
1/16/2021 6:45:00 AM 1.87 35.366 0.218 7.25 5 12.65
1/16/2021 7:00:00 AM 1.84 35.312 0.218 7.25 4.68 12.66
1/16/2021 7:15:00 AM 1.82 35.276 0.218 7.25 4.74 12.66
1/16/2021 7:30:00 AM 1.8 35.24 0.219 7.25 4.74 12.68
1/16/2021 7:45:00 AM 1.78 35.204 0.218 7.25 4.73 12.69
1/16/2021 8:00:00 AM 1.77 35.186 0.218 7.25 4.61 12.7
1/16/2021 8:15:00 AM 1.77 35.186 0.218 7.26 4.63 12.74
1/16/2021 8:30:00 AM 1.77 35.186 0.219 7.26 4.54 12.77
1/16/2021 8:45:00 AM 1.77 35.186 0.219 7.27 4.77 12.8
1/16/2021 9:00:00 AM 1.8 35.24 0.219 7.27 4.65 12.84
1/16/2021 9:15:00 AM 1.83 35.294 0.219 7.27 4.72 12.89
1/16/2021 9:30:00 AM 1.86 35.348 0.219 7.28 4.66 12.91
1/16/2021 9:45:00 AM 1.91 35.438 0.219 7.29 4.65 12.94
1/16/2021 10:00:00 AM 1.97 35.546 0.219 7.29 5.04 12.97
1/16/2021 10:15:00 AM 2.03 35.654 0.218 7.29 4.51 12.98
1/16/2021 10:30:00 AM 2.13 35.834 0.219 7.3 4.66 12.99
1/16/2021 10:45:00 AM 2.29 36.122 0.218 7.3 4.74 13
1/16/2021 11:00:00 AM 2.37 36.266 0.218 7.31 4.69 13
1/16/2021 11:15:00 AM 2.54 36.572 0.218 7.31 4.88 12.99
1/16/2021 11:30:00 AM 2.65 36.77 0.218 7.31 4.74 12.98
1/16/2021 11:45:00 AM 2.63 36.734 0.218 7.31 4.76 12.98
1/16/2021 12:00:00 PM 2.55 36.59 0.218 7.31 4.85 12.96
1/16/2021 12:15:00 PM 2.52 36.536 0.217 7.31 4.61 12.96
1/16/2021 12:30:00 PM 2.49 36.482 0.218 7.31 4.67 12.97
1/16/2021 12:45:00 PM 2.49 36.482 0.217 7.31 4.66 12.97
1/16/2021 1:00:00 PM 2.52 36.536 0.218 7.31 4.59 12.97
1/16/2021 1:15:00 PM 2.56 36.608 0.217 7.31 4.56 12.97
1/16/2021 1:30:00 PM 2.6 36.68 0.218 7.31 4.62 12.97
1/16/2021 1:45:00 PM 2.66 36.788 0.217 7.31 4.68 12.97
1/16/2021 2:00:00 PM 2.69 36.842 0.218 7.31 4.75 12.98
1/16/2021 2:15:00 PM 2.69 36.842 0.217 7.31 4.7 12.97
1/16/2021 2:30:00 PM 2.7 36.86 0.218 7.31 4.75 12.97
1/16/2021 2:45:00 PM 2.72 36.896 0.218 7.31 4.71 12.96
1/16/2021 3:00:00 PM 2.65 36.77 0.218 7.31 4.77 12.95
1/16/2021 3:15:00 PM 2.63 36.734 0.217 7.31 4.91 12.94
1/16/2021 3:30:00 PM 2.58 36.644 0.218 7.31 4.82 12.93
1/16/2021 3:45:00 PM 2.54 36.572 0.217 7.31 4.72 12.91
1/16/2021 4:00:00 PM 2.5 36.5 0.218 7.3 4.73 12.9
1/16/2021 4:15:00 PM 2.47 36.446 0.219 7.3 4.63 12.89
1/16/2021 4:30:00 PM 2.44 36.392 0.222 7.3 4.68 12.88
1/16/2021 4:45:00 PM 2.41 36.338 0.221 7.3 4.75 12.87
1/16/2021 5:00:00 PM 2.37 36.266 0.22 7.3 4.62 12.85
1/16/2021 5:15:00 PM 2.34 36.212 0.221 7.3 4.58 12.83
1/16/2021 5:30:00 PM 2.3 36.14 0.221 7.3 4.62 12.81
1/16/2021 5:45:00 PM 2.26 36.068 0.221 7.29 4.82 12.79
1/16/2021 6:00:00 PM 2.23 36.014 0.221 7.29 4.66 12.77
1/16/2021 6:15:00 PM 2.2 35.96 0.22 7.28 4.82 12.76
1/16/2021 6:30:00 PM 2.18 35.924 0.22 7.28 4.76 12.75
1/16/2021 6:45:00 PM 2.16 35.888 0.22 7.28 4.64 12.73
1/16/2021 7:00:00 PM 2.13 35.834 0.22 7.28 4.72 12.73
1/16/2021 7:15:00 PM 2.12 35.816 0.22 7.28 4.74 12.72
1/16/2021 7:30:00 PM 2.11 35.798 0.22 7.28 4.75 12.73
1/16/2021 7:45:00 PM 2.09 35.762 0.22 7.28 4.65 12.72
1/16/2021 8:00:00 PM 2.08 35.744 0.22 7.27 4.71 12.72
1/16/2021 8:15:00 PM 2.07 35.726 0.219 7.27 4.69 12.72
1/16/2021 8:30:00 PM 2.03 35.654 0.219 7.27 4.73 12.71
1/16/2021 8:45:00 PM 2.03 35.654 0.22 7.28 4.69 12.71
1/16/2021 9:00:00 PM 2 35.6 0.22 7.27 4.63 12.7
1/16/2021 9:15:00 PM 1.99 35.582 0.22 7.27 4.92 12.71
1/16/2021 9:30:00 PM 1.96 35.528 0.22 7.27 4.72 12.72
1/16/2021 9:45:00 PM 1.8 35.24 0.22 7.27 4.58 12.71
1/16/2021 10:00:00 PM 1.8 35.24 0.221 7.27 4.72 12.71
1/16/2021 10:15:00 PM 1.77 35.186 0.223 7.27 4.74 12.71
1/16/2021 10:30:00 PM 1.73 35.114 0.225 7.27 4.67 12.72
1/16/2021 10:45:00 PM 1.7 35.06 0.226 7.27 4.65 12.73
1/16/2021 11:00:00 PM 1.68 35.024 0.225 7.27 4.63 12.74
1/16/2021 11:15:00 PM 1.67 35.006 0.223 7.27 4.69 12.74
1/16/2021 11:30:00 PM 1.67 35.006 0.222 7.27 4.76 12.74
1/16/2021 11:45:00 PM 1.67 35.006 0.222 7.27 4.87 12.75
1/17/2021 12:00:00 AM 1.66 34.988 0.222 7.27 4.98 12.75
1/17/2021 12:15:00 AM 1.65 34.97 0.222 7.27 4.7 12.76
1/17/2021 12:30:00 AM 1.65 34.97 0.222 7.27 4.65 12.76
1/17/2021 12:45:00 AM 1.63 34.934 0.222 7.27 4.83 12.76
1/17/2021 1:00:00 AM 1.62 34.916 0.223 7.27 4.63 12.76
1/17/2021 1:15:00 AM 1.62 34.916 0.223 7.27 4.67 12.76
1/17/2021 1:30:00 AM 1.57 34.826 0.223 7.27 4.73 12.76
1/17/2021 1:45:00 AM 1.51 34.718 0.223 7.27 4.76 12.77
1/17/2021 2:00:00 AM 1.49 34.682 0.223 7.27 4.64 12.77
1/17/2021 2:15:00 AM 1.49 34.682 0.224 7.27 4.8 12.78
1/17/2021 2:30:00 AM 1.47 34.646 0.225 7.27 4.6 12.79
1/17/2021 2:45:00 AM 1.46 34.628 0.224 7.27 4.68 12.8
1/17/2021 3:00:00 AM 1.45 34.61 0.224 7.27 4.64 12.8
1/17/2021 3:15:00 AM 1.44 34.592 0.224 7.27 4.7 12.81
1/17/2021 3:30:00 AM 1.44 34.592 0.227 7.27 4.53 12.82
1/17/2021 3:45:00 AM 1.43 34.574 0.228 7.27 4.49 12.82
1/17/2021 4:00:00 AM 1.43 34.574 0.228 7.27 4.67 12.82
1/17/2021 4:15:00 AM 1.43 34.574 0.228 7.27 4.64 12.83
1/17/2021 4:30:00 AM 1.43 34.574 0.231 7.27 4.62 12.83
1/17/2021 4:45:00 AM 1.43 34.574 0.232 7.26 4.71 12.83
1/17/2021 5:00:00 AM 1.43 34.574 0.231 7.27 4.63 12.83
1/17/2021 5:15:00 AM 1.42 34.556 0.23 7.26 4.74 12.83
1/17/2021 5:30:00 AM 1.42 34.556 0.234 7.27 4.63 12.84
1/17/2021 5:45:00 AM 1.42 34.556 0.234 7.27 4.63 12.84
1/17/2021 6:00:00 AM 1.41 34.538 0.232 7.26 4.62 12.84
1/17/2021 6:15:00 AM 1.41 34.538 0.231 7.27 4.69 12.85
1/17/2021 6:30:00 AM 1.41 34.538 0.23 7.26 4.64 12.84
1/17/2021 6:45:00 AM 1.41 34.538 0.231 7.27 4.76 12.85
1/17/2021 7:00:00 AM 1.4 34.52 0.232 7.26 4.85 12.85
1/17/2021 7:15:00 AM 1.4 34.52 0.232 7.27 4.82 12.86
1/17/2021 7:30:00 AM 1.4 34.52 0.232 7.27 4.82 12.86
1/17/2021 7:45:00 AM 1.4 34.52 0.232 7.26 4.83 12.86
1/17/2021 8:00:00 AM 1.39 34.502 0.232 7.27 4.67 12.87
1/17/2021 8:15:00 AM 1.4 34.52 0.231 7.27 4.8 12.88
1/17/2021 8:30:00 AM 1.4 34.52 0.231 7.27 4.63 12.89
1/17/2021 8:45:00 AM 1.41 34.538 0.231 7.27 4.7 12.91
1/17/2021 9:00:00 AM 1.43 34.574 0.23 7.27 4.65 12.93
1/17/2021 9:15:00 AM 1.44 34.592 0.231 7.27 4.63 12.96
1/17/2021 9:30:00 AM 1.46 34.628 0.232 7.28 4.68 12.99
1/17/2021 9:45:00 AM 1.47 34.646 0.232 7.28 4.76 13.01
1/17/2021 10:00:00 AM 1.49 34.682 0.232 7.28 4.81 13.03
1/17/2021 10:15:00 AM 1.51 34.718 0.232 7.28 4.83 13.05
1/17/2021 10:30:00 AM 1.53 34.754 0.236 7.28 4.8 13.08
1/17/2021 10:45:00 AM 1.57 34.826 0.235 7.29 4.77 13.1
1/17/2021 11:00:00 AM 1.63 34.934 0.237 7.29 4.73 13.13
1/17/2021 11:15:00 AM 1.65 34.97 0.237 7.29 4.77 13.15
1/17/2021 11:30:00 AM 1.65 34.97 0.238 7.3 4.73 13.15
1/17/2021 11:45:00 AM 1.66 34.988 0.239 7.3 4.69 13.15
1/17/2021 12:00:00 PM 1.67 35.006 0.245 7.3 4.8 13.16
1/17/2021 12:15:00 PM 1.68 35.024 0.247 7.3 4.92 13.16
1/17/2021 12:30:00 PM 1.69 35.042 0.249 7.3 4.7 13.17
1/17/2021 12:45:00 PM 1.69 35.042 0.249 7.31 4.79 13.16
1/17/2021 1:00:00 PM 1.74 35.132 0.247 7.31 4.68 13.18
1/17/2021 1:15:00 PM 1.78 35.204 0.244 7.31 4.69 13.2
1/17/2021 1:30:00 PM 1.83 35.294 0.246 7.31 4.88 13.21
1/17/2021 1:45:00 PM 1.87 35.366 0.247 7.31 4.85 13.21
1/17/2021 2:00:00 PM 1.88 35.384 0.246 7.31 4.94 13.2
1/17/2021 2:15:00 PM 1.92 35.456 0.246 7.31 4.9 13.21
1/17/2021 2:30:00 PM 1.99 35.582 0.247 7.32 4.88 13.22
1/17/2021 2:45:00 PM 1.99 35.582 0.247 7.32 4.8 13.21
1/17/2021 3:00:00 PM 2 35.6 0.248 7.32 4.83 13.21
1/17/2021 3:15:00 PM 2.01 35.618 0.247 7.32 4.83 13.19
1/17/2021 3:30:00 PM 1.99 35.582 0.245 7.32 4.85 13.16
1/17/2021 3:45:00 PM 1.98 35.564 0.243 7.32 4.85 13.15
1/17/2021 4:00:00 PM 1.97 35.546 0.241 7.31 4.77 13.16
1/17/2021 4:15:00 PM 1.95 35.51 0.241 7.31 4.94 13.14
1/17/2021 4:30:00 PM 1.93 35.474 0.241 7.31 4.84 13.13
1/17/2021 4:45:00 PM 1.92 35.456 0.241 7.31 4.8 13.1
1/17/2021 5:00:00 PM 1.9 35.42 0.24 7.3 4.79 13.07
1/17/2021 5:15:00 PM 1.88 35.384 0.24 7.29 4.87 13.04
1/17/2021 5:30:00 PM 1.86 35.348 0.241 7.29 4.82 13.01
1/17/2021 5:45:00 PM 1.84 35.312 0.241 7.28 4.86 12.98
1/17/2021 6:00:00 PM 1.82 35.276 0.241 7.28 4.67 12.95
1/17/2021 6:15:00 PM 1.81 35.258 0.241 7.27 4.84 12.93
1/17/2021 6:30:00 PM 1.79 35.222 0.24 7.27 4.86 12.93
1/17/2021 6:45:00 PM 1.77 35.186 0.241 7.27 4.76 12.91
1/17/2021 7:00:00 PM 1.76 35.168 0.241 7.27 4.74 12.91
1/17/2021 7:15:00 PM 1.75 35.15 0.241 7.27 4.78 12.91
1/17/2021 7:30:00 PM 1.74 35.132 0.241 7.27 4.76 12.9
1/17/2021 7:45:00 PM 1.73 35.114 0.242 7.27 4.68 12.9
1/17/2021 8:00:00 PM 1.73 35.114 0.243 7.27 4.75 12.9
1/17/2021 8:15:00 PM 1.72 35.096 0.244 7.27 4.79 12.9
1/17/2021 8:30:00 PM 1.72 35.096 0.244 7.26 4.8 12.9
1/17/2021 8:45:00 PM 1.7 35.06 0.244 7.27 5 12.89
1/17/2021 9:00:00 PM 1.69 35.042 0.244 7.26 4.9 12.89
1/17/2021 9:15:00 PM 1.67 35.006 0.244 7.27 4.62 12.89
1/17/2021 9:30:00 PM 1.66 34.988 0.244 7.26 4.84 12.89
1/17/2021 9:45:00 PM 1.65 34.97 0.245 7.26 4.9 12.88
1/17/2021 10:00:00 PM 1.64 34.952 0.245 7.26 4.85 12.89
1/17/2021 10:15:00 PM 1.63 34.934 0.245 7.26 4.75 12.88
1/17/2021 10:30:00 PM 1.62 34.916 0.245 7.26 4.78 12.88
1/17/2021 10:45:00 PM 1.62 34.916 0.245 7.26 4.71 12.88
1/17/2021 11:00:00 PM 1.62 34.916 0.246 7.26 4.79 12.87
1/17/2021 11:15:00 PM 1.62 34.916 0.246 7.26 4.78 12.86
1/17/2021 11:30:00 PM 1.62 34.916 0.247 7.26 4.85 12.87
1/17/2021 11:45:00 PM 1.6 34.88 0.247 7.26 4.89 12.86
1/18/2021 12:00:00 AM 1.6 34.88 0.247 7.26 5.02 12.86
1/18/2021 12:15:00 AM 1.59 34.862 0.247 7.26 5.05 12.86
1/18/2021 12:30:00 AM 1.57 34.826 0.248 7.26 5.07 12.86
1/18/2021 12:45:00 AM 1.55 34.79 0.247 7.26 5.01 12.85
1/18/2021 1:00:00 AM 1.55 34.79 0.247 7.26 4.95 12.86
1/18/2021 1:15:00 AM 1.52 34.736 0.247 7.26 5.02 12.85
1/18/2021 1:30:00 AM 1.52 34.736 0.248 7.26 4.97 12.86
1/18/2021 1:45:00 AM 1.52 34.736 0.249 7.26 4.99 12.86
1/18/2021 2:00:00 AM 1.5 34.7 0.25 7.25 5.2 12.86
1/18/2021 2:15:00 AM 1.5 34.7 0.25 7.25 4.98 12.87
1/18/2021 2:30:00 AM 1.48 34.664 0.25 7.25 5.03 12.86
1/18/2021 2:45:00 AM 1.46 34.628 0.249 7.26 4.89 12.87
1/18/2021 3:00:00 AM 1.46 34.628 0.248 7.26 4.89 12.87
1/18/2021 3:15:00 AM 1.45 34.61 0.246 7.25 4.97 12.87
1/18/2021 3:30:00 AM 1.44 34.592 0.246 7.25 4.91 12.88
1/18/2021 3:45:00 AM 1.43 34.574 0.246 7.26 4.83 12.88
1/18/2021 4:00:00 AM 1.43 34.574 0.245 7.26 4.88 12.88
1/18/2021 4:15:00 AM 1.44 34.592 0.244 7.26 4.91 12.89
1/18/2021 4:30:00 AM 1.44 34.592 0.243 7.25 4.85 12.88
1/18/2021 4:45:00 AM 1.44 34.592 0.243 7.26 4.81 12.89
1/18/2021 5:00:00 AM 1.43 34.574 0.242 7.26 4.69 12.88
1/18/2021 5:15:00 AM 1.43 34.574 0.243 7.26 4.77 12.88
1/18/2021 5:30:00 AM 1.42 34.556 0.243 7.25 4.75 12.88
1/18/2021 5:45:00 AM 1.43 34.574 0.243 7.25 4.78 12.88
1/18/2021 6:00:00 AM 1.43 34.574 0.243 7.25 4.72 12.89
1/18/2021 6:15:00 AM 1.4 34.52 0.243 7.25 4.63 12.88
1/18/2021 6:30:00 AM 1.41 34.538 0.244 7.25 4.68 12.89
1/18/2021 6:45:00 AM 1.4 34.52 0.243 7.25 4.68 12.89
1/18/2021 7:00:00 AM 1.4 34.52 0.242 7.25 4.73 12.89
1/18/2021 7:15:00 AM 1.39 34.502 0.241 7.25 4.77 12.89
1/18/2021 7:30:00 AM 1.39 34.502 0.24 7.25 4.77 12.89
1/18/2021 7:45:00 AM 1.37 34.466 0.239 7.25 4.6 12.9
1/18/2021 8:00:00 AM 1.22 34.196 0.238 7.26 4.65 12.9
1/18/2021 8:15:00 AM 1.27 34.286 0.238 7.26 4.64 12.93
1/18/2021 8:30:00 AM 1.27 34.286 0.238 7.26 4.69 12.96
1/18/2021 8:45:00 AM 1.25 34.25 0.236 7.26 4.74 13
1/18/2021 9:00:00 AM 1.25 34.25 0.237 7.27 4.72 13.03
1/18/2021 9:15:00 AM 1.26 34.268 0.236 7.27 4.65 13.08
1/18/2021 9:30:00 AM 1.29 34.322 0.236 7.27 4.76 13.13
1/18/2021 9:45:00 AM 1.35 34.43 0.235 7.28 4.84 13.19
1/18/2021 10:00:00 AM 1.4 34.52 0.235 7.28 4.79 13.22
1/18/2021 10:15:00 AM 1.43 34.574 0.239 7.29 4.84 13.25
1/18/2021 10:30:00 AM 1.45 34.61 0.246 7.3 4.92 13.27
1/18/2021 10:45:00 AM 1.47 34.646 0.248 7.3 4.89 13.29
1/18/2021 11:00:00 AM 1.59 34.862 0.248 7.31 4.9 13.32
1/18/2021 11:15:00 AM 1.63 34.934 0.247 7.31 4.93 13.34
1/18/2021 11:30:00 AM 1.67 35.006 0.254 7.31 4.99 13.34
1/18/2021 11:45:00 AM 1.7 35.06 0.251 7.31 4.92 13.34
1/18/2021 12:00:00 PM 1.74 35.132 0.259 7.31 5.12 13.35
1/18/2021 12:15:00 PM 1.76 35.168 0.258 7.32 4.99 13.36
1/18/2021 12:30:00 PM 1.76 35.168 0.259 7.32 5.05 13.35
1/18/2021 12:45:00 PM 1.78 35.204 0.259 7.32 5 13.36
1/18/2021 1:00:00 PM 1.83 35.294 0.257 7.32 4.86 13.37
1/18/2021 1:15:00 PM 1.86 35.348 0.253 7.33 4.74 13.37
1/18/2021 1:30:00 PM 1.89 35.402 0.251 7.33 4.73 13.37
1/18/2021 1:45:00 PM 1.88 35.384 0.251 7.32 4.81 13.38
1/18/2021 2:00:00 PM 1.84 35.312 0.249 7.33 4.72 13.37
1/18/2021 2:15:00 PM 1.82 35.276 0.246 7.33 4.73 13.37
1/18/2021 2:30:00 PM 1.8 35.24 0.244 7.33 4.63 13.38
1/18/2021 2:45:00 PM 1.78 35.204 0.242 7.33 4.79 13.38
1/18/2021 3:00:00 PM 1.75 35.15 0.243 7.33 4.88 13.37
1/18/2021 3:15:00 PM 1.72 35.096 0.244 7.32 4.86 13.35
1/18/2021 3:30:00 PM 1.68 35.024 0.243 7.32 4.87 13.33
1/18/2021 3:45:00 PM 1.65 34.97 0.243 7.32 4.89 13.31
1/18/2021 4:00:00 PM 1.62 34.916 0.243 7.32 4.9 13.29
1/18/2021 4:15:00 PM 1.58 34.844 0.243 7.32 4.81 13.28
1/18/2021 4:30:00 PM 1.56 34.808 0.244 7.31 4.77 13.26
1/18/2021 4:45:00 PM 1.54 34.772 0.244 7.31 4.79 13.24
1/18/2021 5:00:00 PM 1.52 34.736 0.243 7.3 4.66 13.22
1/18/2021 5:15:00 PM 1.5 34.7 0.242 7.3 4.82 13.2
1/18/2021 5:30:00 PM 1.48 34.664 0.242 7.3 4.89 13.17
1/18/2021 5:45:00 PM 1.47 34.646 0.241 7.29 4.81 13.16
1/18/2021 6:00:00 PM 1.45 34.61 0.241 7.29 4.72 13.15
1/18/2021 6:15:00 PM 1.43 34.574 0.242 7.28 4.77 13.13
1/18/2021 6:30:00 PM 1.42 34.556 0.242 7.28 4.79 13.12
1/18/2021 6:45:00 PM 1.42 34.556 0.242 7.28 5.06 13.11
1/18/2021 7:00:00 PM 1.41 34.538 0.242 7.27 5.29 13.11
1/18/2021 7:15:00 PM 1.4 34.52 0.243 7.27 5.17 13.1
1/18/2021 7:30:00 PM 1.4 34.52 0.243 7.27 5.06 13.1
1/18/2021 7:45:00 PM 1.39 34.502 0.243 7.27 5.18 13.09
1/18/2021 8:00:00 PM 1.38 34.484 0.243 7.27 5.14 13.08
1/18/2021 8:15:00 PM 1.38 34.484 0.244 7.26 5.2 13.08
1/18/2021 8:30:00 PM 1.36 34.448 0.244 7.26 5.3 13.08
1/18/2021 8:45:00 PM 1.34 34.412 0.245 7.26 5.32 13.07
1/18/2021 9:00:00 PM 1.32 34.376 0.245 7.27 5.46 13.07
1/18/2021 9:15:00 PM 1.31 34.358 0.245 7.26 5.49 13.07
1/18/2021 9:30:00 PM 1.3 34.34 0.246 7.26 5.49 13.07
1/18/2021 9:45:00 PM 1.29 34.322 0.246 7.26 5.51 13.07
1/18/2021 10:00:00 PM 1.27 34.286 0.247 7.26 5.61 13.08
1/18/2021 10:15:00 PM 1.26 34.268 0.247 7.26 5.62 13.08
1/18/2021 10:30:00 PM 1.24 34.232 0.248 7.26 5.62 13.08
1/18/2021 10:45:00 PM 1.21 34.178 0.248 7.26 5.64 13.08
1/18/2021 11:00:00 PM 1.18 34.124 0.248 7.26 5.66 13.08
1/18/2021 11:15:00 PM 1.17 34.106 0.248 7.26 5.64 13.08
1/18/2021 11:30:00 PM 1.14 34.052 0.248 7.26 5.8 13.09
1/18/2021 11:45:00 PM 1.13 34.034 0.249 7.26 5.67 13.1
1/19/2021 12:00:00 AM 1.12 34.016 0.249 7.26 5.74 13.1
1/19/2021 12:15:00 AM 1.1 33.98 0.25 7.26 5.77 13.11
1/19/2021 12:30:00 AM 1.09 33.962 0.249 7.26 5.7 13.1
1/19/2021 12:45:00 AM 1.09 33.962 0.25 7.26 5.61 13.12
1/19/2021 1:00:00 AM 1.08 33.944 0.25 7.26 5.63 13.1
1/19/2021 1:15:00 AM 1.08 33.944 0.25 7.26 5.83 13.12
1/19/2021 1:30:00 AM 1.07 33.926 0.251 7.26 5.66 13.12
1/19/2021 1:45:00 AM 1.06 33.908 0.25 7.26 5.69 13.12
1/19/2021 2:00:00 AM 1.05 33.89 0.251 7.26 5.62 13.12
1/19/2021 2:15:00 AM 1.04 33.872 0.251 7.26 5.42 13.12
1/19/2021 2:30:00 AM 1.04 33.872 0.251 7.26 5.4 13.12
1/19/2021 2:45:00 AM 1.03 33.854 0.251 7.26 5.35 13.13
1/19/2021 3:00:00 AM 1.02 33.836 0.251 7.26 5.22 13.14
1/19/2021 3:15:00 AM 1.01 33.818 0.251 7.26 5.18 13.14
1/19/2021 3:30:00 AM 1.01 33.818 0.251 7.26 5.14 13.14
1/19/2021 3:45:00 AM 1 33.8 0.251 7.26 5.11 13.15
1/19/2021 4:00:00 AM 0.99 33.782 0.25 7.26 5.06 13.15
1/19/2021 4:15:00 AM 0.98 33.764 0.25 7.26 5.09 13.14
1/19/2021 4:30:00 AM 0.97 33.746 0.25 7.25 4.98 13.14
1/19/2021 4:45:00 AM 0.97 33.746 0.25 7.26 4.81 13.16
1/19/2021 5:00:00 AM 0.96 33.728 0.25 7.26 4.9 13.16
1/19/2021 5:15:00 AM 0.93 33.674 0.249 7.26 4.84 13.15
1/19/2021 5:30:00 AM 0.92 33.656 0.25 7.26 4.87 13.16
1/19/2021 5:45:00 AM 0.91 33.638 0.249 7.25 4.78 13.16
1/19/2021 6:00:00 AM 0.9 33.62 0.249 7.26 4.82 13.17
1/19/2021 6:15:00 AM 0.9 33.62 0.249 7.26 4.98 13.17
1/19/2021 6:30:00 AM 0.89 33.602 0.248 7.26 4.91 13.18
1/19/2021 6:45:00 AM 0.89 33.602 0.248 7.26 4.76 13.18
1/19/2021 7:00:00 AM 0.89 33.602 0.248 7.26 4.75 13.18
1/19/2021 7:15:00 AM 0.89 33.602 0.248 7.26 4.84 13.18
1/19/2021 7:30:00 AM 0.89 33.602 0.247 7.26 5.09 13.18
1/19/2021 7:45:00 AM 0.89 33.602 0.248 7.25 5.2 13.18
1/19/2021 8:00:00 AM 0.89 33.602 0.247 7.25 5.33 13.19
1/19/2021 8:15:00 AM 0.9 33.62 0.247 7.26 4.97 13.21
1/19/2021 8:30:00 AM 0.91 33.638 0.247 7.26 4.88 13.23
1/19/2021 8:45:00 AM 0.92 33.656 0.247 7.26 4.88 13.27
1/19/2021 9:00:00 AM 0.92 33.656 0.247 7.27 4.85 13.32
1/19/2021 9:15:00 AM 0.92 33.656 0.246 7.27 4.98 13.37
1/19/2021 9:30:00 AM 0.95 33.71 0.246 7.28 4.92 13.41
1/19/2021 9:45:00 AM 1.03 33.854 0.246 7.28 4.97 13.47
1/19/2021 10:00:00 AM 1.06 33.908 0.246 7.29 5.02 13.49
1/19/2021 10:15:00 AM 1.18 34.124 0.246 7.29 5.06 13.54
1/19/2021 10:30:00 AM 1.29 34.322 0.247 7.29 5.04 13.55
1/19/2021 10:45:00 AM 1.42 34.556 0.251 7.3 5.03 13.57
1/19/2021 11:00:00 AM 1.47 34.646 0.261 7.31 5.07 13.58
1/19/2021 11:15:00 AM 1.53 34.754 0.262 7.31 5.3 13.58
1/19/2021 11:30:00 AM 1.6 34.88 0.264 7.32 5.36 13.58
1/19/2021 11:45:00 AM 1.69 35.042 0.263 7.32 5.2 13.58
1/19/2021 12:00:00 PM 1.78 35.204 0.265 7.33 5.21 13.58
1/19/2021 12:15:00 PM 1.95 35.51 0.264 7.33 5.25 13.58
1/19/2021 12:30:00 PM 2.14 35.852 0.268 7.33 5.29 13.56
1/19/2021 12:45:00 PM 2.25 36.05 0.271 7.33 5.42 13.55
1/19/2021 1:00:00 PM 2.32 36.176 0.276 7.33 5.36 13.53
1/19/2021 1:15:00 PM 2.46 36.428 0.276 7.34 5.38 13.52
1/19/2021 1:30:00 PM 2.58 36.644 0.272 7.34 5.23 13.5
1/19/2021 1:45:00 PM 2.65 36.77 0.27 7.34 5.27 13.5
1/19/2021 2:00:00 PM 2.7 36.86 0.268 7.34 5.18 13.48
1/19/2021 2:15:00 PM 2.72 36.896 0.266 7.34 5.21 13.47
1/19/2021 2:30:00 PM 2.7 36.86 0.264 7.34 5.04 13.46
1/19/2021 2:45:00 PM 2.65 36.77 0.264 7.35 5.11 13.46
1/19/2021 3:00:00 PM 2.62 36.716 0.263 7.34 5.14 13.45
1/19/2021 3:15:00 PM 2.56 36.608 0.262 7.34 5.2 13.44
1/19/2021 3:30:00 PM 2.48 36.464 0.261 7.34 5.31 13.44
1/19/2021 3:45:00 PM 2.39 36.302 0.26 7.34 5.25 13.44
1/19/2021 4:00:00 PM 2.25 36.05 0.259 7.33 5.33 13.43
1/19/2021 4:15:00 PM 2.09 35.762 0.258 7.33 5.15 13.43
1/19/2021 4:30:00 PM 1.93 35.474 0.257 7.33 5.15 13.42
1/19/2021 4:45:00 PM 1.8 35.24 0.256 7.33 5.08 13.39
1/19/2021 5:00:00 PM 1.7 35.06 0.255 7.32 5.16 13.37
1/19/2021 5:15:00 PM 1.63 34.934 0.254 7.32 5.12 13.34
1/19/2021 5:30:00 PM 1.57 34.826 0.254 7.31 5.11 13.31
1/19/2021 5:45:00 PM 1.53 34.754 0.254 7.3 5.12 13.29
1/19/2021 6:00:00 PM 1.5 34.7 0.253 7.3 5.09 13.27
1/19/2021 6:15:00 PM 1.49 34.682 0.253 7.29 5.15 13.24
1/19/2021 6:30:00 PM 1.48 34.664 0.253 7.29 5.3 13.22
1/19/2021 6:45:00 PM 1.46 34.628 0.252 7.28 5.04 13.21
1/19/2021 7:00:00 PM 1.44 34.592 0.252 7.28 5.06 13.2
1/19/2021 7:15:00 PM 1.41 34.538 0.252 7.28 5.07 13.19
1/19/2021 7:30:00 PM 1.38 34.484 0.252 7.27 5.31 13.18
1/19/2021 7:45:00 PM 1.36 34.448 0.252 7.27 5.15 13.19
1/19/2021 8:00:00 PM 1.34 34.412 0.252 7.27 5.17 13.18
1/19/2021 8:15:00 PM 1.31 34.358 0.252 7.27 5.14 13.19
1/19/2021 8:30:00 PM 1.29 34.322 0.252 7.27 5.02 13.19
1/19/2021 8:45:00 PM 1.28 34.304 0.253 7.27 5.03 13.19
1/19/2021 9:00:00 PM 1.27 34.286 0.253 7.26 5.07 13.19
1/19/2021 9:15:00 PM 1.26 34.268 0.253 7.26 5.07 13.18
1/19/2021 9:30:00 PM 1.26 34.268 0.254 7.26 5.03 13.17
1/19/2021 9:45:00 PM 1.26 34.268 0.254 7.26 5.06 13.17
1/19/2021 10:00:00 PM 1.26 34.268 0.254 7.26 5.04 13.16
1/19/2021 10:15:00 PM 1.27 34.286 0.254 7.26 5.02 13.15
1/19/2021 10:30:00 PM 1.27 34.286 0.254 7.26 5.03 13.15
1/19/2021 10:45:00 PM 1.27 34.286 0.255 7.26 4.98 13.14
1/19/2021 11:00:00 PM 1.27 34.286 0.255 7.25 4.97 13.12
1/19/2021 11:15:00 PM 1.27 34.286 0.256 7.25 5 13.11
1/19/2021 11:30:00 PM 1.26 34.268 0.256 7.24 4.91 13.1
1/19/2021 11:45:00 PM 1.26 34.268 0.256 7.24 4.95 13.1
1/20/2021 12:00:00 AM 1.25 34.25 0.257 7.24 4.89 13.1
1/20/2021 12:15:00 AM 1.25 34.25 0.257 7.24 4.96 13.1
1/20/2021 12:30:00 AM 1.25 34.25 0.258 7.25 5 13.1
1/20/2021 12:45:00 AM 1.25 34.25 0.258 7.25 4.87 13.1
1/20/2021 1:00:00 AM 1.23 34.214 0.258 7.25 4.94 13.1
1/20/2021 1:15:00 AM 1.23 34.214 0.258 7.25 4.91 13.09
1/20/2021 1:30:00 AM 1.22 34.196 0.259 7.25 4.98 13.09
1/20/2021 1:45:00 AM 1.21 34.178 0.259 7.25 4.91 13.09
1/20/2021 2:00:00 AM 1.19 34.142 0.259 7.25 4.94 13.09
1/20/2021 2:15:00 AM 1.18 34.124 0.259 7.25 5.02 13.09
1/20/2021 2:30:00 AM 1.13 34.034 0.259 7.25 5.03 13.09
1/20/2021 2:45:00 AM 1.05 33.89 0.259 7.25 5 13.1
1/20/2021 3:00:00 AM 0.99 33.782 0.259 7.25 4.97 13.09
1/20/2021 3:15:00 AM 0.94 33.692 0.259 7.26 4.97 13.1
1/20/2021 3:30:00 AM 0.83 33.494 0.258 7.26 4.96 13.12
1/20/2021 3:45:00 AM 0.76 33.368 0.258 7.26 5.12 13.12
1/20/2021 4:00:00 AM 0.72 33.296 0.258 7.26 5.08 13.15
1/20/2021 4:15:00 AM 0.67 33.206 0.257 7.26 5.26 13.15
1/20/2021 4:30:00 AM 0.62 33.116 0.258 7.26 5.3 13.17
1/20/2021 4:45:00 AM 0.59 33.062 0.257 7.26 5.55 13.17
1/20/2021 5:00:00 AM 0.58 33.044 0.257 7.26 6.14 13.18
1/20/2021 5:15:00 AM 0.57 33.026 0.257 7.26 6.24 13.19
1/20/2021 5:30:00 AM 0.55 32.99 0.256 7.26 6.08 13.2
1/20/2021 5:45:00 AM 0.54 32.972 0.256 7.26 5.68 13.21
1/20/2021 6:00:00 AM 0.55 32.99 0.255 7.26 5.33 13.21
1/20/2021 6:15:00 AM 0.53 32.954 0.254 7.26 5.21 13.22
1/20/2021 6:30:00 AM 0.52 32.936 0.254 7.26 5.15 13.23
1/20/2021 6:45:00 AM 0.49 32.882 0.254 7.26 5.13 13.24
1/20/2021 7:00:00 AM 0.46 32.828 0.253 7.26 5.13 13.25
1/20/2021 7:15:00 AM 0.46 32.828 0.252 7.26 5.17 13.26
1/20/2021 7:30:00 AM 0.44 32.792 0.252 7.26 5.09 13.27
1/20/2021 7:45:00 AM 0.41 32.738 0.252 7.26 5.07 13.29
1/20/2021 8:00:00 AM 0.42 32.756 0.251 7.26 5.25 13.3
1/20/2021 8:15:00 AM 0.43 32.774 0.251 7.26 5.12 13.32
1/20/2021 8:30:00 AM 0.44 32.792 0.25 7.27 5.14 13.36
1/20/2021 8:45:00 AM 0.47 32.846 0.25 7.27 5.1 13.4
1/20/2021 9:00:00 AM 0.49 32.882 0.251 7.27 5.35 13.44
1/20/2021 9:15:00 AM 0.51 32.918 0.25 7.27 5.28 13.47
1/20/2021 9:30:00 AM 0.52 32.936 0.25 7.28 5.34 13.5
1/20/2021 9:45:00 AM 0.57 33.026 0.25 7.29 5.19 13.55
1/20/2021 10:00:00 AM 0.69 33.242 0.25 7.29 5.39 13.59
1/20/2021 10:15:00 AM 0.79 33.422 0.251 7.3 5.44 13.63
1/20/2021 10:30:00 AM 0.91 33.638 0.251 7.3 5.31 13.66
1/20/2021 10:45:00 AM 1.01 33.818 0.253 7.31 5.18 13.68
1/20/2021 11:00:00 AM 0.98 33.764 0.264 7.31 5.37 13.7
1/20/2021 11:15:00 AM 1.06 33.908 0.266 7.31 5.21 13.7
1/20/2021 11:30:00 AM 1.13 34.034 0.263 7.32 5.29 13.71
1/20/2021 11:45:00 AM 1.2 34.16 0.261 7.33 5.21 13.72
1/20/2021 12:00:00 PM 1.29 34.322 0.261 7.33 5.18 13.74
1/20/2021 12:15:00 PM 1.43 34.574 0.26 7.34 5.08 13.74
1/20/2021 12:30:00 PM 1.45 34.61 0.261 7.34 5.09 13.75
1/20/2021 12:45:00 PM 1.46 34.628 0.262 7.34 5.08 13.74
1/20/2021 1:00:00 PM 1.48 34.664 0.26 7.35 5.07 13.73
1/20/2021 1:15:00 PM 1.55 34.79 0.258 7.35 4.97 13.73
1/20/2021 1:30:00 PM 1.53 34.754 0.259 7.35 4.99 13.74
1/20/2021 1:45:00 PM 1.56 34.808 0.26 7.35 5.29 13.74
1/20/2021 2:00:00 PM 1.52 34.736 0.259 7.36 5.29 13.74
1/20/2021 2:15:00 PM 1.59 34.862 0.258 7.35 5.36 13.74
1/20/2021 2:30:00 PM 1.56 34.808 0.259 7.36 5.31 13.74
1/20/2021 2:45:00 PM 1.48 34.664 0.259 7.36 5.25 13.75
1/20/2021 3:00:00 PM 1.51 34.718 0.258 7.36 5.29 13.76
1/20/2021 3:15:00 PM 1.48 34.664 0.257 7.36 5.21 13.76
1/20/2021 3:30:00 PM 1.44 34.592 0.257 7.36 5.06 13.77
1/20/2021 3:45:00 PM 1.41 34.538 0.256 7.36 5.13 13.76
1/20/2021 4:00:00 PM 1.34 34.412 0.256 7.36 5.06 13.76
1/20/2021 4:15:00 PM 1.26 34.268 0.255 7.36 5.12 13.75
1/20/2021 4:30:00 PM 1.22 34.196 0.255 7.35 5.13 13.74
1/20/2021 4:45:00 PM 1.13 34.034 0.254 7.35 5.18 13.73
1/20/2021 5:00:00 PM 1.02 33.836 0.253 7.35 5.13 13.69
1/20/2021 5:15:00 PM 0.94 33.692 0.253 7.34 5.16 13.65
1/20/2021 5:30:00 PM 0.87 33.566 0.253 7.33 5.14 13.62
1/20/2021 5:45:00 PM 0.79 33.422 0.254 7.32 5.1 13.58
1/20/2021 6:00:00 PM 0.73 33.314 0.254 7.32 5.12 13.56
1/20/2021 6:15:00 PM 0.66 33.188 0.254 7.31 5.15 13.54
1/20/2021 6:30:00 PM 0.6 33.08 0.254 7.3 5.28 13.52
1/20/2021 6:45:00 PM 0.56 33.008 0.254 7.29 5.37 13.5
1/20/2021 7:00:00 PM 0.53 32.954 0.254 7.29 5.89 13.49
1/20/2021 7:15:00 PM 0.48 32.864 0.254 7.28 6.1 13.47
1/20/2021 7:30:00 PM 0.43 32.774 0.254 7.28 5.7 13.48
1/20/2021 7:45:00 PM 0.38 32.684 0.254 7.28 5.58 13.49
1/20/2021 8:00:00 PM 0.33 32.594 0.254 7.27 5.56 13.49
1/20/2021 8:15:00 PM 0.28 32.504 0.254 7.28 5.52 13.49
1/20/2021 8:30:00 PM 0.23 32.414 0.254 7.28 5.57 13.5
1/20/2021 8:45:00 PM 0.18 32.324 0.253 7.28 5.87 13.52
1/20/2021 9:00:00 PM 0.13 32.234 0.253 7.28 5.68 13.52
1/20/2021 9:15:00 PM 0.09 32.162 0.253 7.28 5.89 13.53
1/20/2021 9:30:00 PM 0.06 32.108 0.253 7.27 5.91 13.54
1/20/2021 9:45:00 PM 0.06 32.108 0.254 7.27 6.02 13.53
1/20/2021 10:00:00 PM 0.07 32.126 0.255 7.26 6.13 13.53
1/20/2021 10:15:00 PM 0.09 32.162 0.256 7.27 6.61 13.52
1/20/2021 10:30:00 PM 0.09 32.162 0.257 7.26 6.48 13.51
1/20/2021 10:45:00 PM 0.07 32.126 0.258 7.25 6.26 13.49
1/20/2021 11:00:00 PM 0.06 32.108 0.26 7.24 5.83 13.46
1/20/2021 11:15:00 PM 0.03 32.054 0.262 7.23 6.3 13.44
1/20/2021 11:30:00 PM 0 32 0.265 7.22 5.9 13.42
1/20/2021 11:45:00 PM -0.01 31.982 0.27 7.21 5.67 13.4
1/21/2021 12:00:00 AM -0.03 31.946 0.274 7.2 5.59 13.38
1/21/2021 12:15:00 AM -0.05 31.91 0.279 7.19 5.61 13.35
1/21/2021 12:30:00 AM -0.06 31.892 0.283 7.17 5.7 13.32
1/21/2021 12:45:00 AM -0.07 31.874 0.289 7.17 7.28 13.28
1/21/2021 1:00:00 AM -0.07 31.874 0.295 7.15 7.05 13.25
1/21/2021 1:15:00 AM -0.07 31.874 0.3 7.14 8.42 13.19
1/21/2021 1:30:00 AM -0.09 31.838 0.307 7.13 8.16 13.16
1/21/2021 1:45:00 AM -0.07 31.874 0.31 7.12 8.56 13.13
1/21/2021 2:00:00 AM -0.04 31.928 0.317 7.12 8.02 13.07
1/21/2021 2:15:00 AM -0.02 31.964 0.328 7.12 7.32 13.03
1/21/2021 2:30:00 AM 0.04 32.072 0.335 7.12 7.63 12.96
1/21/2021 2:45:00 AM 0.15 32.27 0.343 7.13 7.5 12.89
1/21/2021 3:00:00 AM 0.22 32.396 0.34 7.13 7.67 12.89
1/21/2021 3:15:00 AM 0.21 32.378 0.329 7.14 7.68 12.92
1/21/2021 3:30:00 AM 0.19 32.342 0.317 7.14 7.39 13
1/21/2021 3:45:00 AM 0.21 32.378 0.307 7.14 7.3 13.05
1/21/2021 4:00:00 AM 0.25 32.45 0.302 7.14 6.93 13.06
1/21/2021 4:15:00 AM 0.29 32.522 0.299 7.15 6.72 13.05
1/21/2021 4:30:00 AM 0.31 32.558 0.298 7.14 6.45 13.05
1/21/2021 4:45:00 AM 0.39 32.702 0.296 7.14 6.35 13.03
1/21/2021 5:00:00 AM 0.43 32.774 0.296 7.15 6.49 13.03
1/21/2021 5:15:00 AM 0.45 32.81 0.295 7.15 6.37 13.02
1/21/2021 5:30:00 AM 0.45 32.81 0.294 7.15 6.71 13.02
1/21/2021 5:45:00 AM 0.44 32.792 0.292 7.16 6.08 13.02
1/21/2021 6:00:00 AM 0.43 32.774 0.289 7.16 6.21 13.02
1/21/2021 6:15:00 AM 0.42 32.756 0.286 7.16 6.38 13.03
1/21/2021 6:30:00 AM 0.41 32.738 0.284 7.16 6.56 13.02
1/21/2021 6:45:00 AM 0.39 32.702 0.282 7.16 7.39 13.04
1/21/2021 7:00:00 AM 0.38 32.684 0.281 7.16 7.21 13.04
1/21/2021 7:15:00 AM 0.36 32.648 0.278 7.16 6.91 13.06
1/21/2021 7:30:00 AM 0.34 32.612 0.278 7.16 7.33 13.08
1/21/2021 7:45:00 AM 0.33 32.594 0.277 7.17 7.18 13.1
1/21/2021 8:00:00 AM 0.32 32.576 0.277 7.17 7.48 13.12
1/21/2021 8:15:00 AM 0.33 32.594 0.277 7.18 6.62 13.15
1/21/2021 8:30:00 AM 0.34 32.612 0.276 7.18 6.32 13.19
1/21/2021 8:45:00 AM 0.37 32.666 0.276 7.19 6.1 13.24
1/21/2021 9:00:00 AM 0.41 32.738 0.275 7.19 6.12 13.28
1/21/2021 9:15:00 AM 0.46 32.828 0.275 7.2 6.21 13.31
1/21/2021 9:30:00 AM 0.5 32.9 0.273 7.2 6.09 13.36
1/21/2021 9:45:00 AM 0.58 33.044 0.272 7.21 6.2 13.4
1/21/2021 10:00:00 AM 0.69 33.242 0.27 7.22 6.18 13.45
1/21/2021 10:15:00 AM 0.78 33.404 0.268 7.22 6.33 13.48
1/21/2021 10:30:00 AM 0.87 33.566 0.267 7.24 6.42 13.52
1/21/2021 10:45:00 AM 0.97 33.746 0.264 7.24 6.59 13.53
1/21/2021 11:00:00 AM 1.06 33.908 0.261 7.25 6.6 13.53
1/21/2021 11:15:00 AM 1.12 34.016 0.259 7.26 6.68 13.55
1/21/2021 11:30:00 AM 1.22 34.196 0.26 7.27 6.44 13.56
1/21/2021 11:45:00 AM 1.33 34.394 0.26 7.28 6.44 13.56
1/21/2021 12:00:00 PM 1.41 34.538 0.26 7.28 6.48 13.54
1/21/2021 12:15:00 PM 1.49 34.682 0.26 7.29 6.56 13.53
1/21/2021 12:30:00 PM 1.56 34.808 0.261 7.29 6.49 13.53
1/21/2021 12:45:00 PM 1.58 34.844 0.262 7.3 6.48 13.53
1/21/2021 1:00:00 PM 1.61 34.898 0.261 7.31 6.53 13.51
1/21/2021 1:15:00 PM 1.58 34.844 0.26 7.31 7.23 13.53
1/21/2021 1:30:00 PM 1.63 34.934 0.26 7.32 6.62 13.53
1/21/2021 1:45:00 PM 1.68 35.024 0.26 7.33 6.64 13.52
1/21/2021 2:00:00 PM 1.71 35.078 0.261 7.33 6.42 13.52
1/21/2021 2:15:00 PM 1.73 35.114 0.261 7.33 6.39 13.51
1/21/2021 2:30:00 PM 1.73 35.114 0.263 7.33 6.53 13.5
1/21/2021 2:45:00 PM 1.71 35.078 0.264 7.33 6.1 13.5
1/21/2021 3:00:00 PM 1.67 35.006 0.265 7.33 6.23 13.49
1/21/2021 3:15:00 PM 1.62 34.916 0.266 7.33 6.17 13.49
1/21/2021 3:30:00 PM 1.58 34.844 0.267 7.33 6.08 13.48
1/21/2021 3:45:00 PM 1.49 34.682 0.267 7.32 5.91 13.48
1/21/2021 4:00:00 PM 1.4 34.52 0.267 7.32 5.96 13.47
1/21/2021 4:15:00 PM 1.26 34.268 0.267 7.32 5.94 13.46
1/21/2021 4:30:00 PM 1.12 34.016 0.267 7.32 5.78 13.44
1/21/2021 4:45:00 PM 0.99 33.782 0.265 7.31 5.92 13.43
1/21/2021 5:00:00 PM 0.89 33.602 0.265 7.3 5.84 13.4
1/21/2021 5:15:00 PM 0.82 33.476 0.264 7.3 5.8 13.4
1/21/2021 5:30:00 PM 0.76 33.368 0.263 7.3 5.81 13.37
1/21/2021 5:45:00 PM 0.7 33.26 0.261 7.29 5.76 13.36
1/21/2021 6:00:00 PM 0.65 33.17 0.26 7.29 5.71 13.34
1/21/2021 6:15:00 PM 0.61 33.098 0.259 7.28 5.86 13.32
1/21/2021 6:30:00 PM 0.58 33.044 0.258 7.28 5.7 13.31
1/21/2021 6:45:00 PM 0.55 32.99 0.257 7.27 5.77 13.3
1/21/2021 7:00:00 PM 0.52 32.936 0.257 7.27 5.72 13.29
1/21/2021 7:15:00 PM 0.5 32.9 0.256 7.27 5.77 13.29
1/21/2021 7:30:00 PM 0.48 32.864 0.256 7.26 5.68 13.29
1/21/2021 7:45:00 PM 0.46 32.828 0.255 7.26 5.74 13.28
1/21/2021 8:00:00 PM 0.44 32.792 0.255 7.26 5.66 13.28
1/21/2021 8:15:00 PM 0.43 32.774 0.254 7.26 5.57 13.29
1/21/2021 8:30:00 PM 0.42 32.756 0.254 7.26 5.72 13.29
1/21/2021 8:45:00 PM 0.42 32.756 0.255 7.26 5.53 13.29
1/21/2021 9:00:00 PM 0.41 32.738 0.254 7.26 5.57 13.28
1/21/2021 9:15:00 PM 0.4 32.72 0.254 7.26 5.61 13.28
1/21/2021 9:30:00 PM 0.4 32.72 0.253 7.26 5.62 13.28
1/21/2021 9:45:00 PM 0.42 32.756 0.254 7.26 5.54 13.27
1/21/2021 10:00:00 PM 0.44 32.792 0.254 7.26 5.5 13.26
1/21/2021 10:15:00 PM 0.46 32.828 0.254 7.26 5.65 13.25
1/21/2021 10:30:00 PM 0.48 32.864 0.254 7.26 5.74 13.25
1/21/2021 10:45:00 PM 0.5 32.9 0.254 7.26 5.52 13.24
1/21/2021 11:00:00 PM 0.51 32.918 0.254 7.26 5.65 13.23
1/21/2021 11:15:00 PM 0.52 32.936 0.254 7.26 5.69 13.22
1/21/2021 11:30:00 PM 0.53 32.954 0.254 7.26 5.63 13.22
1/21/2021 11:45:00 PM 0.54 32.972 0.255 7.26 5.78 13.21
1/22/2021 12:00:00 AM 0.54 32.972 0.254 7.25 6.05 13.19
1/22/2021 12:15:00 AM 0.55 32.99 0.254 7.25 5.7 13.18
1/22/2021 12:30:00 AM 0.56 33.008 0.254 7.24 5.66 13.17
1/22/2021 12:45:00 AM 0.56 33.008 0.254 7.25 5.72 13.17
1/22/2021 1:00:00 AM 0.56 33.008 0.254 7.25 5.65 13.18
1/22/2021 1:15:00 AM 0.57 33.026 0.254 7.25 5.64 13.18
1/22/2021 1:30:00 AM 0.57 33.026 0.254 7.25 5.73 13.18
1/22/2021 1:45:00 AM 0.56 33.008 0.254 7.25 5.85 13.18
1/22/2021 2:00:00 AM 0.56 33.008 0.254 7.25 5.84 13.18
1/22/2021 2:15:00 AM 0.55 32.99 0.254 7.26 5.73 13.18
1/22/2021 2:30:00 AM 0.54 32.972 0.254 7.26 5.78 13.19
1/22/2021 2:45:00 AM 0.54 32.972 0.254 7.26 5.68 13.19
1/22/2021 3:00:00 AM 0.53 32.954 0.254 7.26 5.83 13.19
1/22/2021 3:15:00 AM 0.53 32.954 0.254 7.26 5.75 13.2
1/22/2021 3:30:00 AM 0.51 32.918 0.254 7.26 5.84 13.19
1/22/2021 3:45:00 AM 0.49 32.882 0.255 7.26 5.79 13.2
1/22/2021 4:00:00 AM 0.46 32.828 0.255 7.26 5.83 13.21
1/22/2021 4:15:00 AM 0.44 32.792 0.255 7.26 5.69 13.21
1/22/2021 4:30:00 AM 0.42 32.756 0.255 7.26 5.75 13.21
1/22/2021 4:45:00 AM 0.4 32.72 0.255 7.27 5.7 13.22
1/22/2021 5:00:00 AM 0.38 32.684 0.255 7.27 5.69 13.22
1/22/2021 5:15:00 AM 0.36 32.648 0.256 7.27 5.73 13.23
1/22/2021 5:30:00 AM 0.36 32.648 0.255 7.26 5.85 13.23
1/22/2021 5:45:00 AM 0.37 32.666 0.256 7.27 5.79 13.23
1/22/2021 6:00:00 AM 0.36 32.648 0.256 7.27 5.69 13.23
1/22/2021 6:15:00 AM 0.36 32.648 0.256 7.26 5.71 13.23
1/22/2021 6:30:00 AM 0.35 32.63 0.256 7.27 5.7 13.23
1/22/2021 6:45:00 AM 0.34 32.612 0.257 7.27 5.8 13.23
1/22/2021 7:00:00 AM 0.34 32.612 0.257 7.27 5.8 13.23
1/22/2021 7:15:00 AM 0.34 32.612 0.257 7.27 5.78 13.23
1/22/2021 7:30:00 AM 0.34 32.612 0.257 7.27 5.83 13.23
1/22/2021 7:45:00 AM 0.35 32.63 0.258 7.27 5.67 13.24
1/22/2021 8:00:00 AM 0.36 32.648 0.258 7.27 5.73 13.26
1/22/2021 8:15:00 AM 0.38 32.684 0.259 7.27 5.86 13.29
1/22/2021 8:30:00 AM 0.4 32.72 0.259 7.28 5.66 13.33
1/22/2021 8:45:00 AM 0.45 32.81 0.259 7.28 5.71 13.36
1/22/2021 9:00:00 AM 0.48 32.864 0.259 7.29 5.68 13.41
1/22/2021 9:15:00 AM 0.55 32.99 0.259 7.29 5.85 13.45
1/22/2021 9:30:00 AM 0.6 33.08 0.259 7.29 5.9 13.48
1/22/2021 9:45:00 AM 0.67 33.206 0.259 7.3 5.77 13.51
1/22/2021 10:00:00 AM 0.77 33.386 0.259 7.3 5.77 13.54
1/22/2021 10:15:00 AM 0.83 33.494 0.259 7.31 5.84 13.55
1/22/2021 10:30:00 AM 0.9 33.62 0.259 7.31 5.87 13.57
1/22/2021 10:45:00 AM 0.99 33.782 0.26 7.32 5.78 13.58
1/22/2021 11:00:00 AM 1.07 33.926 0.259 7.32 5.75 13.59
1/22/2021 11:15:00 AM 1.16 34.088 0.259 7.32 5.8 13.6
1/22/2021 11:30:00 AM 1.29 34.322 0.259 7.32 5.76 13.59
1/22/2021 11:45:00 AM 1.45 34.61 0.258 7.32 5.77 13.59
1/22/2021 12:00:00 PM 1.61 34.898 0.258 7.33 5.6 13.58
1/22/2021 12:15:00 PM 1.63 34.934 0.258 7.33 5.64 13.57
1/22/2021 12:30:00 PM 1.63 34.934 0.258 7.33 5.61 13.55
1/22/2021 12:45:00 PM 1.7 35.06 0.258 7.34 5.68 13.55
1/22/2021 1:00:00 PM 1.74 35.132 0.258 7.34 5.53 13.54
1/22/2021 1:15:00 PM 1.79 35.222 0.257 7.34 5.43 13.54
1/22/2021 1:30:00 PM 1.78 35.204 0.257 7.35 5.45 13.53
1/22/2021 1:45:00 PM 1.74 35.132 0.257 7.35 5.4 13.51
1/22/2021 2:00:00 PM 1.71 35.078 0.257 7.35 5.53 13.51
1/22/2021 2:15:00 PM 1.65 34.97 0.257 7.35 5.56 13.49
1/22/2021 2:30:00 PM 1.59 34.862 0.257 7.35 5.43 13.48
1/22/2021 2:45:00 PM 1.56 34.808 0.256 7.35 5.44 13.49
1/22/2021 3:00:00 PM 1.53 34.754 0.257 7.35 5.41 13.49
1/22/2021 3:15:00 PM 1.52 34.736 0.256 7.35 5.53 13.51
1/22/2021 3:30:00 PM 1.48 34.664 0.256 7.35 5.69 13.52
1/22/2021 3:45:00 PM 1.42 34.556 0.256 7.35 5.46 13.5
1/22/2021 4:00:00 PM 1.37 34.466 0.256 7.35 5.59 13.49
1/22/2021 4:15:00 PM 1.29 34.322 0.256 7.34 5.67 13.47
1/22/2021 4:30:00 PM 1.25 34.25 0.256 7.34 5.56 13.47
1/22/2021 4:45:00 PM 1.2 34.16 0.256 7.34 5.54 13.45
1/22/2021 5:00:00 PM 1.13 34.034 0.256 7.34 5.46 13.44
1/22/2021 5:15:00 PM 1.07 33.926 0.256 7.33 5.58 13.4
1/22/2021 5:30:00 PM 1.02 33.836 0.256 7.33 5.84 13.38
1/22/2021 5:45:00 PM 0.95 33.71 0.256 7.32 5.74 13.37
1/22/2021 6:00:00 PM 0.92 33.656 0.257 7.32 5.75 13.35
1/22/2021 6:15:00 PM 0.88 33.584 0.257 7.32 5.83 13.32
1/22/2021 6:30:00 PM 0.83 33.494 0.257 7.31 5.78 13.33
1/22/2021 6:45:00 PM 0.8 33.44 0.258 7.31 5.72 13.32
1/22/2021 7:00:00 PM 0.75 33.35 0.258 7.31 5.58 13.32
1/22/2021 7:15:00 PM 0.7 33.26 0.258 7.31 5.44 13.33
1/22/2021 7:30:00 PM 0.64 33.152 0.258 7.3 5.43 13.33
1/22/2021 7:45:00 PM 0.6 33.08 0.258 7.3 5.34 13.32
1/22/2021 8:00:00 PM 0.54 32.972 0.258 7.3 5.35 13.34
1/22/2021 8:15:00 PM 0.49 32.882 0.259 7.3 5.18 13.34
1/22/2021 8:30:00 PM 0.46 32.828 0.259 7.3 5.22 13.35
1/22/2021 8:45:00 PM 0.43 32.774 0.259 7.3 5.24 13.36
1/22/2021 9:00:00 PM 0.4 32.72 0.259 7.3 5.24 13.37
1/22/2021 9:15:00 PM 0.39 32.702 0.26 7.3 5.19 13.37
1/22/2021 9:30:00 PM 0.37 32.666 0.259 7.29 5.19 13.37
1/22/2021 9:45:00 PM 0.35 32.63 0.26 7.3 5.19 13.37
1/22/2021 10:00:00 PM 0.33 32.594 0.26 7.29 5.29 13.38
1/22/2021 10:15:00 PM 0.32 32.576 0.259 7.29 5.27 13.39
1/22/2021 10:30:00 PM 0.32 32.576 0.259 7.29 5.16 13.39
1/22/2021 10:45:00 PM 0.32 32.576 0.259 7.29 5.24 13.38
1/22/2021 11:00:00 PM 0.32 32.576 0.259 7.29 5.36 13.38
1/22/2021 11:15:00 PM 0.31 32.558 0.259 7.29 5.32 13.38
1/22/2021 11:30:00 PM 0.29 32.522 0.26 7.28 5.36 13.37
1/22/2021 11:45:00 PM 0.29 32.522 0.26 7.28 5.39 13.37
1/23/2021 12:00:00 AM 0.29 32.522 0.26 7.28 5.33 13.36
1/23/2021 12:15:00 AM 0.29 32.522 0.26 7.27 5.35 13.36
1/23/2021 12:30:00 AM 0.26 32.468 0.26 7.27 5.43 13.35
1/23/2021 12:45:00 AM 0.25 32.45 0.261 7.27 5.44 13.36
1/23/2021 1:00:00 AM 0.25 32.45 0.261 7.27 5.54 13.35
1/23/2021 1:15:00 AM 0.25 32.45 0.261 7.27 5.51 13.36
1/23/2021 1:30:00 AM 0.23 32.414 0.261 7.27 5.4 13.36
1/23/2021 1:45:00 AM 0.22 32.396 0.261 7.27 5.32 13.36
1/23/2021 2:00:00 AM 0.21 32.378 0.262 7.27 5.36 13.35
1/23/2021 2:15:00 AM 0.22 32.396 0.262 7.26 5.37 13.36
1/23/2021 2:30:00 AM 0.21 32.378 0.263 7.27 5.45 13.36
1/23/2021 2:45:00 AM 0.19 32.342 0.263 7.27 5.41 13.36
1/23/2021 3:00:00 AM 0.18 32.324 0.263 7.26 5.41 13.36
1/23/2021 3:15:00 AM 0.16 32.288 0.264 7.27 5.46 13.38
1/23/2021 3:30:00 AM 0.14 32.252 0.264 7.27 5.52 13.38
1/23/2021 3:45:00 AM 0.14 32.252 0.265 7.27 5.46 13.38
1/23/2021 4:00:00 AM 0.13 32.234 0.265 7.27 5.4 13.39
1/23/2021 4:15:00 AM 0.11 32.198 0.266 7.26 5.4 13.39
1/23/2021 4:30:00 AM 0.12 32.216 0.266 7.26 5.32 13.39
1/23/2021 4:45:00 AM 0.1 32.18 0.267 7.26 5.38 13.39
1/23/2021 5:00:00 AM 0.09 32.162 0.268 7.26 5.38 13.39
1/23/2021 5:15:00 AM 0.08 32.144 0.269 7.26 5.35 13.39
1/23/2021 5:30:00 AM 0.05 32.09 0.27 7.26 5.29 13.39
1/23/2021 5:45:00 AM 0.05 32.09 0.271 7.26 5.26 13.39
1/23/2021 6:00:00 AM 0.04 32.072 0.272 7.25 5.43 13.39
1/23/2021 6:15:00 AM 0.04 32.072 0.274 7.25 5.36 13.39
1/23/2021 6:30:00 AM 0.05 32.09 0.275 7.25 5.41 13.38
1/23/2021 6:45:00 AM 0.07 32.126 0.278 7.25 5.36 13.37
1/23/2021 7:00:00 AM 0.08 32.144 0.279 7.24 5.5 13.37
1/23/2021 7:15:00 AM 0.07 32.126 0.28 7.24 5.25 13.37
1/23/2021 7:30:00 AM 0.05 32.09 0.281 7.24 5.22 13.36
1/23/2021 7:45:00 AM 0.06 32.108 0.283 7.23 5.19 13.37
1/23/2021 8:00:00 AM 0.06 32.108 0.283 7.24 5.26 13.4
1/23/2021 8:15:00 AM 0.08 32.144 0.284 7.24 5.38 13.43
1/23/2021 8:30:00 AM 0.1 32.18 0.284 7.24 5.28 13.46
1/23/2021 8:45:00 AM 0.14 32.252 0.284 7.24 5.24 13.51
1/23/2021 9:00:00 AM 0.16 32.288 0.285 7.24 5.39 13.55
1/23/2021 9:15:00 AM 0.22 32.396 0.285 7.25 5.29 13.59
1/23/2021 9:30:00 AM 0.27 32.486 0.285 7.25 5.57 13.63
1/23/2021 9:45:00 AM 0.34 32.612 0.285 7.25 5.85 13.68
1/23/2021 10:00:00 AM 0.4 32.72 0.283 7.25 5.76 13.71
1/23/2021 10:15:00 AM 0.44 32.792 0.282 7.25 5.61 13.73
1/23/2021 10:30:00 AM 0.48 32.864 0.282 7.25 5.81 13.75
1/23/2021 10:45:00 AM 0.52 32.936 0.28 7.26 5.96 13.77
1/23/2021 11:00:00 AM 0.55 32.99 0.279 7.26 5.93 13.79
1/23/2021 11:15:00 AM 0.57 33.026 0.277 7.27 5.79 13.81
1/23/2021 11:30:00 AM 0.62 33.116 0.274 7.27 5.83 13.82
1/23/2021 11:45:00 AM 0.63 33.134 0.272 7.28 5.86 13.83
1/23/2021 12:00:00 PM 0.63 33.134 0.27 7.29 6.07 13.84
1/23/2021 12:15:00 PM 0.65 33.17 0.268 7.29 6.15 13.84
1/23/2021 12:30:00 PM 0.68 33.224 0.266 7.29 6.11 13.85
1/23/2021 12:45:00 PM 0.66 33.188 0.264 7.3 6.09 13.86
1/23/2021 1:00:00 PM 0.66 33.188 0.263 7.3 6.17 13.87
1/23/2021 1:15:00 PM 0.68 33.224 0.262 7.31 6.02 13.87
1/23/2021 1:30:00 PM 0.69 33.242 0.261 7.31 6.15 13.87
1/23/2021 1:45:00 PM 0.67 33.206 0.26 7.32 6.1 13.87
1/23/2021 2:00:00 PM 0.69 33.242 0.259 7.32 6 13.88
1/23/2021 2:15:00 PM 0.7 33.26 0.258 7.32 6.5 13.86
1/23/2021 2:30:00 PM 0.69 33.242 0.258 7.32 6.27 13.88
1/23/2021 2:45:00 PM 0.65 33.17 0.257 7.33 6.35 13.88
1/23/2021 3:00:00 PM 0.6 33.08 0.257 7.33 6.41 13.89
1/23/2021 3:15:00 PM 0.57 33.026 0.256 7.34 6.32 13.89
1/23/2021 3:30:00 PM 0.54 32.972 0.255 7.34 6.29 13.9
1/23/2021 3:45:00 PM 0.51 32.918 0.255 7.34 6.34 13.91
1/23/2021 4:00:00 PM 0.49 32.882 0.256 7.35 6.2 13.91
1/23/2021 4:15:00 PM 0.46 32.828 0.255 7.35 6.29 13.91
1/23/2021 4:30:00 PM 0.42 32.756 0.256 7.35 6.09 13.9
1/23/2021 4:45:00 PM 0.4 32.72 0.256 7.35 6.09 13.88
1/23/2021 5:00:00 PM 0.36 32.648 0.257 7.34 6.18 13.86
1/23/2021 5:15:00 PM 0.33 32.594 0.258 7.34 6.24 13.83
1/23/2021 5:30:00 PM 0.3 32.54 0.258 7.34 6.16 13.8
1/23/2021 5:45:00 PM 0.27 32.486 0.259 7.33 6.19 13.77
1/23/2021 6:00:00 PM 0.24 32.432 0.259 7.32 6.37 13.75
1/23/2021 6:15:00 PM 0.22 32.396 0.26 7.32 6.15 13.72
1/23/2021 6:30:00 PM 0.19 32.342 0.26 7.31 6.07 13.7
1/23/2021 6:45:00 PM 0.18 32.324 0.26 7.3 5.8 13.69
1/23/2021 7:00:00 PM 0.16 32.288 0.26 7.3 5.84 13.67
1/23/2021 7:15:00 PM 0.16 32.288 0.26 7.3 5.72 13.66
1/23/2021 7:30:00 PM 0.15 32.27 0.261 7.29 5.71 13.65
1/23/2021 7:45:00 PM 0.15 32.27 0.261 7.29 5.51 13.64
1/23/2021 8:00:00 PM 0.15 32.27 0.262 7.29 5.54 13.63
1/23/2021 8:15:00 PM 0.16 32.288 0.262 7.28 5.68 13.62
1/23/2021 8:30:00 PM 0.17 32.306 0.262 7.28 5.54 13.61
1/23/2021 8:45:00 PM 0.17 32.306 0.263 7.28 5.49 13.61
1/23/2021 9:00:00 PM 0.18 32.324 0.263 7.28 5.62 13.6
1/23/2021 9:15:00 PM 0.17 32.306 0.264 7.27 5.5 13.6
1/23/2021 9:30:00 PM 0.18 32.324 0.264 7.27 5.48 13.58
1/23/2021 9:45:00 PM 0.18 32.324 0.264 7.26 5.49 13.57
1/23/2021 10:00:00 PM 0.18 32.324 0.265 7.26 5.41 13.56
1/23/2021 10:15:00 PM 0.19 32.342 0.265 7.25 5.46 13.56
1/23/2021 10:30:00 PM 0.19 32.342 0.265 7.25 5.41 13.55
1/23/2021 10:45:00 PM 0.19 32.342 0.265 7.25 5.42 13.55
1/23/2021 11:00:00 PM 0.18 32.324 0.266 7.25 5.36 13.55
1/23/2021 11:15:00 PM 0.2 32.36 0.266 7.25 5.34 13.54
1/23/2021 11:30:00 PM 0.19 32.342 0.266 7.25 5.37 13.54
1/23/2021 11:45:00 PM 0.2 32.36 0.266 7.25 5.51 13.54
1/24/2021 12:00:00 AM 0.19 32.342 0.266 7.25 5.5 13.53
1/24/2021 12:15:00 AM 0.21 32.378 0.266 7.25 5.68 13.52
1/24/2021 12:30:00 AM 0.21 32.378 0.266 7.24 5.61 13.5
1/24/2021 12:45:00 AM 0.2 32.36 0.266 7.24 5.79 13.49
1/24/2021 1:00:00 AM 0.2 32.36 0.266 7.24 5.83 13.49
1/24/2021 1:15:00 AM 0.21 32.378 0.266 7.24 5.78 13.48
1/24/2021 1:30:00 AM 0.22 32.396 0.267 7.23 5.71 13.47
1/24/2021 1:45:00 AM 0.22 32.396 0.266 7.23 5.64 13.46
1/24/2021 2:00:00 AM 0.23 32.414 0.267 7.23 5.67 13.45
1/24/2021 2:15:00 AM 0.24 32.432 0.266 7.23 5.63 13.44
1/24/2021 2:30:00 AM 0.24 32.432 0.267 7.23 5.93 13.44
1/24/2021 2:45:00 AM 0.25 32.45 0.267 7.23 5.65 13.43
1/24/2021 3:00:00 AM 0.25 32.45 0.266 7.23 5.95 13.43
1/24/2021 3:15:00 AM 0.25 32.45 0.266 7.23 5.93 13.42
1/24/2021 3:30:00 AM 0.26 32.468 0.267 7.23 5.73 13.42
1/24/2021 3:45:00 AM 0.26 32.468 0.267 7.23 6.21 13.42
1/24/2021 4:00:00 AM 0.26 32.468 0.267 7.23 6.04 13.43
1/24/2021 4:15:00 AM 0.26 32.468 0.267 7.23 6.05 13.42
1/24/2021 4:30:00 AM 0.26 32.468 0.267 7.23 5.75 13.42
1/24/2021 4:45:00 AM 0.26 32.468 0.267 7.23 5.58 13.43
1/24/2021 5:00:00 AM 0.26 32.468 0.268 7.24 5.5 13.43
1/24/2021 5:15:00 AM 0.24 32.432 0.268 7.24 5.41 13.43
1/24/2021 5:30:00 AM 0.24 32.432 0.268 7.24 5.58 13.43
1/24/2021 5:45:00 AM 0.25 32.45 0.267 7.24 5.45 13.42
1/24/2021 6:00:00 AM 0.26 32.468 0.268 7.24 5.44 13.42
1/24/2021 6:15:00 AM 0.26 32.468 0.268 7.23 5.48 13.42
1/24/2021 6:30:00 AM 0.22 32.396 0.269 7.23 5.5 13.42
1/24/2021 6:45:00 AM 0.21 32.378 0.269 7.24 5.64 13.42
1/24/2021 7:00:00 AM 0.18 32.324 0.269 7.23 6.22 13.42
1/24/2021 7:15:00 AM 0.16 32.288 0.269 7.23 6.43 13.42
1/24/2021 7:30:00 AM 0.14 32.252 0.269 7.23 6.22 13.43
1/24/2021 7:45:00 AM 0.13 32.234 0.269 7.23 7.02 13.44
1/24/2021 8:00:00 AM 0.13 32.234 0.27 7.23 7.08 13.46
1/24/2021 8:15:00 AM 0.13 32.234 0.271 7.23 6.44 13.48
1/24/2021 8:30:00 AM 0.15 32.27 0.272 7.24 6.18 13.53
1/24/2021 8:45:00 AM 0.19 32.342 0.272 7.24 5.91 13.57
1/24/2021 9:00:00 AM 0.26 32.468 0.272 7.24 6.05 13.62
1/24/2021 9:15:00 AM 0.33 32.594 0.272 7.25 6.35 13.66
1/24/2021 9:30:00 AM 0.41 32.738 0.273 7.25 6.41 13.7
1/24/2021 9:45:00 AM 0.51 32.918 0.272 7.25 6.41 13.73
1/24/2021 10:00:00 AM 0.57 33.026 0.272 7.26 6.3 13.75
1/24/2021 10:15:00 AM 0.67 33.206 0.272 7.26 6.14 13.78
1/24/2021 10:30:00 AM 0.81 33.458 0.271 7.27 6.04 13.81
1/24/2021 10:45:00 AM 0.94 33.692 0.27 7.27 5.88 13.81
1/24/2021 11:00:00 AM 1.07 33.926 0.268 7.28 5.96 13.82
1/24/2021 11:15:00 AM 1.18 34.124 0.266 7.28 5.94 13.81
1/24/2021 11:30:00 AM 1.3 34.34 0.264 7.29 5.86 13.8
1/24/2021 11:45:00 AM 1.33 34.394 0.263 7.29 5.89 13.8
1/24/2021 12:00:00 PM 1.4 34.52 0.262 7.29 5.84 13.8
1/24/2021 12:15:00 PM 1.51 34.718 0.262 7.3 5.72 13.79
1/24/2021 12:30:00 PM 1.56 34.808 0.263 7.3 5.77 13.79
1/24/2021 12:45:00 PM 1.6 34.88 0.264 7.3 5.73 13.78
1/24/2021 1:00:00 PM 1.6 34.88 0.265 7.31 5.58 13.76
1/24/2021 1:15:00 PM 1.59 34.862 0.265 7.31 5.6 13.76
1/24/2021 1:30:00 PM 1.54 34.772 0.265 7.31 5.54 13.76
1/24/2021 1:45:00 PM 1.47 34.646 0.266 7.31 5.55 13.74
1/24/2021 2:00:00 PM 1.41 34.538 0.265 7.31 5.66 13.73
1/24/2021 2:15:00 PM 1.35 34.43 0.266 7.31 5.56 13.73
1/24/2021 2:30:00 PM 1.32 34.376 0.266 7.31 5.69 13.74
1/24/2021 2:45:00 PM 1.3 34.34 0.266 7.31 5.56 13.75
1/24/2021 3:00:00 PM 1.27 34.286 0.266 7.31 5.59 13.74
1/24/2021 3:15:00 PM 1.21 34.178 0.266 7.31 5.75 13.72
1/24/2021 3:30:00 PM 1.17 34.106 0.266 7.3 6.12 13.7
1/24/2021 3:45:00 PM 1.14 34.052 0.267 7.3 6.13 13.7
1/24/2021 4:00:00 PM 1.1 33.98 0.267 7.3 5.89 13.7
1/24/2021 4:15:00 PM 1.04 33.872 0.268 7.3 5.97 13.67
1/24/2021 4:30:00 PM 0.99 33.782 0.268 7.29 6.09 13.63
1/24/2021 4:45:00 PM 0.95 33.71 0.268 7.29 5.99 13.59
1/24/2021 5:00:00 PM 0.91 33.638 0.268 7.29 6.12 13.57
1/24/2021 5:15:00 PM 0.87 33.566 0.269 7.29 6.19 13.53
1/24/2021 5:30:00 PM 0.83 33.494 0.269 7.28 6.2 13.5
1/24/2021 5:45:00 PM 0.8 33.44 0.269 7.28 6.26 13.47
1/24/2021 6:00:00 PM 0.77 33.386 0.269 7.27 5.91 13.46
1/24/2021 6:15:00 PM 0.75 33.35 0.269 7.27 6.13 13.43
1/24/2021 6:30:00 PM 0.72 33.296 0.269 7.26 5.82 13.42
1/24/2021 6:45:00 PM 0.71 33.278 0.27 7.26 5.84 13.39
1/24/2021 7:00:00 PM 0.69 33.242 0.27 7.26 5.73 13.39
1/24/2021 7:15:00 PM 0.67 33.206 0.27 7.26 5.62 13.38
1/24/2021 7:30:00 PM 0.67 33.206 0.27 7.25 5.52 13.36
1/24/2021 7:45:00 PM 0.66 33.188 0.271 7.25 5.83 13.36
1/24/2021 8:00:00 PM 0.65 33.17 0.271 7.25 5.55 13.36
1/24/2021 8:15:00 PM 0.64 33.152 0.27 7.25 5.54 13.36
1/24/2021 8:30:00 PM 0.64 33.152 0.27 7.25 5.73 13.36
1/24/2021 8:45:00 PM 0.64 33.152 0.271 7.25 5.68 13.36
1/24/2021 9:00:00 PM 0.63 33.134 0.271 7.25 5.54 13.35
1/24/2021 9:15:00 PM 0.62 33.116 0.27 7.25 5.58 13.35
1/24/2021 9:30:00 PM 0.62 33.116 0.271 7.25 5.56 13.34
1/24/2021 9:45:00 PM 0.62 33.116 0.271 7.24 5.66 13.34
1/24/2021 10:00:00 PM 0.62 33.116 0.271 7.25 5.51 13.33
1/24/2021 10:15:00 PM 0.63 33.134 0.27 7.24 5.67 13.34
1/24/2021 10:30:00 PM 0.63 33.134 0.27 7.25 5.71 13.33
1/24/2021 10:45:00 PM 0.63 33.134 0.27 7.25 5.58 13.33
1/24/2021 11:00:00 PM 0.63 33.134 0.27 7.25 5.61 13.33
1/24/2021 11:15:00 PM 0.63 33.134 0.27 7.25 5.64 13.31
1/24/2021 11:30:00 PM 0.62 33.116 0.27 7.25 5.63 13.31
1/24/2021 11:45:00 PM 0.63 33.134 0.27 7.25 5.58 13.32
1/25/2021 12:00:00 AM 0.62 33.116 0.269 7.25 5.58 13.31
1/25/2021 12:15:00 AM 0.6 33.08 0.269 7.25 5.63 13.3
1/25/2021 12:30:00 AM 0.6 33.08 0.269 7.24 5.58 13.3
1/25/2021 12:45:00 AM 0.6 33.08 0.269 7.24 5.55 13.29
1/25/2021 1:00:00 AM 0.6 33.08 0.269 7.25 5.57 13.29
1/25/2021 1:15:00 AM 0.58 33.044 0.268 7.25 5.44 13.28
1/25/2021 1:30:00 AM 0.54 32.972 0.268 7.25 5.49 13.29
1/25/2021 1:45:00 AM 0.5 32.9 0.268 7.25 5.54 13.28
1/25/2021 2:00:00 AM 0.51 32.918 0.268 7.25 5.52 13.28
1/25/2021 2:15:00 AM 0.51 32.918 0.267 7.25 5.55 13.28
1/25/2021 2:30:00 AM 0.52 32.936 0.267 7.24 5.5 13.28
1/25/2021 2:45:00 AM 0.53 32.954 0.267 7.25 5.57 13.28
1/25/2021 3:00:00 AM 0.55 32.99 0.267 7.24 5.64 13.27
1/25/2021 3:15:00 AM 0.55 32.99 0.266 7.24 5.77 13.27
1/25/2021 3:30:00 AM 0.56 33.008 0.266 7.25 5.63 13.26
1/25/2021 3:45:00 AM 0.57 33.026 0.266 7.25 5.48 13.26
1/25/2021 4:00:00 AM 0.58 33.044 0.266 7.24 5.52 13.26
1/25/2021 4:15:00 AM 0.58 33.044 0.267 7.24 5.44 13.26
1/25/2021 4:30:00 AM 0.59 33.062 0.267 7.25 5.42 13.25
1/25/2021 4:45:00 AM 0.59 33.062 0.266 7.24 5.62 13.25
1/25/2021 5:00:00 AM 0.6 33.08 0.267 7.24 5.38 13.25
1/25/2021 5:15:00 AM 0.6 33.08 0.267 7.24 5.49 13.24
1/25/2021 5:30:00 AM 0.6 33.08 0.267 7.24 5.49 13.24
1/25/2021 5:45:00 AM 0.61 33.098 0.267 7.24 5.54 13.24
1/25/2021 6:00:00 AM 0.61 33.098 0.266 7.24 5.55 13.23
1/25/2021 6:15:00 AM 0.61 33.098 0.266 7.24 5.53 13.22
1/25/2021 6:30:00 AM 0.61 33.098 0.266 7.24 5.46 13.23
1/25/2021 6:45:00 AM 0.62 33.116 0.266 7.24 5.53 13.22
1/25/2021 7:00:00 AM 0.62 33.116 0.266 7.24 5.56 13.22
1/25/2021 7:15:00 AM 0.62 33.116 0.266 7.24 5.61 13.22
1/25/2021 7:30:00 AM 0.62 33.116 0.266 7.24 5.56 13.22
1/25/2021 7:45:00 AM 0.62 33.116 0.267 7.24 5.51 13.22
1/25/2021 8:00:00 AM 0.63 33.134 0.266 7.24 5.5 13.24
1/25/2021 8:15:00 AM 0.65 33.17 0.267 7.24 5.45 13.28
1/25/2021 8:30:00 AM 0.68 33.224 0.266 7.25 5.37 13.32
1/25/2021 8:45:00 AM 0.71 33.278 0.267 7.25 5.43 13.37
1/25/2021 9:00:00 AM 0.75 33.35 0.268 7.25 5.49 13.42
1/25/2021 9:15:00 AM 0.77 33.386 0.268 7.25 5.73 13.45
1/25/2021 9:30:00 AM 0.82 33.476 0.268 7.26 5.7 13.48
1/25/2021 9:45:00 AM 0.87 33.566 0.268 7.26 5.65 13.52
1/25/2021 10:00:00 AM 0.93 33.674 0.268 7.27 5.62 13.57
1/25/2021 10:15:00 AM 0.98 33.764 0.268 7.27 5.63 13.59
1/25/2021 10:30:00 AM 1.05 33.89 0.268 7.28 5.68 13.61
1/25/2021 10:45:00 AM 1.09 33.962 0.268 7.28 5.75 13.63
1/25/2021 11:00:00 AM 1.14 34.052 0.27 7.28 5.63 13.65
1/25/2021 11:15:00 AM 1.18 34.124 0.272 7.29 5.8 13.65
1/25/2021 11:30:00 AM 1.24 34.232 0.274 7.29 5.6 13.66
1/25/2021 11:45:00 AM 1.28 34.304 0.273 7.29 5.66 13.67
1/25/2021 12:00:00 PM 1.31 34.358 0.27 7.3 5.91 13.67
1/25/2021 12:15:00 PM 1.36 34.448 0.268 7.3 5.66 13.68
1/25/2021 12:30:00 PM 1.39 34.502 0.267 7.3 5.52 13.68
1/25/2021 12:45:00 PM 1.43 34.574 0.268 7.3 5.47 13.69
1/25/2021 1:00:00 PM 1.47 34.646 0.266 7.31 5.51 13.69
1/25/2021 1:15:00 PM 1.49 34.682 0.266 7.31 5.52 13.68
1/25/2021 1:30:00 PM 1.48 34.664 0.266 7.31 5.44 13.67
1/25/2021 1:45:00 PM 1.48 34.664 0.266 7.31 5.44 13.67
1/25/2021 2:00:00 PM 1.47 34.646 0.266 7.32 5.36 13.67
1/25/2021 2:15:00 PM 1.47 34.646 0.265 7.32 5.38 13.67
1/25/2021 2:30:00 PM 1.47 34.646 0.265 7.32 5.48 13.66
1/25/2021 2:45:00 PM 1.46 34.628 0.265 7.32 5.41 13.67
1/25/2021 3:00:00 PM 1.45 34.61 0.265 7.32 5.55 13.66
1/25/2021 3:15:00 PM 1.42 34.556 0.264 7.32 5.59 13.66
1/25/2021 3:30:00 PM 1.39 34.502 0.265 7.32 5.55 13.64
1/25/2021 3:45:00 PM 1.36 34.448 0.265 7.32 5.57 13.61
1/25/2021 4:00:00 PM 1.32 34.376 0.265 7.32 5.58 13.59
1/25/2021 4:15:00 PM 1.27 34.286 0.265 7.31 5.46 13.56
1/25/2021 4:30:00 PM 1.22 34.196 0.264 7.31 5.68 13.54
1/25/2021 4:45:00 PM 1.18 34.124 0.264 7.31 5.72 13.51
1/25/2021 5:00:00 PM 1.13 34.034 0.264 7.3 5.68 13.48
1/25/2021 5:15:00 PM 1.09 33.962 0.264 7.3 5.64 13.44
1/25/2021 5:30:00 PM 1.05 33.89 0.264 7.29 5.55 13.4
1/25/2021 5:45:00 PM 1.01 33.818 0.265 7.29 5.59 13.37
1/25/2021 6:00:00 PM 0.98 33.764 0.265 7.29 5.59 13.34
1/25/2021 6:15:00 PM 0.94 33.692 0.264 7.28 5.54 13.32
1/25/2021 6:30:00 PM 0.9 33.62 0.264 7.28 5.7 13.3
1/25/2021 6:45:00 PM 0.87 33.566 0.265 7.27 5.75 13.28
1/25/2021 7:00:00 PM 0.85 33.53 0.265 7.27 5.74 13.26
1/25/2021 7:15:00 PM 0.84 33.512 0.264 7.27 5.66 13.25
1/25/2021 7:30:00 PM 0.82 33.476 0.264 7.26 5.59 13.24
1/25/2021 7:45:00 PM 0.8 33.44 0.264 7.26 5.59 13.22
1/25/2021 8:00:00 PM 0.79 33.422 0.264 7.25 5.46 13.21
1/25/2021 8:15:00 PM 0.76 33.368 0.264 7.26 5.49 13.21
1/25/2021 8:30:00 PM 0.72 33.296 0.264 7.26 5.5 13.23
1/25/2021 8:45:00 PM 0.7 33.26 0.264 7.26 5.54 13.24
1/25/2021 9:00:00 PM 0.66 33.188 0.264 7.26 5.61 13.24
1/25/2021 9:15:00 PM 0.61 33.098 0.264 7.26 5.62 13.24
1/25/2021 9:30:00 PM 0.59 33.062 0.264 7.26 5.63 13.24
1/25/2021 9:45:00 PM 0.58 33.044 0.264 7.26 5.59 13.25
1/25/2021 10:00:00 PM 0.57 33.026 0.264 7.26 5.6 13.25
1/25/2021 10:15:00 PM 0.56 33.008 0.263 7.26 5.64 13.26
1/25/2021 10:30:00 PM 0.54 32.972 0.263 7.26 5.64 13.26
1/25/2021 10:45:00 PM 0.53 32.954 0.263 7.26 5.57 13.26
1/25/2021 11:00:00 PM 0.52 32.936 0.263 7.26 5.56 13.26
1/25/2021 11:15:00 PM 0.52 32.936 0.263 7.26 5.68 13.26
1/25/2021 11:30:00 PM 0.53 32.954 0.263 7.26 5.7 13.26
1/25/2021 11:45:00 PM 0.53 32.954 0.263 7.26 5.5 13.25
1/26/2021 12:00:00 AM 0.52 32.936 0.265 7.26 5.5 13.24
1/26/2021 12:15:00 AM 0.51 32.918 0.267 7.25 5.66 13.23
1/26/2021 12:30:00 AM 0.51 32.918 0.268 7.25 5.58 13.22
1/26/2021 12:45:00 AM 0.52 32.936 0.268 7.25 5.62 13.22
1/26/2021 1:00:00 AM 0.52 32.936 0.267 7.25 5.56 13.22
1/26/2021 1:15:00 AM 0.54 32.972 0.267 7.25 5.58 13.21
1/26/2021 1:30:00 AM 0.54 32.972 0.268 7.24 5.58 13.19
1/26/2021 1:45:00 AM 0.54 32.972 0.27 7.24 5.63 13.19
1/26/2021 2:00:00 AM 0.54 32.972 0.27 7.24 5.59 13.18
1/26/2021 2:15:00 AM 0.55 32.99 0.27 7.24 5.55 13.18
1/26/2021 2:30:00 AM 0.55 32.99 0.27 7.24 5.6 13.19
1/26/2021 2:45:00 AM 0.55 32.99 0.271 7.24 5.55 13.19
1/26/2021 3:00:00 AM 0.55 32.99 0.272 7.24 5.52 13.19
1/26/2021 3:15:00 AM 0.54 32.972 0.272 7.25 5.55 13.19
1/26/2021 3:30:00 AM 0.54 32.972 0.272 7.25 5.51 13.18
1/26/2021 3:45:00 AM 0.55 32.99 0.271 7.25 5.55 13.18
1/26/2021 4:00:00 AM 0.55 32.99 0.271 7.25 5.57 13.18
1/26/2021 4:15:00 AM 0.55 32.99 0.269 7.25 5.71 13.18
1/26/2021 4:30:00 AM 0.54 32.972 0.269 7.25 5.64 13.18
1/26/2021 4:45:00 AM 0.54 32.972 0.268 7.25 5.94 13.18
1/26/2021 5:00:00 AM 0.55 32.99 0.267 7.25 5.65 13.18
1/26/2021 5:15:00 AM 0.55 32.99 0.267 7.25 5.56 13.17
1/26/2021 5:30:00 AM 0.55 32.99 0.267 7.25 5.67 13.17
1/26/2021 5:45:00 AM 0.56 33.008 0.266 7.25 5.59 13.16
1/26/2021 6:00:00 AM 0.56 33.008 0.265 7.25 5.51 13.17
1/26/2021 6:15:00 AM 0.57 33.026 0.266 7.25 7.2 13.16
1/26/2021 6:30:00 AM 0.56 33.008 0.266 7.25 5.7 13.16
1/26/2021 6:45:00 AM 0.49 32.882 0.265 7.25 5.76 13.15
1/26/2021 7:00:00 AM 0.38 32.684 0.265 7.25 5.74 13.15
1/26/2021 7:15:00 AM 0.39 32.702 0.266 7.25 5.72 13.16
1/26/2021 7:30:00 AM 0.31 32.558 0.268 7.25 5.76 13.16
1/26/2021 7:45:00 AM 0.34 32.612 0.269 7.25 5.84 13.17
1/26/2021 8:00:00 AM 0.37 32.666 0.269 7.26 5.81 13.18
1/26/2021 8:15:00 AM 0.35 32.63 0.266 7.26 5.97 13.19
1/26/2021 8:30:00 AM 0.39 32.702 0.265 7.26 5.91 13.22
1/26/2021 8:45:00 AM 0.43 32.774 0.268 7.26 5.77 13.24
1/26/2021 9:00:00 AM 0.45 32.81 0.274 7.26 5.82 13.26
1/26/2021 9:15:00 AM 0.48 32.864 0.283 7.27 5.96 13.28
1/26/2021 9:30:00 AM 0.51 32.918 0.286 7.27 6.08 13.3
1/26/2021 9:45:00 AM 0.55 32.99 0.284 7.27 5.96 13.34
1/26/2021 10:00:00 AM 0.6 33.08 0.286 7.27 5.94 13.38
1/26/2021 10:15:00 AM 0.63 33.134 0.29 7.28 5.79 13.42
1/26/2021 10:30:00 AM 0.66 33.188 0.301 7.28 6.1 13.43
1/26/2021 10:45:00 AM 0.7 33.26 0.318 7.28 6 13.46
1/26/2021 11:00:00 AM 0.74 33.332 0.322 7.28 5.98 13.48
1/26/2021 11:15:00 AM 0.76 33.368 0.324 7.28 5.97 13.48
1/26/2021 11:30:00 AM 0.79 33.422 0.32 7.28 6.42 13.49
1/26/2021 11:45:00 AM 0.82 33.476 0.324 7.28 6.63 13.5
1/26/2021 12:00:00 PM 0.84 33.512 0.33 7.29 6.55 13.5
1/26/2021 12:15:00 PM 0.87 33.566 0.337 7.29 6.71 13.52
1/26/2021 12:30:00 PM 0.93 33.674 0.359 7.29 7.47 13.53
1/26/2021 12:45:00 PM 0.96 33.728 0.392 7.29 7.79 13.54
1/26/2021 1:00:00 PM 0.99 33.782 0.418 7.3 9.23 13.53
1/26/2021 1:15:00 PM 1.03 33.854 0.435 7.31 10.85 13.53
1/26/2021 1:30:00 PM 1.09 33.962 0.415 7.32 10.76 13.54
1/26/2021 1:45:00 PM 1.13 34.034 0.398 7.32 8.73 13.55
1/26/2021 2:00:00 PM 1.19 34.142 0.395 7.32 8.29 13.56
1/26/2021 2:15:00 PM 1.22 34.196 0.406 7.32 8.46 13.55
1/26/2021 2:30:00 PM 1.25 34.25 0.426 7.32 8.62 13.55
1/26/2021 2:45:00 PM 1.25 34.25 0.439 7.32 8.61 13.53
1/26/2021 3:00:00 PM 1.28 34.304 0.434 7.32 8.74 13.52
1/26/2021 3:15:00 PM 1.3 34.34 0.422 7.33 7.97 13.52
1/26/2021 3:30:00 PM 1.3 34.34 0.413 7.32 7.76 13.51
1/26/2021 3:45:00 PM 1.3 34.34 0.402 7.33 7.66 13.49
1/26/2021 4:00:00 PM 1.3 34.34 0.391 7.32 7.43 13.47
1/26/2021 4:15:00 PM 1.28 34.304 0.375 7.32 7.24 13.44
1/26/2021 4:30:00 PM 1.27 34.286 0.363 7.32 7.31 13.4
1/26/2021 4:45:00 PM 1.26 34.268 0.353 7.31 7 13.37
1/26/2021 5:00:00 PM 1.24 34.232 0.345 7.31 7.18 13.34
1/26/2021 5:15:00 PM 1.23 34.214 0.337 7.31 6.91 13.3
1/26/2021 5:30:00 PM 1.2 34.16 0.393 7.32 28.61 13.26
1/26/2021 5:45:00 PM 1.19 34.142 0.438 7.39 39.24 13.22
1/26/2021 6:00:00 PM 1.17 34.106 0.395 7.37 20.5 13.19
1/26/2021 6:15:00 PM 1.17 34.106 0.382 7.34 14.03 13.16
1/26/2021 6:30:00 PM 1.15 34.07 0.383 7.33 13.51 13.14
1/26/2021 6:45:00 PM 1.14 34.052 0.388 7.33 16.29 13.11
1/26/2021 7:00:00 PM 1.13 34.034 0.383 7.34 16.78 13.09
1/26/2021 7:15:00 PM 1.11 33.998 0.367 7.33 15.24 13.09
1/26/2021 7:30:00 PM 1.1 33.98 0.352 7.32 12.97 13.07
1/26/2021 7:45:00 PM 1.09 33.962 0.341 7.31 11.11 13.06
1/26/2021 8:00:00 PM 1.08 33.944 0.335 7.3 10.3 13.05
1/26/2021 8:15:00 PM 1.07 33.926 0.328 7.29 9.43 13.05
1/26/2021 8:30:00 PM 1.07 33.926 0.32 7.29 8.62 13.05
1/26/2021 8:45:00 PM 1.06 33.908 0.314 7.28 8.05 13.05
1/26/2021 9:00:00 PM 1.06 33.908 0.306 7.28 7.56 13.06
1/26/2021 9:15:00 PM 1.05 33.89 0.302 7.28 7.36 13.05
1/26/2021 9:30:00 PM 1.03 33.854 0.298 7.28 7.03 13.06
1/26/2021 9:45:00 PM 1.03 33.854 0.301 7.28 7.93 13.07
1/26/2021 10:00:00 PM 1.03 33.854 0.301 7.28 8.18 13.07
1/26/2021 10:15:00 PM 1.01 33.818 0.295 7.28 7.56 13.08
1/26/2021 10:30:00 PM 1 33.8 0.292 7.28 7.32 13.08
1/26/2021 10:45:00 PM 0.99 33.782 0.292 7.28 7.2 13.08
1/26/2021 11:00:00 PM 0.98 33.764 0.291 7.28 7.33 13.09
1/26/2021 11:15:00 PM 0.96 33.728 0.29 7.28 7.19 13.08
1/26/2021 11:30:00 PM 0.95 33.71 0.289 7.28 7.01 13.09
1/26/2021 11:45:00 PM 0.93 33.674 0.287 7.28 6.76 13.09
1/27/2021 12:00:00 AM 0.91 33.638 0.287 7.28 6.53 13.1
1/27/2021 12:15:00 AM 0.89 33.602 0.286 7.27 6.53 13.1
1/27/2021 12:30:00 AM 0.89 33.602 0.285 7.28 6.46 13.1
1/27/2021 12:45:00 AM 0.87 33.566 0.284 7.27 6.21 13.11
1/27/2021 1:00:00 AM 0.85 33.53 0.283 7.28 6.25 13.11
1/27/2021 1:15:00 AM 0.84 33.512 0.283 7.28 6.16 13.11
1/27/2021 1:30:00 AM 0.82 33.476 0.282 7.28 6.06 13.12
1/27/2021 1:45:00 AM 0.81 33.458 0.282 7.28 6.01 13.13
1/27/2021 2:00:00 AM 0.79 33.422 0.281 7.28 6.09 13.14
1/27/2021 2:15:00 AM 0.77 33.386 0.282 7.28 5.94 13.16
1/27/2021 2:30:00 AM 0.75 33.35 0.282 7.28 5.96 13.16
1/27/2021 2:45:00 AM 0.74 33.332 0.281 7.28 5.93 13.16
1/27/2021 3:00:00 AM 0.72 33.296 0.28 7.28 5.98 13.18
1/27/2021 3:15:00 AM 0.71 33.278 0.279 7.28 6.07 13.19
1/27/2021 3:30:00 AM 0.7 33.26 0.278 7.29 5.95 13.19
1/27/2021 3:45:00 AM 0.68 33.224 0.277 7.29 5.88 13.19
1/27/2021 4:00:00 AM 0.67 33.206 0.277 7.29 5.98 13.2
1/27/2021 4:15:00 AM 0.66 33.188 0.275 7.29 5.91 13.2
1/27/2021 4:30:00 AM 0.64 33.152 0.274 7.29 5.87 13.21
1/27/2021 4:45:00 AM 0.62 33.116 0.274 7.29 5.87 13.22
1/27/2021 5:00:00 AM 0.61 33.098 0.273 7.29 5.88 13.23
1/27/2021 5:15:00 AM 0.6 33.08 0.272 7.29 5.79 13.23
1/27/2021 5:30:00 AM 0.59 33.062 0.271 7.29 5.86 13.23
1/27/2021 5:45:00 AM 0.58 33.044 0.271 7.29 5.89 13.24
1/27/2021 6:00:00 AM 0.57 33.026 0.27 7.3 5.89 13.24
1/27/2021 6:15:00 AM 0.56 33.008 0.27 7.3 5.89 13.25
1/27/2021 6:30:00 AM 0.55 32.99 0.269 7.29 5.89 13.25
1/27/2021 6:45:00 AM 0.53 32.954 0.268 7.3 5.99 13.26
1/27/2021 7:00:00 AM 0.52 32.936 0.267 7.3 5.85 13.27
1/27/2021 7:15:00 AM 0.5 32.9 0.265 7.3 5.9 13.27
1/27/2021 7:30:00 AM 0.49 32.882 0.265 7.3 5.82 13.28
1/27/2021 7:45:00 AM 0.48 32.864 0.264 7.3 5.92 13.29
1/27/2021 8:00:00 AM 0.47 32.846 0.264 7.3 5.87 13.31
1/27/2021 8:15:00 AM 0.47 32.846 0.263 7.3 5.86 13.33
1/27/2021 8:30:00 AM 0.46 32.828 0.263 7.31 5.96 13.36
1/27/2021 8:45:00 AM 0.47 32.846 0.262 7.31 5.87 13.39
1/27/2021 9:00:00 AM 0.47 32.846 0.262 7.31 5.88 13.42
1/27/2021 9:15:00 AM 0.49 32.882 0.261 7.32 6.14 13.47
1/27/2021 9:30:00 AM 0.51 32.918 0.26 7.32 6.26 13.51
1/27/2021 9:45:00 AM 0.52 32.936 0.261 7.33 6.35 13.55
1/27/2021 10:00:00 AM 0.55 32.99 0.26 7.33 6.24 13.6
1/27/2021 10:15:00 AM 0.59 33.062 0.259 7.33 6.21 13.65
1/27/2021 10:30:00 AM 0.61 33.098 0.259 7.34 6.63 13.68
1/27/2021 10:45:00 AM 0.63 33.134 0.258 7.34 6.84 13.7
1/27/2021 11:00:00 AM 0.65 33.17 0.258 7.35 6.56 13.72
1/27/2021 11:15:00 AM 0.68 33.224 0.258 7.35 6.22 13.74
1/27/2021 11:30:00 AM 0.7 33.26 0.257 7.36 6.01 13.75
1/27/2021 11:45:00 AM 0.71 33.278 0.257 7.36 5.97 13.76
1/27/2021 12:00:00 PM 0.73 33.314 0.258 7.36 6.08 13.78
1/27/2021 12:15:00 PM 0.74 33.332 0.257 7.37 6.04 13.79
1/27/2021 12:30:00 PM 0.77 33.386 0.257 7.37 6.12 13.79
1/27/2021 12:45:00 PM 0.8 33.44 0.258 7.37 6.06 13.82
1/27/2021 1:00:00 PM 0.82 33.476 0.258 7.37 5.99 13.83
1/27/2021 1:15:00 PM 0.83 33.494 0.259 7.37 5.86 13.82
1/27/2021 1:30:00 PM 0.83 33.494 0.26 7.37 5.79 13.83
1/27/2021 1:45:00 PM 0.82 33.476 0.261 7.37 5.8 13.85
1/27/2021 2:00:00 PM 0.82 33.476 0.261 7.38 5.84 13.84
1/27/2021 2:15:00 PM 0.82 33.476 0.263 7.37 5.9 13.84
1/27/2021 2:30:00 PM 0.83 33.494 0.264 7.38 6.05 13.86
1/27/2021 2:45:00 PM 0.84 33.512 0.266 7.38 6.11 13.87
1/27/2021 3:00:00 PM 0.82 33.476 0.268 7.38 6.06 13.87
1/27/2021 3:15:00 PM 0.81 33.458 0.269 7.38 6.08 13.86
1/27/2021 3:30:00 PM 0.79 33.422 0.271 7.38 6.03 13.84
1/27/2021 3:45:00 PM 0.77 33.386 0.272 7.38 5.96 13.83
1/27/2021 4:00:00 PM 0.74 33.332 0.273 7.38 5.83 13.81
1/27/2021 4:15:00 PM 0.71 33.278 0.277 7.38 5.93 13.82
1/27/2021 4:30:00 PM 0.67 33.206 0.279 7.38 6.07 13.78
1/27/2021 4:45:00 PM 0.63 33.134 0.281 7.37 6.35 13.75
1/27/2021 5:00:00 PM 0.6 33.08 0.28 7.36 6.43 13.72
1/27/2021 5:15:00 PM 0.56 33.008 0.282 7.36 6.33 13.69
1/27/2021 5:30:00 PM 0.54 32.972 0.284 7.36 6.13 13.66
1/27/2021 5:45:00 PM 0.51 32.918 0.287 7.35 6.04 13.64
1/27/2021 6:00:00 PM 0.49 32.882 0.287 7.35 5.92 13.61
1/27/2021 6:15:00 PM 0.47 32.846 0.287 7.34 6.16 13.6
1/27/2021 6:30:00 PM 0.45 32.81 0.288 7.34 6.05 13.59
1/27/2021 6:45:00 PM 0.44 32.792 0.29 7.33 5.82 13.56
1/27/2021 7:00:00 PM 0.41 32.738 0.289 7.33 5.81 13.56
1/27/2021 7:15:00 PM 0.4 32.72 0.29 7.33 5.84 13.56
1/27/2021 7:30:00 PM 0.37 32.666 0.29 7.33 5.86 13.55
1/27/2021 7:45:00 PM 0.36 32.648 0.29 7.33 5.88 13.54
1/27/2021 8:00:00 PM 0.34 32.612 0.29 7.32 5.87 13.55
1/27/2021 8:15:00 PM 0.33 32.594 0.29 7.32 5.88 13.54
1/27/2021 8:30:00 PM 0.31 32.558 0.29 7.32 5.78 13.54
1/27/2021 8:45:00 PM 0.28 32.504 0.289 7.32 5.85 13.55
1/27/2021 9:00:00 PM 0.26 32.468 0.289 7.32 5.77 13.56
1/27/2021 9:15:00 PM 0.23 32.414 0.288 7.32 6.01 13.55
1/27/2021 9:30:00 PM 0.21 32.378 0.288 7.32 6.02 13.55
1/27/2021 9:45:00 PM 0.19 32.342 0.289 7.32 6.04 13.55
1/27/2021 10:00:00 PM 0.16 32.288 0.288 7.32 5.83 13.55
1/27/2021 10:15:00 PM 0.14 32.252 0.288 7.32 5.84 13.55
1/27/2021 10:30:00 PM 0.12 32.216 0.289 7.31 5.86 13.55
1/27/2021 10:45:00 PM 0.11 32.198 0.289 7.3 6.06 13.54
1/27/2021 11:00:00 PM 0.12 32.216 0.289 7.31 5.76 13.54
1/27/2021 11:15:00 PM 0.12 32.216 0.289 7.3 5.82 13.54
1/27/2021 11:30:00 PM 0.12 32.216 0.29 7.3 5.75 13.53
1/27/2021 11:45:00 PM 0.11 32.198 0.291 7.3 5.88 13.54
1/28/2021 12:00:00 AM 0.1 32.18 0.291 7.3 5.76 13.54
1/28/2021 12:15:00 AM 0.1 32.18 0.291 7.3 5.78 13.54
1/28/2021 12:30:00 AM 0.09 32.162 0.292 7.3 5.79 13.54
1/28/2021 12:45:00 AM 0.08 32.144 0.293 7.3 5.8 13.54
1/28/2021 1:00:00 AM 0.07 32.126 0.293 7.3 5.78 13.53
1/28/2021 1:15:00 AM 0.07 32.126 0.295 7.3 5.71 13.53
1/28/2021 1:30:00 AM 0.09 32.162 0.296 7.3 5.83 13.52
1/28/2021 1:45:00 AM 0.11 32.198 0.297 7.3 5.72 13.52
1/28/2021 2:00:00 AM 0.12 32.216 0.297 7.29 5.64 13.51
1/28/2021 2:15:00 AM 0.12 32.216 0.296 7.29 5.62 13.5
1/28/2021 2:30:00 AM 0.11 32.198 0.296 7.29 5.58 13.5
1/28/2021 2:45:00 AM 0.1 32.18 0.296 7.29 5.68 13.5
1/28/2021 3:00:00 AM 0.09 32.162 0.295 7.29 5.66 13.49
1/28/2021 3:15:00 AM 0.08 32.144 0.294 7.29 5.69 13.49
1/28/2021 3:30:00 AM 0.08 32.144 0.295 7.28 5.62 13.49
1/28/2021 3:45:00 AM 0.09 32.162 0.295 7.28 5.67 13.49
1/28/2021 4:00:00 AM 0.08 32.144 0.296 7.28 5.56 13.49
1/28/2021 4:15:00 AM 0.08 32.144 0.296 7.28 5.6 13.48
1/28/2021 4:30:00 AM 0.07 32.126 0.297 7.28 5.75 13.47
1/28/2021 4:45:00 AM 0.06 32.108 0.297 7.28 5.63 13.47
1/28/2021 5:00:00 AM 0.05 32.09 0.298 7.28 5.57 13.47
1/28/2021 5:15:00 AM 0.04 32.072 0.299 7.27 5.55 13.47
1/28/2021 5:30:00 AM 0.03 32.054 0.3 7.27 5.57 13.47
1/28/2021 5:45:00 AM 0.01 32.018 0.301 7.27 5.48 13.46
1/28/2021 6:00:00 AM 0 32 0.302 7.26 5.48 13.46
1/28/2021 6:15:00 AM -0.01 31.982 0.302 7.27 5.53 13.46
1/28/2021 6:30:00 AM -0.01 31.982 0.303 7.26 5.78 13.45
1/28/2021 6:45:00 AM 0.01 32.018 0.304 7.26 5.62 13.45
1/28/2021 7:00:00 AM 0.02 32.036 0.305 7.26 5.75 13.44
1/28/2021 7:15:00 AM 0.03 32.054 0.306 7.25 5.88 13.44
1/28/2021 7:30:00 AM 0.02 32.036 0.307 7.26 5.63 13.44
1/28/2021 7:45:00 AM 0.04 32.072 0.307 7.26 5.57 13.46
1/28/2021 8:00:00 AM 0.06 32.108 0.306 7.25 5.74 13.48
1/28/2021 8:15:00 AM 0.07 32.126 0.304 7.26 8.94 13.51
1/28/2021 8:30:00 AM 0.06 32.108 0.304 7.26 5.94 13.55
1/28/2021 8:45:00 AM 0.11 32.198 0.303 7.27 5.83 13.6
1/28/2021 9:00:00 AM 0.15 32.27 0.301 7.27 5.65 13.66
1/28/2021 9:15:00 AM 0.18 32.324 0.3 7.27 5.82 13.72
1/28/2021 9:30:00 AM 0.24 32.432 0.298 7.28 5.73 13.77
1/28/2021 9:45:00 AM 0.32 32.576 0.296 7.29 7.93 13.81
1/28/2021 10:00:00 AM 0.39 32.702 0.293 7.29 7.13 13.85
1/28/2021 10:15:00 AM 0.41 32.738 0.291 7.3 7.22 13.89
1/28/2021 10:30:00 AM 0.44 32.792 0.288 7.3 7.03 13.92
1/28/2021 10:45:00 AM 0.56 33.008 0.286 7.31 6.31 13.95
1/28/2021 11:00:00 AM 0.55 32.99 0.284 7.32 6.91 13.97
1/28/2021 11:15:00 AM 0.64 33.152 0.28 7.33 6.48 13.98
1/28/2021 11:30:00 AM 0.66 33.188 0.278 7.34 6.38 13.98
1/28/2021 11:45:00 AM 0.73 33.314 0.273 7.34 7.06 13.97
1/28/2021 12:00:00 PM 0.74 33.332 0.268 7.35 7 13.96
1/28/2021 12:15:00 PM 0.76 33.368 0.264 7.36 6.88 13.97
1/28/2021 12:30:00 PM 0.74 33.332 0.263 7.37 7.22 13.98
1/28/2021 12:45:00 PM 0.75 33.35 0.263 7.37 7.17 13.98
1/28/2021 1:00:00 PM 0.85 33.53 0.263 7.38 7.14 13.98
1/28/2021 1:15:00 PM 0.98 33.764 0.265 7.38 6.73 13.99
1/28/2021 1:30:00 PM 1.13 34.034 0.267 7.39 6.73 14
1/28/2021 1:45:00 PM 1.09 33.962 0.267 7.39 7.12 13.99
1/28/2021 2:00:00 PM 1.04 33.872 0.267 7.39 6.61 13.97
1/28/2021 2:15:00 PM 1.03 33.854 0.268 7.4 6.4 13.99
1/28/2021 2:30:00 PM 1.02 33.836 0.266 7.4 6.79 13.99
1/28/2021 2:45:00 PM 0.93 33.674 0.267 7.4 6.76 13.99
1/28/2021 3:00:00 PM 0.85 33.53 0.266 7.4 6.82 14
1/28/2021 3:15:00 PM 0.77 33.386 0.267 7.4 6.8 14.02
1/28/2021 3:30:00 PM 0.71 33.278 0.267 7.4 6.65 14.02
1/28/2021 3:45:00 PM 0.58 33.044 0.268 7.4 6.82 14.04
1/28/2021 4:00:00 PM 0.52 32.936 0.269 7.41 6.49 14.04
1/28/2021 4:15:00 PM 0.46 32.828 0.27 7.41 6.24 14.05
1/28/2021 4:30:00 PM 0.4 32.72 0.27 7.4 6.1 14.04
1/28/2021 4:45:00 PM 0.35 32.63 0.271 7.4 6.08 14.02
1/28/2021 5:00:00 PM 0.28 32.504 0.272 7.39 5.89 14.01
1/28/2021 5:15:00 PM 0.23 32.414 0.273 7.39 5.98 13.99
1/28/2021 5:30:00 PM 0.2 32.36 0.274 7.38 5.93 13.94
1/28/2021 5:45:00 PM 0.15 32.27 0.275 7.38 5.96 13.91
1/28/2021 6:00:00 PM 0.12 32.216 0.275 7.37 5.84 13.88
1/28/2021 6:15:00 PM 0.1 32.18 0.275 7.36 5.93 13.85
1/28/2021 6:30:00 PM 0.07 32.126 0.276 7.35 6.1 13.82
1/28/2021 6:45:00 PM 0.05 32.09 0.276 7.35 5.92 13.8
1/28/2021 7:00:00 PM 0.04 32.072 0.277 7.34 6.18 13.79
1/28/2021 7:15:00 PM 0.03 32.054 0.278 7.33 6.79 13.77
1/28/2021 7:30:00 PM 0.02 32.036 0.278 7.33 6.63 13.75
1/28/2021 7:45:00 PM 0.01 32.018 0.279 7.32 6.43 13.74
1/28/2021 8:00:00 PM 0 32 0.28 7.32 6.41 13.74
1/28/2021 8:15:00 PM 0 32 0.28 7.32 6.41 13.73
1/28/2021 8:30:00 PM 0 32 0.28 7.31 7.15 13.72
1/28/2021 8:45:00 PM -0.01 31.982 0.281 7.31 7.31 13.72
1/28/2021 9:00:00 PM -0.02 31.964 0.281 7.3 7.92 13.71
1/28/2021 9:15:00 PM -0.03 31.946 0.283 7.3 7.35 13.7
1/28/2021 9:30:00 PM -0.04 31.928 0.283 7.3 7.34 13.7
1/28/2021 9:45:00 PM -0.07 31.874 0.283 7.29 8.06 13.69
1/28/2021 10:00:00 PM -0.07 31.874 0.284 7.29 9.22 13.69
1/28/2021 10:15:00 PM -0.06 31.892 0.284 7.29 9.38 13.68
1/28/2021 10:30:00 PM -0.04 31.928 0.285 7.29 9.63 13.67
1/28/2021 10:45:00 PM -0.05 31.91 0.287 7.29 9.78 13.66
1/28/2021 11:00:00 PM -0.05 31.91 0.287 7.29 10.02 13.66
1/28/2021 11:15:00 PM -0.06 31.892 0.288 7.29 11.62 13.66
1/28/2021 11:30:00 PM -0.06 31.892 0.288 7.28 9.83 13.64
1/28/2021 11:45:00 PM -0.05 31.91 0.289 7.28 9.4 13.63
1/29/2021 12:00:00 AM -0.05 31.91 0.29 7.27 9.43 13.63
1/29/2021 12:15:00 AM -0.05 31.91 0.292 7.27 8.59 13.63
1/29/2021 12:30:00 AM -0.05 31.91 0.293 7.27 8.11 13.61
1/29/2021 12:45:00 AM -0.05 31.91 0.294 7.27 7.77 13.6
1/29/2021 1:00:00 AM -0.05 31.91 0.295 7.26 7.4 13.6
1/29/2021 1:15:00 AM -0.06 31.892 0.296 7.26 6.92 13.59
1/29/2021 1:30:00 AM -0.05 31.91 0.297 7.26 6.66 13.58
1/29/2021 1:45:00 AM -0.05 31.91 0.298 7.25 6.33 13.57
1/29/2021 2:00:00 AM -0.05 31.91 0.299 7.25 6.1 13.57
1/29/2021 2:15:00 AM -0.06 31.892 0.3 7.25 6.02 13.57
1/29/2021 2:30:00 AM -0.07 31.874 0.301 7.25 6.02 13.56
1/29/2021 2:45:00 AM -0.06 31.892 0.301 7.25 6.01 13.55
1/29/2021 3:00:00 AM -0.05 31.91 0.302 7.25 6.27 13.55
1/29/2021 3:15:00 AM -0.04 31.928 0.303 7.25 6.68 13.54
1/29/2021 3:30:00 AM -0.05 31.91 0.304 7.25 7.85 13.54
1/29/2021 3:45:00 AM -0.04 31.928 0.305 7.25 8.57 13.54
1/29/2021 4:00:00 AM -0.03 31.946 0.306 7.25 8.6 13.53
1/29/2021 4:15:00 AM -0.02 31.964 0.307 7.25 8.29 13.52
1/29/2021 4:30:00 AM -0.02 31.964 0.308 7.25 8.21 13.52
1/29/2021 4:45:00 AM -0.01 31.982 0.308 7.25 7.78 13.51
1/29/2021 5:00:00 AM -0.01 31.982 0.309 7.25 7.22 13.5
1/29/2021 5:15:00 AM 0 32 0.31 7.24 6.64 13.5
1/29/2021 5:30:00 AM 0.01 32.018 0.31 7.25 6.47 13.5
1/29/2021 5:45:00 AM 0.01 32.018 0.311 7.24 6.12 13.49
1/29/2021 6:00:00 AM 0.01 32.018 0.311 7.24 6.11 13.49
1/29/2021 6:15:00 AM 0.01 32.018 0.312 7.24 6.12 13.48
1/29/2021 6:30:00 AM 0.02 32.036 0.311 7.24 6.32 13.48
1/29/2021 6:45:00 AM 0.03 32.054 0.312 7.24 6.96 13.47
1/29/2021 7:00:00 AM 0.03 32.054 0.312 7.24 7.88 13.46
1/29/2021 7:15:00 AM 0.03 32.054 0.312 7.24 9.79 13.46
1/29/2021 7:30:00 AM 0.04 32.072 0.312 7.24 8.94 13.45
1/29/2021 7:45:00 AM 0.05 32.09 0.312 7.24 8.58 13.46
1/29/2021 8:00:00 AM 0.06 32.108 0.311 7.24 8.88 13.48
1/29/2021 8:15:00 AM 0.08 32.144 0.312 7.24 7.99 13.51
1/29/2021 8:30:00 AM 0.1 32.18 0.311 7.25 7.27 13.53
1/29/2021 8:45:00 AM 0.13 32.234 0.311 7.25 6.72 13.58
1/29/2021 9:00:00 AM 0.16 32.288 0.311 7.25 6.56 13.62
1/29/2021 9:15:00 AM 0.18 32.324 0.311 7.25 6.52 13.65
1/29/2021 9:30:00 AM 0.2 32.36 0.311 7.26 6.59 13.69
1/29/2021 9:45:00 AM 0.22 32.396 0.311 7.26 6.84 13.72
1/29/2021 10:00:00 AM 0.25 32.45 0.311 7.27 7.07 13.76
1/29/2021 10:15:00 AM 0.27 32.486 0.31 7.27 7.11 13.78
1/29/2021 10:30:00 AM 0.32 32.576 0.309 7.28 6.93 13.82
1/29/2021 10:45:00 AM 0.37 32.666 0.309 7.28 6.81 13.85
1/29/2021 11:00:00 AM 0.46 32.828 0.308 7.28 6.79 13.87
1/29/2021 11:15:00 AM 0.51 32.918 0.308 7.29 6.89 13.9
1/29/2021 11:30:00 AM 0.59 33.062 0.307 7.29 6.8 13.91
1/29/2021 11:45:00 AM 0.67 33.206 0.307 7.3 7.14 13.92
1/29/2021 12:00:00 PM 0.74 33.332 0.305 7.3 6.81 13.93
1/29/2021 12:15:00 PM 0.81 33.458 0.304 7.31 6.81 13.93
1/29/2021 12:30:00 PM 0.78 33.404 0.303 7.31 6.88 13.93
1/29/2021 12:45:00 PM 0.74 33.332 0.31 7.32 6.85 13.93
1/29/2021 1:00:00 PM 0.73 33.314 0.323 7.32 6.81 13.93
1/29/2021 1:15:00 PM 0.75 33.35 0.318 7.33 6.73 13.93
1/29/2021 1:30:00 PM 0.73 33.314 0.314 7.33 6.59 13.94
1/29/2021 1:45:00 PM 0.72 33.296 0.313 7.33 6.58 13.93
1/29/2021 2:00:00 PM 0.74 33.332 0.314 7.33 6.55 13.94
1/29/2021 2:15:00 PM 0.71 33.278 0.312 7.34 6.58 13.94
1/29/2021 2:30:00 PM 0.66 33.188 0.312 7.34 6.43 13.94
1/29/2021 2:45:00 PM 0.64 33.152 0.313 7.34 6.41 13.95
1/29/2021 3:00:00 PM 0.61 33.098 0.311 7.34 6.51 13.94
1/29/2021 3:15:00 PM 0.58 33.044 0.309 7.34 6.64 13.93
1/29/2021 3:30:00 PM 0.54 32.972 0.31 7.34 6.13 13.93
1/29/2021 3:45:00 PM 0.5 32.9 0.309 7.34 6.3 13.92
1/29/2021 4:00:00 PM 0.47 32.846 0.309 7.34 6.33 13.9
1/29/2021 4:15:00 PM 0.43 32.774 0.31 7.34 6.26 13.89
1/29/2021 4:30:00 PM 0.4 32.72 0.309 7.33 6.2 13.87
1/29/2021 4:45:00 PM 0.37 32.666 0.308 7.33 6.26 13.83
1/29/2021 5:00:00 PM 0.34 32.612 0.307 7.33 6.23 13.8
1/29/2021 5:15:00 PM 0.31 32.558 0.306 7.32 6.32 13.76
1/29/2021 5:30:00 PM 0.29 32.522 0.306 7.32 6.13 13.71
1/29/2021 5:45:00 PM 0.25 32.45 0.305 7.31 6.24 13.67
1/29/2021 6:00:00 PM 0.23 32.414 0.304 7.3 6.62 13.64
1/29/2021 6:15:00 PM 0.22 32.396 0.304 7.3 6.42 13.61
1/29/2021 6:30:00 PM 0.21 32.378 0.303 7.29 6.39 13.58
1/29/2021 6:45:00 PM 0.2 32.36 0.302 7.29 6.33 13.56
1/29/2021 7:00:00 PM 0.2 32.36 0.302 7.28 6.32 13.54
1/29/2021 7:15:00 PM 0.2 32.36 0.301 7.28 6.61 13.51
1/29/2021 7:30:00 PM 0.19 32.342 0.301 7.28 6.69 13.5
1/29/2021 7:45:00 PM 0.19 32.342 0.3 7.27 6.45 13.49
1/29/2021 8:00:00 PM 0.19 32.342 0.3 7.27 6.33 13.48
1/29/2021 8:15:00 PM 0.19 32.342 0.299 7.27 6.23 13.48
1/29/2021 8:30:00 PM 0.19 32.342 0.299 7.27 6.5 13.47
1/29/2021 8:45:00 PM 0.19 32.342 0.298 7.27 5.97 13.47
1/29/2021 9:00:00 PM 0.19 32.342 0.298 7.26 5.87 13.46
1/29/2021 9:15:00 PM 0.19 32.342 0.298 7.26 5.93 13.46
1/29/2021 9:30:00 PM 0.17 32.306 0.297 7.26 5.95 13.46
1/29/2021 9:45:00 PM 0.17 32.306 0.297 7.26 5.93 13.46
1/29/2021 10:00:00 PM 0.17 32.306 0.297 7.26 5.95 13.46
1/29/2021 10:15:00 PM 0.17 32.306 0.297 7.26 6.14 13.45
1/29/2021 10:30:00 PM 0.17 32.306 0.296 7.26 6.09 13.45
1/29/2021 10:45:00 PM 0.17 32.306 0.296 7.26 6.02 13.45
1/29/2021 11:00:00 PM 0.18 32.324 0.296 7.25 6.75 13.44
1/29/2021 11:15:00 PM 0.17 32.306 0.296 7.26 7.25 13.44
1/29/2021 11:30:00 PM 0.18 32.324 0.296 7.25 8.2 13.43
1/29/2021 11:45:00 PM 0.18 32.324 0.295 7.24 8.67 13.41
1/30/2021 12:00:00 AM 0.18 32.324 0.295 7.24 9.11 13.41
1/30/2021 12:15:00 AM 0.18 32.324 0.295 7.24 8.84 13.4
1/30/2021 12:30:00 AM 0.18 32.324 0.295 7.24 8.55 13.39
1/30/2021 12:45:00 AM 0.19 32.342 0.295 7.24 8.65 13.39
1/30/2021 1:00:00 AM 0.19 32.342 0.294 7.24 9.48 13.38
1/30/2021 1:15:00 AM 0.19 32.342 0.294 7.23 9.65 13.37
1/30/2021 1:30:00 AM 0.19 32.342 0.295 7.23 8.65 13.36
1/30/2021 1:45:00 AM 0.19 32.342 0.294 7.23 7.78 13.36
1/30/2021 2:00:00 AM 0.18 32.324 0.294 7.22 7.35 13.35
1/30/2021 2:15:00 AM 0.18 32.324 0.294 7.22 6.88 13.35
1/30/2021 2:30:00 AM 0.18 32.324 0.294 7.22 6.66 13.35
1/30/2021 2:45:00 AM 0.18 32.324 0.294 7.22 6.38 13.35
1/30/2021 3:00:00 AM 0.18 32.324 0.294 7.22 6.19 13.34
1/30/2021 3:15:00 AM 0.18 32.324 0.294 7.22 5.97 13.35
1/30/2021 3:30:00 AM 0.19 32.342 0.294 7.23 5.95 13.36
1/30/2021 3:45:00 AM 0.19 32.342 0.294 7.23 6 13.35
1/30/2021 4:00:00 AM 0.2 32.36 0.294 7.23 6.05 13.35
1/30/2021 4:15:00 AM 0.2 32.36 0.294 7.23 5.97 13.35
1/30/2021 4:30:00 AM 0.21 32.378 0.295 7.23 6.07 13.35
1/30/2021 4:45:00 AM 0.21 32.378 0.295 7.23 6.23 13.35
1/30/2021 5:00:00 AM 0.22 32.396 0.295 7.23 6.23 13.35
1/30/2021 5:15:00 AM 0.22 32.396 0.295 7.23 6.58 13.34
1/30/2021 5:30:00 AM 0.22 32.396 0.296 7.23 7.21 13.34
1/30/2021 5:45:00 AM 0.21 32.378 0.297 7.23 8.27 13.33
1/30/2021 6:00:00 AM 0.21 32.378 0.297 7.22 8.78 13.33
1/30/2021 6:15:00 AM 0.21 32.378 0.297 7.22 8.08 13.33
1/30/2021 6:30:00 AM 0.22 32.396 0.298 7.22 7.83 13.32
1/30/2021 6:45:00 AM 0.22 32.396 0.298 7.22 7.48 13.32
1/30/2021 7:00:00 AM 0.22 32.396 0.298 7.22 7.01 13.32
1/30/2021 7:15:00 AM 0.23 32.414 0.299 7.22 6.36 13.32
1/30/2021 7:30:00 AM 0.24 32.432 0.3 7.22 6.52 13.32
1/30/2021 7:45:00 AM 0.24 32.432 0.299 7.22 7.68 13.33
1/30/2021 8:00:00 AM 0.25 32.45 0.299 7.22 6.12 13.35
1/30/2021 8:15:00 AM 0.27 32.486 0.3 7.22 6.36 13.38
1/30/2021 8:30:00 AM 0.3 32.54 0.299 7.23 5.69 13.42
1/30/2021 8:45:00 AM 0.33 32.594 0.299 7.23 5.71 13.48
1/30/2021 9:00:00 AM 0.37 32.666 0.299 7.24 5.44 13.54
1/30/2021 9:15:00 AM 0.41 32.738 0.299 7.24 5.5 13.58
1/30/2021 9:30:00 AM 0.46 32.828 0.299 7.25 5.31 13.63
1/30/2021 9:45:00 AM 0.51 32.918 0.298 7.25 5.5 13.67
1/30/2021 10:00:00 AM 0.57 33.026 0.298 7.26 5.51 13.72
1/30/2021 10:15:00 AM 0.63 33.134 0.298 7.26 5.58 13.77
1/30/2021 10:30:00 AM 0.69 33.242 0.298 7.27 5.71 13.8
1/30/2021 10:45:00 AM 0.77 33.386 0.298 7.27 5.93 13.82
1/30/2021 11:00:00 AM 0.82 33.476 0.297 7.27 5.77 13.85
1/30/2021 11:15:00 AM 0.88 33.584 0.297 7.28 5.71 13.87
1/30/2021 11:30:00 AM 0.92 33.656 0.297 7.28 5.55 13.88
1/30/2021 11:45:00 AM 0.97 33.746 0.297 7.29 5.75 13.88
1/30/2021 12:00:00 PM 1.03 33.854 0.297 7.29 5.66 13.9
1/30/2021 12:15:00 PM 1.12 34.016 0.297 7.3 5.51 13.91
1/30/2021 12:30:00 PM 1.2 34.16 0.296 7.3 5.4 13.91
1/30/2021 12:45:00 PM 1.29 34.322 0.297 7.3 5.16 13.9
1/30/2021 1:00:00 PM 1.41 34.538 0.297 7.31 5.28 13.91
1/30/2021 1:15:00 PM 1.52 34.736 0.297 7.31 5.16 13.9
1/30/2021 1:30:00 PM 1.64 34.952 0.297 7.32 5.24 13.87
1/30/2021 1:45:00 PM 1.75 35.15 0.296 7.31 5.17 13.86
1/30/2021 2:00:00 PM 1.83 35.294 0.296 7.31 5.28 13.83
1/30/2021 2:15:00 PM 1.86 35.348 0.295 7.31 5.24 13.81
1/30/2021 2:30:00 PM 1.82 35.276 0.296 7.31 5.32 13.79
1/30/2021 2:45:00 PM 1.81 35.258 0.296 7.31 5.82 13.78
1/30/2021 3:00:00 PM 1.79 35.222 0.297 7.31 5.23 13.77
1/30/2021 3:15:00 PM 1.72 35.096 0.298 7.31 5.39 13.76
1/30/2021 3:30:00 PM 1.64 34.952 0.298 7.31 5.23 13.76
1/30/2021 3:45:00 PM 1.55 34.79 0.298 7.31 5.35 13.76
1/30/2021 4:00:00 PM 1.45 34.61 0.299 7.31 5.35 13.75
1/30/2021 4:15:00 PM 1.31 34.358 0.299 7.31 5.38 13.74
1/30/2021 4:30:00 PM 1.17 34.106 0.299 7.3 5.49 13.73
1/30/2021 4:45:00 PM 1.02 33.836 0.299 7.3 5.62 13.71
1/30/2021 5:00:00 PM 0.87 33.566 0.3 7.3 5.63 13.68
1/30/2021 5:15:00 PM 0.77 33.386 0.3 7.3 5.42 13.66
1/30/2021 5:30:00 PM 0.67 33.206 0.3 7.29 5.54 13.62
1/30/2021 5:45:00 PM 0.59 33.062 0.3 7.29 5.36 13.59
1/30/2021 6:00:00 PM 0.52 32.936 0.3 7.28 5.48 13.56
1/30/2021 6:15:00 PM 0.46 32.828 0.3 7.28 5.34 13.53
1/30/2021 6:30:00 PM 0.41 32.738 0.3 7.27 5.29 13.52
1/30/2021 6:45:00 PM 0.38 32.684 0.3 7.27 5.28 13.5
1/30/2021 7:00:00 PM 0.37 32.666 0.3 7.27 5.4 13.49
1/30/2021 7:15:00 PM 0.35 32.63 0.3 7.26 5.5 13.47
1/30/2021 7:30:00 PM 0.34 32.612 0.299 7.26 5.77 13.46
1/30/2021 7:45:00 PM 0.34 32.612 0.3 7.26 5.76 13.45
1/30/2021 8:00:00 PM 0.34 32.612 0.299 7.26 5.52 13.44
1/30/2021 8:15:00 PM 0.34 32.612 0.299 7.25 5.36 13.44
1/30/2021 8:30:00 PM 0.35 32.63 0.3 7.26 5.3 13.44
1/30/2021 8:45:00 PM 0.36 32.648 0.299 7.26 5.14 13.43
1/30/2021 9:00:00 PM 0.36 32.648 0.299 7.25 5.06 13.43
1/30/2021 9:15:00 PM 0.37 32.666 0.299 7.25 5.13 13.42
1/30/2021 9:30:00 PM 0.38 32.684 0.299 7.25 5.31 13.41
1/30/2021 9:45:00 PM 0.38 32.684 0.299 7.25 5.11 13.4
1/30/2021 10:00:00 PM 0.39 32.702 0.299 7.25 5.25 13.39
1/30/2021 10:15:00 PM 0.39 32.702 0.299 7.25 5.11 13.39
1/30/2021 10:30:00 PM 0.39 32.702 0.299 7.25 5.17 13.38
1/30/2021 10:45:00 PM 0.4 32.72 0.299 7.25 5.26 13.38
1/30/2021 11:00:00 PM 0.41 32.738 0.298 7.25 5.2 13.37
1/30/2021 11:15:00 PM 0.41 32.738 0.299 7.25 5.19 13.36
1/30/2021 11:30:00 PM 0.42 32.756 0.298 7.25 5.22 13.36
1/30/2021 11:45:00 PM 0.43 32.774 0.298 7.25 5.02 13.35
1/31/2021 12:00:00 AM 0.44 32.792 0.298 7.25 5.13 13.35
1/31/2021 12:15:00 AM 0.44 32.792 0.298 7.25 5.33 13.35
1/31/2021 12:30:00 AM 0.45 32.81 0.298 7.24 5.5 13.33
1/31/2021 12:45:00 AM 0.46 32.828 0.297 7.25 5.22 13.33
1/31/2021 1:00:00 AM 0.46 32.828 0.297 7.24 5.34 13.32
1/31/2021 1:15:00 AM 0.45 32.81 0.297 7.25 5.47 13.32
1/31/2021 1:30:00 AM 0.45 32.81 0.297 7.24 5.42 13.31
1/31/2021 1:45:00 AM 0.45 32.81 0.298 7.24 5.48 13.31
1/31/2021 2:00:00 AM 0.45 32.81 0.297 7.24 5.81 13.3
1/31/2021 2:15:00 AM 0.46 32.828 0.297 7.24 5.89 13.29
1/31/2021 2:30:00 AM 0.46 32.828 0.297 7.24 5.66 13.28
1/31/2021 2:45:00 AM 0.46 32.828 0.297 7.24 5.64 13.27
1/31/2021 3:00:00 AM 0.46 32.828 0.297 7.24 5.68 13.27
1/31/2021 3:15:00 AM 0.47 32.846 0.297 7.24 6.12 13.27
1/31/2021 3:30:00 AM 0.46 32.828 0.297 7.24 6.67 13.27
1/31/2021 3:45:00 AM 0.47 32.846 0.297 7.24 6.62 13.27
1/31/2021 4:00:00 AM 0.47 32.846 0.297 7.24 6.5 13.26
1/31/2021 4:15:00 AM 0.48 32.864 0.297 7.24 6.26 13.26
1/31/2021 4:30:00 AM 0.48 32.864 0.297 7.24 6.19 13.26
1/31/2021 4:45:00 AM 0.48 32.864 0.297 7.24 6.04 13.25
1/31/2021 5:00:00 AM 0.48 32.864 0.297 7.24 6.41 13.24
1/31/2021 5:15:00 AM 0.49 32.882 0.297 7.24 5.83 13.24
1/31/2021 5:30:00 AM 0.49 32.882 0.297 7.24 5.5 13.24
1/31/2021 5:45:00 AM 0.49 32.882 0.298 7.24 5.31 13.24
1/31/2021 6:00:00 AM 0.48 32.864 0.297 7.24 5.21 13.23
1/31/2021 6:15:00 AM 0.48 32.864 0.297 7.24 5.41 13.23
1/31/2021 6:30:00 AM 0.47 32.846 0.298 7.24 5.27 13.22
1/31/2021 6:45:00 AM 0.46 32.828 0.297 7.23 5.21 13.22
1/31/2021 7:00:00 AM 0.46 32.828 0.297 7.24 5.11 13.22
1/31/2021 7:15:00 AM 0.46 32.828 0.297 7.23 5.42 13.21
1/31/2021 7:30:00 AM 0.45 32.81 0.298 7.24 6.09 13.21
1/31/2021 7:45:00 AM 0.42 32.756 0.297 7.23 6.57 13.22
1/31/2021 8:00:00 AM 0.41 32.738 0.297 7.23 6.86 13.23
1/31/2021 8:15:00 AM 0.42 32.756 0.297 7.24 5.94 13.25
1/31/2021 8:30:00 AM 0.43 32.774 0.297 7.24 5.71 13.28
1/31/2021 8:45:00 AM 0.42 32.756 0.297 7.24 5.41 13.33
1/31/2021 9:00:00 AM 0.35 32.63 0.297 7.25 5.39 13.38
1/31/2021 9:15:00 AM 0.33 32.594 0.296 7.25 5.37 13.43
1/31/2021 9:30:00 AM 0.37 32.666 0.296 7.26 5.28 13.49
1/31/2021 9:45:00 AM 0.4 32.72 0.296 7.26 5.43 13.55
1/31/2021 10:00:00 AM 0.47 32.846 0.296 7.26 5.66 13.6
1/31/2021 10:15:00 AM 0.55 32.99 0.295 7.27 5.88 13.65
1/31/2021 10:30:00 AM 0.63 33.134 0.295 7.28 5.72 13.69
1/31/2021 10:45:00 AM 0.69 33.242 0.294 7.28 5.6 13.72
1/31/2021 11:00:00 AM 0.71 33.278 0.293 7.29 5.59 13.74
1/31/2021 11:15:00 AM 0.75 33.35 0.293 7.29 5.55 13.76
1/31/2021 11:30:00 AM 0.76 33.368 0.294 7.3 5.62 13.79
1/31/2021 11:45:00 AM 0.82 33.476 0.296 7.3 5.31 13.79
1/31/2021 12:00:00 PM 0.89 33.602 0.299 7.3 5.29 13.81
1/31/2021 12:15:00 PM 0.92 33.656 0.31 7.3 5.36 13.82
1/31/2021 12:30:00 PM 0.99 33.782 0.327 7.31 5.32 13.82
1/31/2021 12:45:00 PM 1.04 33.872 0.341 7.31 5.42 13.84
1/31/2021 1:00:00 PM 1.08 33.944 0.368 7.31 6.07 13.84
1/31/2021 1:15:00 PM 1.12 34.016 0.367 7.32 5.99 13.82
1/31/2021 1:30:00 PM 1.14 34.052 0.37 7.32 5.73 13.82
1/31/2021 1:45:00 PM 1.19 34.142 0.372 7.32 5.96 13.81
1/31/2021 2:00:00 PM 1.13 34.034 0.366 7.33 5.72 13.79
1/31/2021 2:15:00 PM 1.11 33.998 0.367 7.33 5.74 13.75
1/31/2021 2:30:00 PM 1.09 33.962 0.358 7.33 5.6 13.73
1/31/2021 2:45:00 PM 1.08 33.944 0.347 7.33 5.53 13.73
1/31/2021 3:00:00 PM 1.06 33.908 0.337 7.33 5.53 13.74
1/31/2021 3:15:00 PM 1.01 33.818 0.33 7.32 5.55 13.71
1/31/2021 3:30:00 PM 0.98 33.764 0.324 7.32 5.66 13.69
1/31/2021 3:45:00 PM 0.94 33.692 0.319 7.32 5.49 13.68
1/31/2021 4:00:00 PM 0.91 33.638 0.314 7.33 5.77 13.66
1/31/2021 4:15:00 PM 0.87 33.566 0.311 7.32 5.91 13.64
1/31/2021 4:30:00 PM 0.83 33.494 0.307 7.32 5.61 13.6
1/31/2021 4:45:00 PM 0.78 33.404 0.305 7.31 5.44 13.56
1/31/2021 5:00:00 PM 0.73 33.314 0.302 7.31 5.42 13.54
1/31/2021 5:15:00 PM 0.68 33.224 0.299 7.31 6.01 13.5
1/31/2021 5:30:00 PM 0.64 33.152 0.298 7.3 5.61 13.46
1/31/2021 5:45:00 PM 0.61 33.098 0.296 7.3 5.74 13.42
1/31/2021 6:00:00 PM 0.56 33.008 0.294 7.29 5.71 13.39
1/31/2021 6:15:00 PM 0.51 32.918 0.294 7.29 5.55 13.37
1/31/2021 6:30:00 PM 0.44 32.792 0.293 7.29 5.57 13.34
1/31/2021 6:45:00 PM 0.4 32.72 0.293 7.28 5.47 13.33
1/31/2021 7:00:00 PM 0.36 32.648 0.292 7.28 5.47 13.31
1/31/2021 7:15:00 PM 0.33 32.594 0.292 7.28 5.84 13.31
1/31/2021 7:30:00 PM 0.33 32.594 0.291 7.27 5.77 13.3
1/31/2021 7:45:00 PM 0.32 32.576 0.292 7.27 5.48 13.28
1/31/2021 8:00:00 PM 0.32 32.576 0.292 7.27 5.29 13.28
1/31/2021 8:15:00 PM 0.32 32.576 0.291 7.27 5.29 13.28
1/31/2021 8:30:00 PM 0.31 32.558 0.29 7.27 5.33 13.27
1/31/2021 8:45:00 PM 0.31 32.558 0.29 7.27 5.21 13.27
1/31/2021 9:00:00 PM 0.31 32.558 0.289 7.27 5.22 13.27
1/31/2021 9:15:00 PM 0.3 32.54 0.289 7.27 5.17 13.26
1/31/2021 9:30:00 PM 0.31 32.558 0.289 7.27 5.18 13.26
1/31/2021 9:45:00 PM 0.31 32.558 0.288 7.27 5.14 13.25
1/31/2021 10:00:00 PM 0.3 32.54 0.289 7.27 5.05 13.25
1/31/2021 10:15:00 PM 0.25 32.45 0.288 7.27 5.03 13.25
1/31/2021 10:30:00 PM 0.22 32.396 0.287 7.27 5.17 13.25
1/31/2021 10:45:00 PM 0.22 32.396 0.287 7.26 5.14 13.25
1/31/2021 11:00:00 PM 0.22 32.396 0.288 7.27 5.16 13.25
1/31/2021 11:15:00 PM 0.24 32.432 0.287 7.26 5.27 13.25
1/31/2021 11:30:00 PM 0.26 32.468 0.287 7.26 5.64 13.25
1/31/2021 11:45:00 PM 0.28 32.504 0.287 7.26 6.01 13.23
2/1/2021 12:00:00 AM 0.28 32.504 0.286 7.26 5.74 13.24
2/1/2021 12:15:00 AM 0.3 32.54 0.286 7.26 5.62 13.23
2/1/2021 12:30:00 AM 0.31 32.558 0.286 7.26 5.31 13.22
2/1/2021 12:45:00 AM 0.31 32.558 0.286 7.26 5.42 13.22
2/1/2021 1:00:00 AM 0.32 32.576 0.286 7.26 5.22 13.21
2/1/2021 1:15:00 AM 0.32 32.576 0.285 7.26 5.62 13.21
2/1/2021 1:30:00 AM 0.33 32.594 0.285 7.26 5.77 13.2
2/1/2021 1:45:00 AM 0.33 32.594 0.285 7.26 5.58 13.2
2/1/2021 2:00:00 AM 0.34 32.612 0.285 7.26 5.36 13.19
2/1/2021 2:15:00 AM 0.34 32.612 0.285 7.25 5.27 13.19
2/1/2021 2:30:00 AM 0.34 32.612 0.285 7.26 5.28 13.18
2/1/2021 2:45:00 AM 0.35 32.63 0.285 7.26 5.24 13.18
2/1/2021 3:00:00 AM 0.34 32.612 0.285 7.26 5.21 13.18
2/1/2021 3:15:00 AM 0.33 32.594 0.285 7.26 5.19 13.17
2/1/2021 3:30:00 AM 0.32 32.576 0.285 7.26 5.24 13.17
2/1/2021 3:45:00 AM 0.31 32.558 0.285 7.26 5.31 13.17
2/1/2021 4:00:00 AM 0.29 32.522 0.285 7.26 5.39 13.16
2/1/2021 4:15:00 AM 0.31 32.558 0.285 7.26 5.3 13.16
2/1/2021 4:30:00 AM 0.31 32.558 0.285 7.26 5.24 13.16
2/1/2021 4:45:00 AM 0.3 32.54 0.285 7.25 5.34 13.16
2/1/2021 5:00:00 AM 0.3 32.54 0.285 7.26 5.26 13.16
2/1/2021 5:15:00 AM 0.3 32.54 0.285 7.26 5.3 13.15
2/1/2021 5:30:00 AM 0.3 32.54 0.285 7.26 5.38 13.15
2/1/2021 5:45:00 AM 0.26 32.468 0.285 7.26 5.38 13.16
2/1/2021 6:00:00 AM 0.23 32.414 0.285 7.26 6.02 13.16
2/1/2021 6:15:00 AM 0.2 32.36 0.285 7.26 5.93 13.16
2/1/2021 6:30:00 AM 0.21 32.378 0.284 7.26 6.15 13.16
2/1/2021 6:45:00 AM 0.22 32.396 0.285 7.26 5.82 13.15
2/1/2021 7:00:00 AM 0.21 32.378 0.284 7.26 6.62 13.15
2/1/2021 7:15:00 AM 0.21 32.378 0.285 7.26 6.92 13.15
2/1/2021 7:30:00 AM 0.22 32.396 0.284 7.25 6.65 13.16
2/1/2021 7:45:00 AM 0.24 32.432 0.285 7.26 6.17 13.18
2/1/2021 8:00:00 AM 0.26 32.468 0.285 7.26 5.47 13.21
2/1/2021 8:15:00 AM 0.29 32.522 0.285 7.26 5.35 13.25
2/1/2021 8:30:00 AM 0.33 32.594 0.284 7.27 5.47 13.31
2/1/2021 8:45:00 AM 0.38 32.684 0.284 7.27 6.32 13.37
2/1/2021 9:00:00 AM 0.44 32.792 0.284 7.27 5.63 13.43
2/1/2021 9:15:00 AM 0.48 32.864 0.284 7.28 8.73 13.48
2/1/2021 9:30:00 AM 0.52 32.936 0.283 7.28 6.81 13.52
2/1/2021 9:45:00 AM 0.57 33.026 0.283 7.29 10.08 13.55
2/1/2021 10:00:00 AM 0.63 33.134 0.283 7.29 7.03 13.59
2/1/2021 10:15:00 AM 0.67 33.206 0.283 7.29 6.65 13.62
2/1/2021 10:30:00 AM 0.69 33.242 0.283 7.3 6.65 13.64
2/1/2021 10:45:00 AM 0.65 33.17 0.282 7.3 7.26 13.66
2/1/2021 11:00:00 AM 0.63 33.134 0.282 7.31 5.85 13.68
2/1/2021 11:15:00 AM 0.66 33.188 0.282 7.31 5.53 13.71
2/1/2021 11:30:00 AM 0.81 33.458 0.282 7.32 5.4 13.72
2/1/2021 11:45:00 AM 0.91 33.638 0.282 7.32 5.45 13.74
2/1/2021 12:00:00 PM 1.02 33.836 0.282 7.32 5.41 13.76
2/1/2021 12:15:00 PM 1.09 33.962 0.289 7.33 5.52 13.75
2/1/2021 12:30:00 PM 1.17 34.106 0.292 7.33 5.69 13.76
2/1/2021 12:45:00 PM 1.26 34.268 0.292 7.34 5.75 13.76
2/1/2021 1:00:00 PM 1.3 34.34 0.295 7.34 6.39 13.76
2/1/2021 1:15:00 PM 1.3 34.34 0.319 7.34 6.86 13.74
2/1/2021 1:30:00 PM 1.29 34.322 0.317 7.35 6.58 13.73
2/1/2021 1:45:00 PM 1.29 34.322 0.314 7.35 5.84 13.73
2/1/2021 2:00:00 PM 1.28 34.304 0.309 7.35 5.55 13.72
2/1/2021 2:15:00 PM 1.27 34.286 0.313 7.35 5.52 13.71
2/1/2021 2:30:00 PM 1.26 34.268 0.312 7.35 5.65 13.71
2/1/2021 2:45:00 PM 1.24 34.232 0.317 7.35 5.97 13.7
2/1/2021 3:00:00 PM 1.22 34.196 0.317 7.34 6.02 13.7
2/1/2021 3:15:00 PM 1.18 34.124 0.317 7.34 5.82 13.69
2/1/2021 3:30:00 PM 1.14 34.052 0.318 7.34 5.76 13.66
2/1/2021 3:45:00 PM 1.09 33.962 0.317 7.34 5.73 13.66
2/1/2021 4:00:00 PM 1.03 33.854 0.315 7.34 5.75 13.64
2/1/2021 4:15:00 PM 1 33.8 0.316 7.34 5.71 13.62
2/1/2021 4:30:00 PM 0.96 33.728 0.318 7.34 5.89 13.59
2/1/2021 4:45:00 PM 0.91 33.638 0.323 7.34 6.05 13.55
2/1/2021 5:00:00 PM 0.88 33.584 0.32 7.34 5.92 13.51
2/1/2021 5:15:00 PM 0.84 33.512 0.318 7.33 5.73 13.47
2/1/2021 5:30:00 PM 0.81 33.458 0.315 7.33 6.89 13.43
2/1/2021 5:45:00 PM 0.77 33.386 0.311 7.32 5.56 13.39
2/1/2021 6:00:00 PM 0.75 33.35 0.309 7.32 5.51 13.33
2/1/2021 6:15:00 PM 0.72 33.296 0.305 7.31 5.45 13.31
2/1/2021 6:30:00 PM 0.69 33.242 0.303 7.31 5.43 13.27
2/1/2021 6:45:00 PM 0.67 33.206 0.3 7.3 5.32 13.25
2/1/2021 7:00:00 PM 0.65 33.17 0.298 7.3 5.3 13.23
2/1/2021 7:15:00 PM 0.62 33.116 0.296 7.29 5.56 13.21
2/1/2021 7:30:00 PM 0.58 33.044 0.293 7.29 5.48 13.2
2/1/2021 7:45:00 PM 0.56 33.008 0.291 7.29 5.42 13.19
2/1/2021 8:00:00 PM 0.54 32.972 0.291 7.28 5.53 13.19
2/1/2021 8:15:00 PM 0.52 32.936 0.294 7.28 5.7 13.18
2/1/2021 8:30:00 PM 0.48 32.864 0.289 7.28 5.33 13.18
2/1/2021 8:45:00 PM 0.46 32.828 0.287 7.28 5.18 13.18
2/1/2021 9:00:00 PM 0.45 32.81 0.286 7.28 5.15 13.18
2/1/2021 9:15:00 PM 0.41 32.738 0.285 7.28 5.06 13.18
2/1/2021 9:30:00 PM 0.37 32.666 0.284 7.28 5.05 13.18
2/1/2021 9:45:00 PM 0.34 32.612 0.283 7.28 5 13.19
2/1/2021 10:00:00 PM 0.32 32.576 0.283 7.28 5.24 13.19
2/1/2021 10:15:00 PM 0.32 32.576 0.282 7.28 5.3 13.19
2/1/2021 10:30:00 PM 0.31 32.558 0.282 7.28 5.65 13.2
2/1/2021 10:45:00 PM 0.3 32.54 0.281 7.28 5.91 13.2
2/1/2021 11:00:00 PM 0.32 32.576 0.281 7.28 6.15 13.19
2/1/2021 11:15:00 PM 0.34 32.612 0.28 7.28 6.09 13.19
2/1/2021 11:30:00 PM 0.33 32.594 0.279 7.28 5.95 13.19
2/1/2021 11:45:00 PM 0.33 32.594 0.279 7.28 6.35 13.19
2/2/2021 12:00:00 AM 0.36 32.648 0.278 7.28 6.25 13.19
2/2/2021 12:15:00 AM 0.36 32.648 0.278 7.27 6.17 13.19
2/2/2021 12:30:00 AM 0.35 32.63 0.277 7.28 6.14 13.18
2/2/2021 12:45:00 AM 0.32 32.576 0.276 7.28 5.84 13.18
2/2/2021 1:00:00 AM 0.32 32.576 0.276 7.28 5.8 13.18
2/2/2021 1:15:00 AM 0.32 32.576 0.276 7.28 5.31 13.18
2/2/2021 1:30:00 AM 0.31 32.558 0.276 7.28 5.36 13.17
2/2/2021 1:45:00 AM 0.29 32.522 0.276 7.28 5.33 13.18
2/2/2021 2:00:00 AM 0.29 32.522 0.275 7.28 5.35 13.17
2/2/2021 2:15:00 AM 0.29 32.522 0.275 7.28 5.34 13.18
2/2/2021 2:30:00 AM 0.29 32.522 0.275 7.27 5.19 13.17
2/2/2021 2:45:00 AM 0.29 32.522 0.275 7.28 5.32 13.18
2/2/2021 3:00:00 AM 0.28 32.504 0.274 7.28 5.54 13.17
2/2/2021 3:15:00 AM 0.28 32.504 0.274 7.28 5.27 13.17
2/2/2021 3:30:00 AM 0.29 32.522 0.274 7.28 5.33 13.17
2/2/2021 3:45:00 AM 0.28 32.504 0.273 7.27 5.51 13.17
2/2/2021 4:00:00 AM 0.28 32.504 0.274 7.28 5.43 13.16
2/2/2021 4:15:00 AM 0.27 32.486 0.273 7.28 5.36 13.16
2/2/2021 4:30:00 AM 0.27 32.486 0.273 7.28 5.62 13.16
2/2/2021 4:45:00 AM 0.27 32.486 0.273 7.27 5.63 13.15
2/2/2021 5:00:00 AM 0.27 32.486 0.273 7.28 5.45 13.15
2/2/2021 5:15:00 AM 0.26 32.468 0.273 7.28 5.54 13.15
2/2/2021 5:30:00 AM 0.27 32.486 0.273 7.27 5.33 13.14
2/2/2021 5:45:00 AM 0.27 32.486 0.273 7.27 5.39 13.14
2/2/2021 6:00:00 AM 0.27 32.486 0.273 7.27 5.45 13.14
2/2/2021 6:15:00 AM 0.26 32.468 0.273 7.28 5.38 13.14
2/2/2021 6:30:00 AM 0.26 32.468 0.273 7.27 5.36 13.14
2/2/2021 6:45:00 AM 0.24 32.432 0.273 7.27 5.32 13.14
2/2/2021 7:00:00 AM 0.23 32.414 0.273 7.27 5.25 13.14
2/2/2021 7:15:00 AM 0.23 32.414 0.272 7.27 5.28 13.13
2/2/2021 7:30:00 AM 0.22 32.396 0.272 7.27 6.21 13.14
2/2/2021 7:45:00 AM 0.22 32.396 0.273 7.28 8.4 13.16
2/2/2021 8:00:00 AM 0.24 32.432 0.273 7.28 6.6 13.2
2/2/2021 8:15:00 AM 0.26 32.468 0.273 7.28 5.34 13.25
2/2/2021 8:30:00 AM 0.28 32.504 0.272 7.28 12.63 13.29
2/2/2021 8:45:00 AM 0.29 32.522 0.272 7.29 5.28 13.35
2/2/2021 9:00:00 AM 0.29 32.522 0.272 7.29 4.93 13.4
2/2/2021 9:15:00 AM 0.31 32.558 0.271 7.3 5.68 13.47
2/2/2021 9:30:00 AM 0.31 32.558 0.271 7.3 8.76 13.53
2/2/2021 9:45:00 AM 0.3 32.54 0.271 7.31 9.26 13.58
2/2/2021 10:00:00 AM 0.33 32.594 0.271 7.31 7.94 13.62
2/2/2021 10:15:00 AM 0.35 32.63 0.27 7.32 6.31 13.65
2/2/2021 10:30:00 AM 0.4 32.72 0.27 7.32 6.09 13.69
2/2/2021 10:45:00 AM 0.44 32.792 0.269 7.33 6.24 13.71
2/2/2021 11:00:00 AM 0.45 32.81 0.269 7.33 6.02 13.73
2/2/2021 11:15:00 AM 0.49 32.882 0.269 7.34 5.59 13.74
2/2/2021 11:30:00 AM 0.54 32.972 0.269 7.34 6.72 13.76
2/2/2021 11:45:00 AM 0.54 32.972 0.268 7.35 6.49 13.77
2/2/2021 12:00:00 PM 0.57 33.026 0.267 7.35 6.19 13.78
2/2/2021 12:15:00 PM 0.66 33.188 0.268 7.36 6.11 13.79
2/2/2021 12:30:00 PM 0.74 33.332 0.267 7.36 5.4 13.8
2/2/2021 12:45:00 PM 0.85 33.53 0.267 7.36 5.32 13.82
2/2/2021 1:00:00 PM 0.95 33.71 0.267 7.37 5.33 13.83
2/2/2021 1:15:00 PM 1.05 33.89 0.268 7.37 6.21 13.82
2/2/2021 1:30:00 PM 1.16 34.088 0.295 7.37 6.21 13.81
2/2/2021 1:45:00 PM 1.17 34.106 0.297 7.38 6.25 13.81
2/2/2021 2:00:00 PM 1.19 34.142 0.295 7.38 6.64 13.79
2/2/2021 2:15:00 PM 1.3 34.34 0.287 7.39 6.28 13.78
2/2/2021 2:30:00 PM 1.38 34.484 0.281 7.39 5.8 13.78
2/2/2021 2:45:00 PM 1.34 34.412 0.28 7.39 6.44 13.77
2/2/2021 3:00:00 PM 1.34 34.412 0.28 7.4 6.64 13.76
2/2/2021 3:15:00 PM 1.26 34.268 0.28 7.4 6.02 13.75
2/2/2021 3:30:00 PM 1.17 34.106 0.281 7.4 5.78 13.75
2/2/2021 3:45:00 PM 1.05 33.89 0.282 7.4 5.41 13.74
2/2/2021 4:00:00 PM 0.98 33.764 0.279 7.4 5.44 13.73
2/2/2021 4:15:00 PM 0.9 33.62 0.278 7.39 5.34 13.71
2/2/2021 4:30:00 PM 0.82 33.476 0.28 7.39 5.4 13.7
2/2/2021 4:45:00 PM 0.73 33.314 0.28 7.39 5.53 13.65
2/2/2021 5:00:00 PM 0.6 33.08 0.278 7.39 5.45 13.6
2/2/2021 5:15:00 PM 0.48 32.864 0.278 7.38 5.71 13.56
2/2/2021 5:30:00 PM 0.37 32.666 0.276 7.38 5.49 13.52
2/2/2021 5:45:00 PM 0.31 32.558 0.275 7.37 5.54 13.48
2/2/2021 6:00:00 PM 0.24 32.432 0.273 7.36 5.49 13.45
2/2/2021 6:15:00 PM 0.19 32.342 0.273 7.36 5.56 13.42
2/2/2021 6:30:00 PM 0.19 32.342 0.272 7.35 5.52 13.39
2/2/2021 6:45:00 PM 0.17 32.306 0.271 7.34 5.51 13.38
2/2/2021 7:00:00 PM 0.16 32.288 0.271 7.34 5.46 13.36
2/2/2021 7:15:00 PM 0.17 32.306 0.271 7.33 6.24 13.34
2/2/2021 7:30:00 PM 0.16 32.288 0.271 7.33 7.27 13.32
2/2/2021 7:45:00 PM 0.15 32.27 0.271 7.32 6.81 13.32
2/2/2021 8:00:00 PM 0.14 32.252 0.271 7.32 6.58 13.3
2/2/2021 8:15:00 PM 0.13 32.234 0.271 7.31 6.02 13.29
2/2/2021 8:30:00 PM 0.12 32.216 0.27 7.31 5.58 13.28
2/2/2021 8:45:00 PM 0.07 32.126 0.27 7.31 5.51 13.28
2/2/2021 9:00:00 PM 0.02 32.036 0.27 7.31 5.55 13.28
2/2/2021 9:15:00 PM 0.01 32.018 0.27 7.31 5.34 13.28
2/2/2021 9:30:00 PM -0.01 31.982 0.27 7.31 5.7 13.27
2/2/2021 9:45:00 PM 0 32 0.27 7.31 7.34 13.27
2/2/2021 10:00:00 PM 0.02 32.036 0.269 7.3 7.36 13.27
2/2/2021 10:15:00 PM 0.05 32.09 0.268 7.3 6.94 13.26
2/2/2021 10:30:00 PM 0.07 32.126 0.268 7.3 6.76 13.26
2/2/2021 10:45:00 PM 0.08 32.144 0.268 7.3 6.78 13.26
2/2/2021 11:00:00 PM 0.12 32.216 0.268 7.3 6.5 13.25
2/2/2021 11:15:00 PM 0.15 32.27 0.267 7.3 6.87 13.24
2/2/2021 11:30:00 PM 0.16 32.288 0.268 7.3 7.15 13.23
2/2/2021 11:45:00 PM 0.19 32.342 0.268 7.29 7.12 13.22
2/3/2021 12:00:00 AM 0.21 32.378 0.268 7.29 7.61 13.21
2/3/2021 12:15:00 AM 0.21 32.378 0.268 7.29 7.37 13.2
2/3/2021 12:30:00 AM 0.24 32.432 0.267 7.29 6.87 13.19
2/3/2021 12:45:00 AM 0.25 32.45 0.268 7.29 6.09 13.19
2/3/2021 1:00:00 AM 0.26 32.468 0.267 7.29 5.8 13.17
2/3/2021 1:15:00 AM 0.27 32.486 0.267 7.29 5.38 13.17
2/3/2021 1:30:00 AM 0.27 32.486 0.267 7.29 5.32 13.16
2/3/2021 1:45:00 AM 0.27 32.486 0.267 7.29 5.48 13.16
2/3/2021 2:00:00 AM 0.27 32.486 0.267 7.28 5.57 13.16
2/3/2021 2:15:00 AM 0.26 32.468 0.266 7.28 6.81 13.14
2/3/2021 2:30:00 AM 0.25 32.45 0.266 7.28 7.47 13.14
2/3/2021 2:45:00 AM 0.26 32.468 0.266 7.28 7.53 13.14
2/3/2021 3:00:00 AM 0.26 32.468 0.266 7.28 7.2 13.13
2/3/2021 3:15:00 AM 0.25 32.45 0.267 7.27 6.99 13.13
2/3/2021 3:30:00 AM 0.24 32.432 0.267 7.28 6.54 13.13
2/3/2021 3:45:00 AM 0.23 32.414 0.267 7.28 6.07 13.13
2/3/2021 4:00:00 AM 0.22 32.396 0.267 7.28 6.07 13.13
2/3/2021 4:15:00 AM 0.22 32.396 0.267 7.28 5.85 13.13
2/3/2021 4:30:00 AM 0.21 32.378 0.267 7.28 5.75 13.13
2/3/2021 4:45:00 AM 0.2 32.36 0.267 7.28 5.61 13.13
2/3/2021 5:00:00 AM 0.19 32.342 0.267 7.28 5.55 13.13
2/3/2021 5:15:00 AM 0.19 32.342 0.267 7.28 5.41 13.13
2/3/2021 5:30:00 AM 0.17 32.306 0.267 7.28 5.61 13.13
2/3/2021 5:45:00 AM 0.16 32.288 0.268 7.28 5.33 13.14
2/3/2021 6:00:00 AM 0.15 32.27 0.268 7.28 5.29 13.14
2/3/2021 6:15:00 AM 0.15 32.27 0.268 7.28 5.23 13.13
2/3/2021 6:30:00 AM 0.14 32.252 0.268 7.28 5.17 13.13
2/3/2021 6:45:00 AM 0.13 32.234 0.269 7.28 5.24 13.14
2/3/2021 7:00:00 AM 0.12 32.216 0.269 7.28 5.62 13.13
2/3/2021 7:15:00 AM 0.12 32.216 0.27 7.28 6.51 13.13
2/3/2021 7:30:00 AM 0.12 32.216 0.27 7.28 7.27 13.13
2/3/2021 7:45:00 AM 0.12 32.216 0.27 7.28 7.58 13.15
2/3/2021 8:00:00 AM 0.13 32.234 0.27 7.28 6.96 13.17
2/3/2021 8:15:00 AM 0.14 32.252 0.27 7.28 6.27 13.21
2/3/2021 8:30:00 AM 0.16 32.288 0.27 7.28 5.73 13.24
2/3/2021 8:45:00 AM 0.19 32.342 0.27 7.29 5.64 13.29
2/3/2021 9:00:00 AM 0.22 32.396 0.271 7.29 5.49 13.35
2/3/2021 9:15:00 AM 0.27 32.486 0.27 7.3 5.4 13.41
2/3/2021 9:30:00 AM 0.32 32.576 0.271 7.3 7.59 13.48
2/3/2021 9:45:00 AM 0.37 32.666 0.27 7.31 6.63 13.52
2/3/2021 10:00:00 AM 0.41 32.738 0.27 7.31 5.59 13.57
2/3/2021 10:15:00 AM 0.46 32.828 0.27 7.32 6.01 13.61
2/3/2021 10:30:00 AM 0.53 32.954 0.271 7.32 6.17 13.64
2/3/2021 10:45:00 AM 0.62 33.116 0.27 7.33 5.98 13.68
2/3/2021 11:00:00 AM 0.73 33.314 0.269 7.33 5.85 13.7
2/3/2021 11:15:00 AM 0.84 33.512 0.269 7.34 5.52 13.73
2/3/2021 11:30:00 AM 1.02 33.836 0.269 7.34 5.6 13.73
2/3/2021 11:45:00 AM 1.19 34.142 0.268 7.35 5.51 13.74
2/3/2021 12:00:00 PM 1.33 34.394 0.27 7.35 5.35 13.72
2/3/2021 12:15:00 PM 1.49 34.682 0.279 7.35 5.73 13.71
2/3/2021 12:30:00 PM 1.64 34.952 0.29 7.36 6.1 13.7
2/3/2021 12:45:00 PM 1.73 35.114 0.293 7.36 5.98 13.7
2/3/2021 1:00:00 PM 1.81 35.258 0.292 7.37 6.13 13.69
2/3/2021 1:15:00 PM 1.85 35.33 0.293 7.38 6.96 13.68
2/3/2021 1:30:00 PM 1.91 35.438 0.297 7.38 7.21 13.66
2/3/2021 1:45:00 PM 1.95 35.51 0.294 7.38 6.94 13.65
2/3/2021 2:00:00 PM 1.97 35.546 0.295 7.39 7.52 13.64
2/3/2021 2:15:00 PM 1.99 35.582 0.31 7.39 7.44 13.63
2/3/2021 2:30:00 PM 1.98 35.564 0.321 7.4 7.57 13.62
2/3/2021 2:45:00 PM 1.93 35.474 0.337 7.4 10.1 13.62
2/3/2021 3:00:00 PM 1.92 35.456 0.33 7.41 8.04 13.63
2/3/2021 3:15:00 PM 1.88 35.384 0.328 7.41 7.02 13.63
2/3/2021 3:30:00 PM 1.79 35.222 0.328 7.41 6.61 13.63
2/3/2021 3:45:00 PM 1.67 35.006 0.327 7.4 6.52 13.64
2/3/2021 4:00:00 PM 1.53 34.754 0.328 7.4 6.37 13.64
2/3/2021 4:15:00 PM 1.37 34.466 0.325 7.4 6.22 13.64
2/3/2021 4:30:00 PM 1.19 34.142 0.32 7.4 5.83 13.63
2/3/2021 4:45:00 PM 0.98 33.764 0.314 7.39 5.81 13.6
2/3/2021 5:00:00 PM 0.81 33.458 0.309 7.38 5.63 13.56
2/3/2021 5:15:00 PM 0.68 33.224 0.305 7.38 5.52 13.53
2/3/2021 5:30:00 PM 0.58 33.044 0.301 7.37 5.38 13.5
2/3/2021 5:45:00 PM 0.5 32.9 0.296 7.36 5.34 13.47
2/3/2021 6:00:00 PM 0.44 32.792 0.292 7.35 5.23 13.43
2/3/2021 6:15:00 PM 0.38 32.684 0.289 7.34 5.47 13.41
2/3/2021 6:30:00 PM 0.33 32.594 0.287 7.34 5.41 13.39
2/3/2021 6:45:00 PM 0.29 32.522 0.285 7.34 9.22 13.38
2/3/2021 7:00:00 PM 0.25 32.45 0.282 7.33 5.66 13.37
2/3/2021 7:15:00 PM 0.21 32.378 0.281 7.32 5.65 13.37
2/3/2021 7:30:00 PM 0.19 32.342 0.279 7.32 5.67 13.35
2/3/2021 7:45:00 PM 0.16 32.288 0.277 7.32 5.46 13.35
2/3/2021 8:00:00 PM 0.14 32.252 0.276 7.31 5.4 13.35
2/3/2021 8:15:00 PM 0.12 32.216 0.275 7.31 5.31 13.34
2/3/2021 8:30:00 PM 0.09 32.162 0.274 7.31 5.16 13.34
2/3/2021 8:45:00 PM 0.08 32.144 0.273 7.31 5.17 13.34
2/3/2021 9:00:00 PM 0.06 32.108 0.272 7.31 5.19 13.34
2/3/2021 9:15:00 PM 0.05 32.09 0.271 7.31 5.2 13.34
2/3/2021 9:30:00 PM 0.06 32.108 0.27 7.3 5.63 13.34
2/3/2021 9:45:00 PM 0.05 32.09 0.27 7.3 6 13.34
2/3/2021 10:00:00 PM 0.06 32.108 0.269 7.3 5.9 13.34
2/3/2021 10:15:00 PM 0.07 32.126 0.269 7.3 6.12 13.34
2/3/2021 10:30:00 PM 0.09 32.162 0.269 7.3 5.87 13.33
2/3/2021 10:45:00 PM 0.11 32.198 0.268 7.3 5.54 13.32
2/3/2021 11:00:00 PM 0.11 32.198 0.268 7.3 5.53 13.32
2/3/2021 11:15:00 PM 0.13 32.234 0.267 7.3 5.54 13.32
2/3/2021 11:30:00 PM 0.14 32.252 0.267 7.29 5.41 13.31
2/3/2021 11:45:00 PM 0.15 32.27 0.266 7.3 5.72 13.3
2/4/2021 12:00:00 AM 0.16 32.288 0.266 7.29 5.89 13.3
2/4/2021 12:15:00 AM 0.16 32.288 0.265 7.29 6.29 13.3
2/4/2021 12:30:00 AM 0.17 32.306 0.265 7.29 6.5 13.3
2/4/2021 12:45:00 AM 0.16 32.288 0.265 7.29 6.86 13.29
2/4/2021 1:00:00 AM 0.13 32.234 0.265 7.29 6.23 13.29
2/4/2021 1:15:00 AM 0.13 32.234 0.264 7.29 5.75 13.29
2/4/2021 1:30:00 AM 0.13 32.234 0.264 7.29 5.9 13.28
2/4/2021 1:45:00 AM 0.13 32.234 0.264 7.29 5.6 13.28
2/4/2021 2:00:00 AM 0.13 32.234 0.264 7.29 5.55 13.28
2/4/2021 2:15:00 AM 0.13 32.234 0.265 7.29 5.32 13.27
2/4/2021 2:30:00 AM 0.14 32.252 0.265 7.29 5.29 13.28
2/4/2021 2:45:00 AM 0.15 32.27 0.265 7.29 5.11 13.28
2/4/2021 3:00:00 AM 0.15 32.27 0.265 7.29 5.31 13.27
2/4/2021 3:15:00 AM 0.15 32.27 0.264 7.28 5.37 13.27
2/4/2021 3:30:00 AM 0.15 32.27 0.265 7.28 5.51 13.26
2/4/2021 3:45:00 AM 0.15 32.27 0.264 7.28 5.36 13.26
2/4/2021 4:00:00 AM 0.15 32.27 0.264 7.28 5.33 13.25
2/4/2021 4:15:00 AM 0.14 32.252 0.265 7.28 5.29 13.25
2/4/2021 4:30:00 AM 0.14 32.252 0.265 7.28 5.21 13.25
2/4/2021 4:45:00 AM 0.13 32.234 0.265 7.28 5.15 13.24
2/4/2021 5:00:00 AM 0.14 32.252 0.265 7.28 5.07 13.24
2/4/2021 5:15:00 AM 0.14 32.252 0.265 7.28 5.18 13.24
2/4/2021 5:30:00 AM 0.14 32.252 0.265 7.28 5.07 13.23
2/4/2021 5:45:00 AM 0.14 32.252 0.266 7.28 5.16 13.24
2/4/2021 6:00:00 AM 0.12 32.216 0.265 7.28 5.1 13.24
2/4/2021 6:15:00 AM 0.12 32.216 0.265 7.27 5.25 13.24
2/4/2021 6:30:00 AM 0.12 32.216 0.266 7.27 5.09 13.23
2/4/2021 6:45:00 AM 0.1 32.18 0.267 7.27 5.29 13.23
2/4/2021 7:00:00 AM 0.1 32.18 0.267 7.27 6.13 13.23
2/4/2021 7:15:00 AM 0.08 32.144 0.268 7.27 6.49 13.23
2/4/2021 7:30:00 AM 0.07 32.126 0.268 7.27 5.89 13.25
2/4/2021 7:45:00 AM 0.05 32.09 0.268 7.27 6.21 13.27
2/4/2021 8:00:00 AM 0.06 32.108 0.268 7.27 6.97 13.32
2/4/2021 8:15:00 AM 0.07 32.126 0.269 7.28 6.5 13.39
2/4/2021 8:30:00 AM 0.11 32.198 0.269 7.28 6.55 13.47
2/4/2021 8:45:00 AM 0.17 32.306 0.269 7.29 5.58 13.54
2/4/2021 9:00:00 AM 0.2 32.36 0.269 7.29 5.49 13.59
2/4/2021 9:15:00 AM 0.26 32.468 0.269 7.3 5.37 13.63
2/4/2021 9:30:00 AM 0.32 32.576 0.268 7.3 5.38 13.67
2/4/2021 9:45:00 AM 0.42 32.756 0.268 7.3 5.4 13.71
2/4/2021 10:00:00 AM 0.53 32.954 0.268 7.31 5.31 13.75
2/4/2021 10:15:00 AM 0.68 33.224 0.267 7.32 5.33 13.78
2/4/2021 10:30:00 AM 0.82 33.476 0.267 7.32 5.69 13.8
2/4/2021 10:45:00 AM 0.94 33.692 0.266 7.33 5.61 13.82
2/4/2021 11:00:00 AM 1.09 33.962 0.265 7.33 5.63 13.82
2/4/2021 11:15:00 AM 1.24 34.232 0.264 7.33 5.38 13.81
2/4/2021 11:30:00 AM 1.39 34.502 0.263 7.34 5.2 13.8
2/4/2021 11:45:00 AM 1.53 34.754 0.263 7.34 5.36 13.79
2/4/2021 12:00:00 PM 1.65 34.97 0.263 7.35 5.24 13.79
2/4/2021 12:15:00 PM 1.81 35.258 0.266 7.35 5.2 13.79
2/4/2021 12:30:00 PM 1.94 35.492 0.268 7.35 5.23 13.77
2/4/2021 12:45:00 PM 2.05 35.69 0.269 7.36 5.38 13.75
2/4/2021 1:00:00 PM 2.15 35.87 0.269 7.36 5.36 13.74
2/4/2021 1:15:00 PM 2.25 36.05 0.27 7.36 5.55 13.72
2/4/2021 1:30:00 PM 2.32 36.176 0.273 7.37 5.87 13.71
2/4/2021 1:45:00 PM 2.38 36.284 0.276 7.37 5.56 13.69
2/4/2021 2:00:00 PM 2.42 36.356 0.276 7.37 5.58 13.68
2/4/2021 2:15:00 PM 2.43 36.374 0.278 7.37 5.56 13.68
2/4/2021 2:30:00 PM 2.41 36.338 0.279 7.38 5.52 13.67
2/4/2021 2:45:00 PM 2.39 36.302 0.28 7.38 5.57 13.67
2/4/2021 3:00:00 PM 2.35 36.23 0.279 7.38 5.59 13.66
2/4/2021 3:15:00 PM 2.26 36.068 0.28 7.38 5.61 13.66
2/4/2021 3:30:00 PM 2.14 35.852 0.281 7.38 5.62 13.66
2/4/2021 3:45:00 PM 1.99 35.582 0.281 7.37 5.51 13.65
2/4/2021 4:00:00 PM 1.85 35.33 0.283 7.37 5.43 13.65
2/4/2021 4:15:00 PM 1.66 34.988 0.283 7.37 5.48 13.65
2/4/2021 4:30:00 PM 1.45 34.61 0.282 7.36 5.47 13.62
2/4/2021 4:45:00 PM 1.27 34.286 0.282 7.36 5.42 13.6
2/4/2021 5:00:00 PM 1.14 34.052 0.282 7.35 5.39 13.58
2/4/2021 5:15:00 PM 1.03 33.854 0.282 7.35 5.29 13.55
2/4/2021 5:30:00 PM 0.94 33.692 0.28 7.34 5.13 13.5
2/4/2021 5:45:00 PM 0.87 33.566 0.28 7.34 5.21 13.45
2/4/2021 6:00:00 PM 0.81 33.458 0.278 7.33 5.01 13.42
2/4/2021 6:15:00 PM 0.76 33.368 0.277 7.33 5.05 13.4
2/4/2021 6:30:00 PM 0.72 33.296 0.276 7.32 5.24 13.36
2/4/2021 6:45:00 PM 0.68 33.224 0.275 7.32 5.08 13.34
2/4/2021 7:00:00 PM 0.66 33.188 0.275 7.31 5.05 13.32
2/4/2021 7:15:00 PM 0.64 33.152 0.274 7.31 5.28 13.3
2/4/2021 7:30:00 PM 0.63 33.134 0.274 7.3 5.12 13.29
2/4/2021 7:45:00 PM 0.63 33.134 0.273 7.3 5.1 13.28
2/4/2021 8:00:00 PM 0.62 33.116 0.273 7.3 5.02 13.26
2/4/2021 8:15:00 PM 0.61 33.098 0.272 7.29 5.09 13.25
2/4/2021 8:30:00 PM 0.61 33.098 0.272 7.29 4.89 13.25
2/4/2021 8:45:00 PM 0.61 33.098 0.271 7.29 4.96 13.24
2/4/2021 9:00:00 PM 0.61 33.098 0.271 7.29 4.97 13.23
2/4/2021 9:15:00 PM 0.62 33.116 0.27 7.29 4.96 13.22
2/4/2021 9:30:00 PM 0.63 33.134 0.27 7.28 4.95 13.21
2/4/2021 9:45:00 PM 0.64 33.152 0.27 7.29 5.04 13.19
2/4/2021 10:00:00 PM 0.65 33.17 0.27 7.29 4.95 13.18
2/4/2021 10:15:00 PM 0.66 33.188 0.269 7.28 5.04 13.18
2/4/2021 10:30:00 PM 0.68 33.224 0.269 7.28 5.08 13.16
2/4/2021 10:45:00 PM 0.69 33.242 0.269 7.28 4.93 13.14
2/4/2021 11:00:00 PM 0.69 33.242 0.268 7.28 5.1 13.14
2/4/2021 11:15:00 PM 0.7 33.26 0.268 7.27 4.95 13.14
2/4/2021 11:30:00 PM 0.7 33.26 0.268 7.28 4.91 13.13
2/4/2021 11:45:00 PM 0.64 33.152 0.268 7.28 4.97 13.12
2/5/2021 12:00:00 AM 0.54 32.972 0.267 7.28 4.97 13.12
2/5/2021 12:15:00 AM 0.56 33.008 0.266 7.28 5.11 13.13
2/5/2021 12:30:00 AM 0.57 33.026 0.267 7.28 4.96 13.12
2/5/2021 12:45:00 AM 0.57 33.026 0.267 7.28 5.1 13.12
2/5/2021 1:00:00 AM 0.58 33.044 0.267 7.28 5.11 13.11
2/5/2021 1:15:00 AM 0.6 33.08 0.266 7.27 5.11 13.1
2/5/2021 1:30:00 AM 0.62 33.116 0.266 7.27 5.56 13.09
2/5/2021 1:45:00 AM 0.63 33.134 0.266 7.27 5.84 13.07
2/5/2021 2:00:00 AM 0.63 33.134 0.266 7.26 5.49 13.05
2/5/2021 2:15:00 AM 0.63 33.134 0.266 7.26 5.33 13.04
2/5/2021 2:30:00 AM 0.65 33.17 0.266 7.26 5.2 13.04
2/5/2021 2:45:00 AM 0.66 33.188 0.267 7.26 5.08 13.03
2/5/2021 3:00:00 AM 0.67 33.206 0.267 7.26 5.16 13.03
2/5/2021 3:15:00 AM 0.69 33.242 0.269 7.26 5.13 13.03
2/5/2021 3:30:00 AM 0.7 33.26 0.269 7.26 4.99 13.01
2/5/2021 3:45:00 AM 0.71 33.278 0.27 7.26 4.98 13.01
2/5/2021 4:00:00 AM 0.72 33.296 0.27 7.26 5.53 13
2/5/2021 4:15:00 AM 0.73 33.314 0.269 7.26 4.89 12.99
2/5/2021 4:30:00 AM 0.73 33.314 0.269 7.26 4.87 12.99
2/5/2021 4:45:00 AM 0.73 33.314 0.27 7.26 4.92 12.98
2/5/2021 5:00:00 AM 0.74 33.332 0.269 7.26 4.99 12.97
2/5/2021 5:15:00 AM 0.74 33.332 0.27 7.26 5.15 12.95
2/5/2021 5:30:00 AM 0.75 33.35 0.271 7.26 5.01 12.97
2/5/2021 5:45:00 AM 0.76 33.368 0.272 7.26 5.02 12.95
2/5/2021 6:00:00 AM 0.77 33.386 0.272 7.26 5.28 12.96
2/5/2021 6:15:00 AM 0.79 33.422 0.273 7.26 5.68 12.95
2/5/2021 6:30:00 AM 0.8 33.44 0.273 7.26 5.67 12.92
2/5/2021 6:45:00 AM 0.8 33.44 0.274 7.26 5.37 12.94
2/5/2021 7:00:00 AM 0.81 33.458 0.275 7.26 5.44 12.93
2/5/2021 7:15:00 AM 0.81 33.458 0.275 7.27 5.24 12.95
2/5/2021 7:30:00 AM 0.8 33.44 0.275 7.27 5.12 12.94
2/5/2021 7:45:00 AM 0.8 33.44 0.276 7.27 5.16 12.96
2/5/2021 8:00:00 AM 0.8 33.44 0.277 7.27 5.04 13
2/5/2021 8:15:00 AM 0.82 33.476 0.276 7.27 4.91 13.06
2/5/2021 8:30:00 AM 0.84 33.512 0.276 7.28 4.89 13.12
2/5/2021 8:45:00 AM 0.87 33.566 0.276 7.28 4.86 13.18
2/5/2021 9:00:00 AM 0.91 33.638 0.275 7.29 5.01 13.27
2/5/2021 9:15:00 AM 0.96 33.728 0.275 7.3 4.89 13.36
2/5/2021 9:30:00 AM 0.98 33.764 0.274 7.3 4.88 13.4
2/5/2021 9:45:00 AM 1.01 33.818 0.274 7.31 5.06 13.45
2/5/2021 10:00:00 AM 1.06 33.908 0.274 7.32 4.93 13.49
2/5/2021 10:15:00 AM 1.08 33.944 0.273 7.32 4.94 13.53
2/5/2021 10:30:00 AM 1.15 34.07 0.273 7.33 5.01